<?xml version="1.0" encoding="UTF-8" standalone="no" ?>
<gpx xmlns="http://www.topografix.com/GPX/1/1" xmlns:xsi="http://www.w3.org/2001/XMLSchema-instance" xsi:schemaLocation="http://www.topografix.com/GPX/1/1 http://www.topografix.com/GPX/1/1/gpx.xsd" version="1.1" creator="VisuGPX - https://www.visugpx.com">
  <metadata>
    <name>13-June-2009 Callian</name>
    <desc><![CDATA[13-June-2009 Callian
-----------------------
piscine apres !]]></desc>
  </metadata>
  <trk>
    <name><![CDATA[Track 17]]></name>
    <desc><![CDATA[]]></desc>
    <trkseg>
      <trkpt lat="43.62098" lon="6.7751">
        <ele>522</ele>
        <time>2009-06-13T11:04:35Z</time>
      </trkpt>
      <trkpt lat="43.62103" lon="6.77507">
        <ele>527</ele>
        <time>2009-06-13T11:04:36Z</time>
      </trkpt>
      <trkpt lat="43.62109" lon="6.77501">
        <ele>529</ele>
        <time>2009-06-13T11:04:37Z</time>
      </trkpt>
      <trkpt lat="43.62105" lon="6.77508">
        <ele>524</ele>
        <time>2009-06-13T11:04:39Z</time>
      </trkpt>
      <trkpt lat="43.62107" lon="6.77502">
        <ele>519</ele>
        <time>2009-06-13T11:04:41Z</time>
      </trkpt>
      <trkpt lat="43.6214" lon="6.7748">
        <ele>477</ele>
        <time>2009-06-13T11:04:44Z</time>
      </trkpt>
      <trkpt lat="43.62147" lon="6.77477">
        <ele>467</ele>
        <time>2009-06-13T11:04:46Z</time>
      </trkpt>
      <trkpt lat="43.62152" lon="6.77471">
        <ele>471</ele>
        <time>2009-06-13T11:04:50Z</time>
      </trkpt>
      <trkpt lat="43.62159" lon="6.77468">
        <ele>462</ele>
        <time>2009-06-13T11:04:54Z</time>
      </trkpt>
      <trkpt lat="43.62151" lon="6.77436">
        <ele>457</ele>
        <time>2009-06-13T11:05:13Z</time>
      </trkpt>
      <trkpt lat="43.62137" lon="6.77435">
        <ele>451</ele>
        <time>2009-06-13T11:05:17Z</time>
      </trkpt>
      <trkpt lat="43.62127" lon="6.77442">
        <ele>454</ele>
        <time>2009-06-13T11:05:18Z</time>
      </trkpt>
      <trkpt lat="43.62109" lon="6.77471">
        <ele>452</ele>
        <time>2009-06-13T11:05:27Z</time>
      </trkpt>
      <trkpt lat="43.62103" lon="6.77488">
        <ele>447</ele>
        <time>2009-06-13T11:05:31Z</time>
      </trkpt>
      <trkpt lat="43.62099" lon="6.77498">
        <ele>448</ele>
        <time>2009-06-13T11:05:32Z</time>
      </trkpt>
      <trkpt lat="43.62095" lon="6.77515">
        <ele>445</ele>
        <time>2009-06-13T11:05:35Z</time>
      </trkpt>
      <trkpt lat="43.62085" lon="6.77536">
        <ele>445</ele>
        <time>2009-06-13T11:05:39Z</time>
      </trkpt>
      <trkpt lat="43.62081" lon="6.77539">
        <ele>446</ele>
        <time>2009-06-13T11:05:40Z</time>
      </trkpt>
      <trkpt lat="43.62081" lon="6.77549">
        <ele>447</ele>
        <time>2009-06-13T11:05:43Z</time>
      </trkpt>
      <trkpt lat="43.62081" lon="6.77556">
        <ele>448</ele>
        <time>2009-06-13T11:05:44Z</time>
      </trkpt>
      <trkpt lat="43.62078" lon="6.77583">
        <ele>448</ele>
        <time>2009-06-13T11:05:51Z</time>
      </trkpt>
      <trkpt lat="43.62075" lon="6.77593">
        <ele>451</ele>
        <time>2009-06-13T11:05:52Z</time>
      </trkpt>
      <trkpt lat="43.62082" lon="6.77606">
        <ele>451</ele>
        <time>2009-06-13T11:05:55Z</time>
      </trkpt>
      <trkpt lat="43.62098" lon="6.77623">
        <ele>453</ele>
        <time>2009-06-13T11:05:59Z</time>
      </trkpt>
      <trkpt lat="43.62102" lon="6.77627">
        <ele>453</ele>
        <time>2009-06-13T11:06:00Z</time>
      </trkpt>
      <trkpt lat="43.62115" lon="6.77641">
        <ele>453</ele>
        <time>2009-06-13T11:06:03Z</time>
      </trkpt>
      <trkpt lat="43.62121" lon="6.77646">
        <ele>454</ele>
        <time>2009-06-13T11:06:04Z</time>
      </trkpt>
      <trkpt lat="43.62135" lon="6.77659">
        <ele>454</ele>
        <time>2009-06-13T11:06:07Z</time>
      </trkpt>
      <trkpt lat="43.6214" lon="6.77664">
        <ele>454</ele>
        <time>2009-06-13T11:06:08Z</time>
      </trkpt>
      <trkpt lat="43.62175" lon="6.77726">
        <ele>455</ele>
        <time>2009-06-13T11:06:16Z</time>
      </trkpt>
      <trkpt lat="43.6218" lon="6.7774">
        <ele>455</ele>
        <time>2009-06-13T11:06:17Z</time>
      </trkpt>
      <trkpt lat="43.62196" lon="6.77771">
        <ele>456</ele>
        <time>2009-06-13T11:06:19Z</time>
      </trkpt>
      <trkpt lat="43.62204" lon="6.77785">
        <ele>456</ele>
        <time>2009-06-13T11:06:20Z</time>
      </trkpt>
      <trkpt lat="43.62222" lon="6.77817">
        <ele>457</ele>
        <time>2009-06-13T11:06:23Z</time>
      </trkpt>
      <trkpt lat="43.6223" lon="6.77827">
        <ele>458</ele>
        <time>2009-06-13T11:06:24Z</time>
      </trkpt>
      <trkpt lat="43.62244" lon="6.77849">
        <ele>458</ele>
        <time>2009-06-13T11:06:27Z</time>
      </trkpt>
      <trkpt lat="43.62248" lon="6.77854">
        <ele>457</ele>
        <time>2009-06-13T11:06:28Z</time>
      </trkpt>
      <trkpt lat="43.62263" lon="6.77861">
        <ele>455</ele>
        <time>2009-06-13T11:06:32Z</time>
      </trkpt>
      <trkpt lat="43.62267" lon="6.77859">
        <ele>455</ele>
        <time>2009-06-13T11:06:33Z</time>
      </trkpt>
      <trkpt lat="43.62291" lon="6.77824">
        <ele>456</ele>
        <time>2009-06-13T11:06:41Z</time>
      </trkpt>
      <trkpt lat="43.62292" lon="6.77815">
        <ele>455</ele>
        <time>2009-06-13T11:06:42Z</time>
      </trkpt>
      <trkpt lat="43.623" lon="6.77799">
        <ele>456</ele>
        <time>2009-06-13T11:06:45Z</time>
      </trkpt>
      <trkpt lat="43.62309" lon="6.77777">
        <ele>454</ele>
        <time>2009-06-13T11:06:49Z</time>
      </trkpt>
      <trkpt lat="43.62336" lon="6.77729">
        <ele>455</ele>
        <time>2009-06-13T11:06:56Z</time>
      </trkpt>
      <trkpt lat="43.62341" lon="6.77718">
        <ele>456</ele>
        <time>2009-06-13T11:06:57Z</time>
      </trkpt>
      <trkpt lat="43.62354" lon="6.77698">
        <ele>455</ele>
        <time>2009-06-13T11:07:00Z</time>
      </trkpt>
      <trkpt lat="43.62358" lon="6.77689">
        <ele>456</ele>
        <time>2009-06-13T11:07:01Z</time>
      </trkpt>
      <trkpt lat="43.62366" lon="6.77668">
        <ele>457</ele>
        <time>2009-06-13T11:07:04Z</time>
      </trkpt>
      <trkpt lat="43.62368" lon="6.77661">
        <ele>457</ele>
        <time>2009-06-13T11:07:05Z</time>
      </trkpt>
      <trkpt lat="43.62376" lon="6.77638">
        <ele>457</ele>
        <time>2009-06-13T11:07:08Z</time>
      </trkpt>
      <trkpt lat="43.62376" lon="6.77609">
        <ele>456</ele>
        <time>2009-06-13T11:07:12Z</time>
      </trkpt>
      <trkpt lat="43.62377" lon="6.77597">
        <ele>456</ele>
        <time>2009-06-13T11:07:13Z</time>
      </trkpt>
      <trkpt lat="43.62383" lon="6.7751">
        <ele>452</ele>
        <time>2009-06-13T11:07:21Z</time>
      </trkpt>
      <trkpt lat="43.62389" lon="6.77498">
        <ele>450</ele>
        <time>2009-06-13T11:07:22Z</time>
      </trkpt>
      <trkpt lat="43.62392" lon="6.77472">
        <ele>449</ele>
        <time>2009-06-13T11:07:25Z</time>
      </trkpt>
      <trkpt lat="43.62395" lon="6.77463">
        <ele>450</ele>
        <time>2009-06-13T11:07:26Z</time>
      </trkpt>
      <trkpt lat="43.62397" lon="6.77445">
        <ele>450</ele>
        <time>2009-06-13T11:07:29Z</time>
      </trkpt>
      <trkpt lat="43.62401" lon="6.77437">
        <ele>449</ele>
        <time>2009-06-13T11:07:30Z</time>
      </trkpt>
      <trkpt lat="43.62408" lon="6.77413">
        <ele>450</ele>
        <time>2009-06-13T11:07:33Z</time>
      </trkpt>
      <trkpt lat="43.62412" lon="6.77402">
        <ele>450</ele>
        <time>2009-06-13T11:07:34Z</time>
      </trkpt>
      <trkpt lat="43.62421" lon="6.77378">
        <ele>450</ele>
        <time>2009-06-13T11:07:37Z</time>
      </trkpt>
      <trkpt lat="43.62424" lon="6.7737">
        <ele>450</ele>
        <time>2009-06-13T11:07:38Z</time>
      </trkpt>
      <trkpt lat="43.62447" lon="6.77319">
        <ele>449</ele>
        <time>2009-06-13T11:07:46Z</time>
      </trkpt>
      <trkpt lat="43.62451" lon="6.77307">
        <ele>449</ele>
        <time>2009-06-13T11:07:47Z</time>
      </trkpt>
      <trkpt lat="43.62462" lon="6.77285">
        <ele>447</ele>
        <time>2009-06-13T11:07:50Z</time>
      </trkpt>
      <trkpt lat="43.62464" lon="6.77277">
        <ele>447</ele>
        <time>2009-06-13T11:07:51Z</time>
      </trkpt>
      <trkpt lat="43.62473" lon="6.77255">
        <ele>446</ele>
        <time>2009-06-13T11:07:54Z</time>
      </trkpt>
      <trkpt lat="43.62495" lon="6.77203">
        <ele>445</ele>
        <time>2009-06-13T11:08:01Z</time>
      </trkpt>
      <trkpt lat="43.625" lon="6.77195">
        <ele>445</ele>
        <time>2009-06-13T11:08:02Z</time>
      </trkpt>
      <trkpt lat="43.62511" lon="6.77174">
        <ele>444</ele>
        <time>2009-06-13T11:08:05Z</time>
      </trkpt>
      <trkpt lat="43.62522" lon="6.77146">
        <ele>443</ele>
        <time>2009-06-13T11:08:09Z</time>
      </trkpt>
      <trkpt lat="43.62527" lon="6.77137">
        <ele>442</ele>
        <time>2009-06-13T11:08:10Z</time>
      </trkpt>
      <trkpt lat="43.62534" lon="6.77111">
        <ele>441</ele>
        <time>2009-06-13T11:08:13Z</time>
      </trkpt>
      <trkpt lat="43.62537" lon="6.77102">
        <ele>441</ele>
        <time>2009-06-13T11:08:14Z</time>
      </trkpt>
      <trkpt lat="43.62542" lon="6.77078">
        <ele>441</ele>
        <time>2009-06-13T11:08:17Z</time>
      </trkpt>
      <trkpt lat="43.62544" lon="6.77069">
        <ele>440</ele>
        <time>2009-06-13T11:08:18Z</time>
      </trkpt>
      <trkpt lat="43.62566" lon="6.76996">
        <ele>442</ele>
        <time>2009-06-13T11:08:26Z</time>
      </trkpt>
      <trkpt lat="43.62568" lon="6.76986">
        <ele>443</ele>
        <time>2009-06-13T11:08:27Z</time>
      </trkpt>
      <trkpt lat="43.62575" lon="6.76964">
        <ele>444</ele>
        <time>2009-06-13T11:08:30Z</time>
      </trkpt>
      <trkpt lat="43.62578" lon="6.76957">
        <ele>445</ele>
        <time>2009-06-13T11:08:31Z</time>
      </trkpt>
      <trkpt lat="43.62588" lon="6.76939">
        <ele>445</ele>
        <time>2009-06-13T11:08:34Z</time>
      </trkpt>
      <trkpt lat="43.62593" lon="6.76921">
        <ele>447</ele>
        <time>2009-06-13T11:08:38Z</time>
      </trkpt>
      <trkpt lat="43.62595" lon="6.76915">
        <ele>447</ele>
        <time>2009-06-13T11:08:39Z</time>
      </trkpt>
      <trkpt lat="43.62597" lon="6.76906">
        <ele>449</ele>
        <time>2009-06-13T11:08:42Z</time>
      </trkpt>
      <trkpt lat="43.626" lon="6.76901">
        <ele>447</ele>
        <time>2009-06-13T11:08:43Z</time>
      </trkpt>
      <trkpt lat="43.6261" lon="6.76859">
        <ele>448</ele>
        <time>2009-06-13T11:08:51Z</time>
      </trkpt>
      <trkpt lat="43.62618" lon="6.76843">
        <ele>447</ele>
        <time>2009-06-13T11:08:52Z</time>
      </trkpt>
      <trkpt lat="43.62627" lon="6.76827">
        <ele>447</ele>
        <time>2009-06-13T11:08:55Z</time>
      </trkpt>
      <trkpt lat="43.62631" lon="6.76821">
        <ele>447</ele>
        <time>2009-06-13T11:08:56Z</time>
      </trkpt>
      <trkpt lat="43.62642" lon="6.7681">
        <ele>447</ele>
        <time>2009-06-13T11:08:59Z</time>
      </trkpt>
      <trkpt lat="43.62674" lon="6.76792">
        <ele>447</ele>
        <time>2009-06-13T11:09:07Z</time>
      </trkpt>
      <trkpt lat="43.62678" lon="6.76788">
        <ele>447</ele>
        <time>2009-06-13T11:09:08Z</time>
      </trkpt>
      <trkpt lat="43.62687" lon="6.76774">
        <ele>448</ele>
        <time>2009-06-13T11:09:11Z</time>
      </trkpt>
      <trkpt lat="43.6269" lon="6.7677">
        <ele>449</ele>
        <time>2009-06-13T11:09:12Z</time>
      </trkpt>
      <trkpt lat="43.62696" lon="6.76761">
        <ele>451</ele>
        <time>2009-06-13T11:09:15Z</time>
      </trkpt>
      <trkpt lat="43.627" lon="6.76758">
        <ele>451</ele>
        <time>2009-06-13T11:09:16Z</time>
      </trkpt>
      <trkpt lat="43.62708" lon="6.76747">
        <ele>453</ele>
        <time>2009-06-13T11:09:19Z</time>
      </trkpt>
      <trkpt lat="43.62711" lon="6.76742">
        <ele>454</ele>
        <time>2009-06-13T11:09:20Z</time>
      </trkpt>
      <trkpt lat="43.62719" lon="6.76728">
        <ele>454</ele>
        <time>2009-06-13T11:09:22Z</time>
      </trkpt>
      <trkpt lat="43.6273" lon="6.76706">
        <ele>456</ele>
        <time>2009-06-13T11:09:26Z</time>
      </trkpt>
      <trkpt lat="43.62737" lon="6.76692">
        <ele>456</ele>
        <time>2009-06-13T11:09:30Z</time>
      </trkpt>
      <trkpt lat="43.62744" lon="6.76677">
        <ele>458</ele>
        <time>2009-06-13T11:09:33Z</time>
      </trkpt>
      <trkpt lat="43.62751" lon="6.76659">
        <ele>458</ele>
        <time>2009-06-13T11:09:36Z</time>
      </trkpt>
      <trkpt lat="43.62757" lon="6.76641">
        <ele>459</ele>
        <time>2009-06-13T11:09:39Z</time>
      </trkpt>
      <trkpt lat="43.62765" lon="6.76627">
        <ele>457</ele>
        <time>2009-06-13T11:09:42Z</time>
      </trkpt>
      <trkpt lat="43.62767" lon="6.7662">
        <ele>456</ele>
        <time>2009-06-13T11:09:43Z</time>
      </trkpt>
      <trkpt lat="43.62772" lon="6.76604">
        <ele>455</ele>
        <time>2009-06-13T11:09:46Z</time>
      </trkpt>
      <trkpt lat="43.62775" lon="6.76598">
        <ele>453</ele>
        <time>2009-06-13T11:09:47Z</time>
      </trkpt>
      <trkpt lat="43.62787" lon="6.76546">
        <ele>454</ele>
        <time>2009-06-13T11:09:55Z</time>
      </trkpt>
      <trkpt lat="43.62789" lon="6.76538">
        <ele>454</ele>
        <time>2009-06-13T11:09:56Z</time>
      </trkpt>
      <trkpt lat="43.62793" lon="6.76521">
        <ele>456</ele>
        <time>2009-06-13T11:09:59Z</time>
      </trkpt>
      <trkpt lat="43.62796" lon="6.765">
        <ele>457</ele>
        <time>2009-06-13T11:10:03Z</time>
      </trkpt>
      <trkpt lat="43.62796" lon="6.76493">
        <ele>456</ele>
        <time>2009-06-13T11:10:04Z</time>
      </trkpt>
      <trkpt lat="43.62799" lon="6.76475">
        <ele>454</ele>
        <time>2009-06-13T11:10:07Z</time>
      </trkpt>
      <trkpt lat="43.628" lon="6.76467">
        <ele>453</ele>
        <time>2009-06-13T11:10:08Z</time>
      </trkpt>
      <trkpt lat="43.62806" lon="6.76448">
        <ele>453</ele>
        <time>2009-06-13T11:10:11Z</time>
      </trkpt>
      <trkpt lat="43.62809" lon="6.76439">
        <ele>453</ele>
        <time>2009-06-13T11:10:12Z</time>
      </trkpt>
      <trkpt lat="43.6283" lon="6.76388">
        <ele>454</ele>
        <time>2009-06-13T11:10:20Z</time>
      </trkpt>
      <trkpt lat="43.62833" lon="6.76382">
        <ele>453</ele>
        <time>2009-06-13T11:10:21Z</time>
      </trkpt>
      <trkpt lat="43.62838" lon="6.76366">
        <ele>454</ele>
        <time>2009-06-13T11:10:24Z</time>
      </trkpt>
      <trkpt lat="43.62847" lon="6.7634">
        <ele>453</ele>
        <time>2009-06-13T11:10:28Z</time>
      </trkpt>
      <trkpt lat="43.62854" lon="6.76325">
        <ele>454</ele>
        <time>2009-06-13T11:10:31Z</time>
      </trkpt>
      <trkpt lat="43.62858" lon="6.76318">
        <ele>454</ele>
        <time>2009-06-13T11:10:32Z</time>
      </trkpt>
      <trkpt lat="43.62864" lon="6.76301">
        <ele>454</ele>
        <time>2009-06-13T11:10:35Z</time>
      </trkpt>
      <trkpt lat="43.62867" lon="6.76294">
        <ele>454</ele>
        <time>2009-06-13T11:10:36Z</time>
      </trkpt>
      <trkpt lat="43.62868" lon="6.76278">
        <ele>453</ele>
        <time>2009-06-13T11:10:39Z</time>
      </trkpt>
      <trkpt lat="43.62869" lon="6.76272">
        <ele>453</ele>
        <time>2009-06-13T11:10:40Z</time>
      </trkpt>
      <trkpt lat="43.62872" lon="6.76252">
        <ele>451</ele>
        <time>2009-06-13T11:10:43Z</time>
      </trkpt>
      <trkpt lat="43.62874" lon="6.76243">
        <ele>450</ele>
        <time>2009-06-13T11:10:44Z</time>
      </trkpt>
      <trkpt lat="43.62907" lon="6.76204">
        <ele>448</ele>
        <time>2009-06-13T11:10:52Z</time>
      </trkpt>
      <trkpt lat="43.62917" lon="6.76196">
        <ele>446</ele>
        <time>2009-06-13T11:10:53Z</time>
      </trkpt>
      <trkpt lat="43.6293" lon="6.76178">
        <ele>448</ele>
        <time>2009-06-13T11:10:56Z</time>
      </trkpt>
      <trkpt lat="43.6294" lon="6.76165">
        <ele>449</ele>
        <time>2009-06-13T11:10:59Z</time>
      </trkpt>
      <trkpt lat="43.62944" lon="6.76155">
        <ele>449</ele>
        <time>2009-06-13T11:11:00Z</time>
      </trkpt>
      <trkpt lat="43.62951" lon="6.76132">
        <ele>449</ele>
        <time>2009-06-13T11:11:03Z</time>
      </trkpt>
      <trkpt lat="43.62956" lon="6.76107">
        <ele>449</ele>
        <time>2009-06-13T11:11:06Z</time>
      </trkpt>
      <trkpt lat="43.62957" lon="6.76096">
        <ele>448</ele>
        <time>2009-06-13T11:11:07Z</time>
      </trkpt>
      <trkpt lat="43.62962" lon="6.76071">
        <ele>446</ele>
        <time>2009-06-13T11:11:10Z</time>
      </trkpt>
      <trkpt lat="43.62964" lon="6.7606">
        <ele>446</ele>
        <time>2009-06-13T11:11:11Z</time>
      </trkpt>
      <trkpt lat="43.62976" lon="6.75998">
        <ele>446</ele>
        <time>2009-06-13T11:11:19Z</time>
      </trkpt>
      <trkpt lat="43.62977" lon="6.75992">
        <ele>446</ele>
        <time>2009-06-13T11:11:20Z</time>
      </trkpt>
      <trkpt lat="43.62982" lon="6.75969">
        <ele>445</ele>
        <time>2009-06-13T11:11:23Z</time>
      </trkpt>
      <trkpt lat="43.62983" lon="6.75961">
        <ele>445</ele>
        <time>2009-06-13T11:11:24Z</time>
      </trkpt>
      <trkpt lat="43.62987" lon="6.75932">
        <ele>446</ele>
        <time>2009-06-13T11:11:28Z</time>
      </trkpt>
      <trkpt lat="43.62989" lon="6.75914">
        <ele>445</ele>
        <time>2009-06-13T11:11:31Z</time>
      </trkpt>
      <trkpt lat="43.62991" lon="6.75908">
        <ele>444</ele>
        <time>2009-06-13T11:11:32Z</time>
      </trkpt>
      <trkpt lat="43.62991" lon="6.75893">
        <ele>445</ele>
        <time>2009-06-13T11:11:35Z</time>
      </trkpt>
      <trkpt lat="43.62992" lon="6.75887">
        <ele>446</ele>
        <time>2009-06-13T11:11:36Z</time>
      </trkpt>
      <trkpt lat="43.62994" lon="6.75873">
        <ele>449</ele>
        <time>2009-06-13T11:11:39Z</time>
      </trkpt>
      <trkpt lat="43.62997" lon="6.75856">
        <ele>448</ele>
        <time>2009-06-13T11:11:43Z</time>
      </trkpt>
      <trkpt lat="43.63002" lon="6.75818">
        <ele>453</ele>
        <time>2009-06-13T11:11:52Z</time>
      </trkpt>
      <trkpt lat="43.63009" lon="6.75802">
        <ele>456</ele>
        <time>2009-06-13T11:11:56Z</time>
      </trkpt>
      <trkpt lat="43.63012" lon="6.75795">
        <ele>457</ele>
        <time>2009-06-13T11:11:57Z</time>
      </trkpt>
      <trkpt lat="43.63015" lon="6.75781">
        <ele>458</ele>
        <time>2009-06-13T11:12:00Z</time>
      </trkpt>
      <trkpt lat="43.6302" lon="6.75766">
        <ele>458</ele>
        <time>2009-06-13T11:12:04Z</time>
      </trkpt>
      <trkpt lat="43.63024" lon="6.75751">
        <ele>456</ele>
        <time>2009-06-13T11:12:08Z</time>
      </trkpt>
      <trkpt lat="43.63034" lon="6.75717">
        <ele>458</ele>
        <time>2009-06-13T11:12:17Z</time>
      </trkpt>
      <trkpt lat="43.63036" lon="6.75711">
        <ele>458</ele>
        <time>2009-06-13T11:12:18Z</time>
      </trkpt>
      <trkpt lat="43.6304" lon="6.75697">
        <ele>460</ele>
        <time>2009-06-13T11:12:21Z</time>
      </trkpt>
      <trkpt lat="43.63059" lon="6.75665">
        <ele>460</ele>
        <time>2009-06-13T11:12:29Z</time>
      </trkpt>
      <trkpt lat="43.63066" lon="6.75654">
        <ele>456</ele>
        <time>2009-06-13T11:12:30Z</time>
      </trkpt>
      <trkpt lat="43.63077" lon="6.75638">
        <ele>456</ele>
        <time>2009-06-13T11:12:33Z</time>
      </trkpt>
      <trkpt lat="43.63088" lon="6.75621">
        <ele>457</ele>
        <time>2009-06-13T11:12:36Z</time>
      </trkpt>
      <trkpt lat="43.63094" lon="6.75615">
        <ele>456</ele>
        <time>2009-06-13T11:12:37Z</time>
      </trkpt>
      <trkpt lat="43.63108" lon="6.75605">
        <ele>457</ele>
        <time>2009-06-13T11:12:40Z</time>
      </trkpt>
      <trkpt lat="43.63115" lon="6.75604">
        <ele>454</ele>
        <time>2009-06-13T11:12:41Z</time>
      </trkpt>
      <trkpt lat="43.63132" lon="6.75595">
        <ele>455</ele>
        <time>2009-06-13T11:12:44Z</time>
      </trkpt>
      <trkpt lat="43.63136" lon="6.75591">
        <ele>456</ele>
        <time>2009-06-13T11:12:45Z</time>
      </trkpt>
      <trkpt lat="43.63159" lon="6.75552">
        <ele>455</ele>
        <time>2009-06-13T11:12:53Z</time>
      </trkpt>
      <trkpt lat="43.63157" lon="6.75541">
        <ele>455</ele>
        <time>2009-06-13T11:12:54Z</time>
      </trkpt>
      <trkpt lat="43.63161" lon="6.75522">
        <ele>455</ele>
        <time>2009-06-13T11:12:56Z</time>
      </trkpt>
      <trkpt lat="43.63163" lon="6.75514">
        <ele>455</ele>
        <time>2009-06-13T11:12:57Z</time>
      </trkpt>
      <trkpt lat="43.63169" lon="6.75501">
        <ele>455</ele>
        <time>2009-06-13T11:13:00Z</time>
      </trkpt>
      <trkpt lat="43.63172" lon="6.75496">
        <ele>453</ele>
        <time>2009-06-13T11:13:01Z</time>
      </trkpt>
      <trkpt lat="43.63186" lon="6.75474">
        <ele>452</ele>
        <time>2009-06-13T11:13:04Z</time>
      </trkpt>
      <trkpt lat="43.6319" lon="6.75469">
        <ele>450</ele>
        <time>2009-06-13T11:13:05Z</time>
      </trkpt>
      <trkpt lat="43.632" lon="6.75455">
        <ele>449</ele>
        <time>2009-06-13T11:13:09Z</time>
      </trkpt>
      <trkpt lat="43.63203" lon="6.75449">
        <ele>449</ele>
        <time>2009-06-13T11:13:10Z</time>
      </trkpt>
      <trkpt lat="43.63232" lon="6.75395">
        <ele>448</ele>
        <time>2009-06-13T11:13:18Z</time>
      </trkpt>
      <trkpt lat="43.63236" lon="6.75385">
        <ele>448</ele>
        <time>2009-06-13T11:13:19Z</time>
      </trkpt>
      <trkpt lat="43.63243" lon="6.75364">
        <ele>448</ele>
        <time>2009-06-13T11:13:22Z</time>
      </trkpt>
      <trkpt lat="43.63246" lon="6.75354">
        <ele>448</ele>
        <time>2009-06-13T11:13:23Z</time>
      </trkpt>
      <trkpt lat="43.63257" lon="6.75322">
        <ele>455</ele>
        <time>2009-06-13T11:13:27Z</time>
      </trkpt>
      <trkpt lat="43.63268" lon="6.75298">
        <ele>458</ele>
        <time>2009-06-13T11:13:30Z</time>
      </trkpt>
      <trkpt lat="43.63272" lon="6.7529">
        <ele>458</ele>
        <time>2009-06-13T11:13:31Z</time>
      </trkpt>
      <trkpt lat="43.63282" lon="6.75276">
        <ele>458</ele>
        <time>2009-06-13T11:13:33Z</time>
      </trkpt>
      <trkpt lat="43.63288" lon="6.75267">
        <ele>461</ele>
        <time>2009-06-13T11:13:34Z</time>
      </trkpt>
      <trkpt lat="43.63304" lon="6.75248">
        <ele>459</ele>
        <time>2009-06-13T11:13:37Z</time>
      </trkpt>
      <trkpt lat="43.63312" lon="6.75237">
        <ele>460</ele>
        <time>2009-06-13T11:13:38Z</time>
      </trkpt>
      <trkpt lat="43.63328" lon="6.75217">
        <ele>460</ele>
        <time>2009-06-13T11:13:41Z</time>
      </trkpt>
      <trkpt lat="43.63333" lon="6.75206">
        <ele>459</ele>
        <time>2009-06-13T11:13:42Z</time>
      </trkpt>
      <trkpt lat="43.63363" lon="6.75137">
        <ele>459</ele>
        <time>2009-06-13T11:13:50Z</time>
      </trkpt>
      <trkpt lat="43.63367" lon="6.75129">
        <ele>458</ele>
        <time>2009-06-13T11:13:51Z</time>
      </trkpt>
      <trkpt lat="43.63376" lon="6.75102">
        <ele>458</ele>
        <time>2009-06-13T11:13:54Z</time>
      </trkpt>
      <trkpt lat="43.63377" lon="6.75094">
        <ele>458</ele>
        <time>2009-06-13T11:13:55Z</time>
      </trkpt>
      <trkpt lat="43.63384" lon="6.75067">
        <ele>458</ele>
        <time>2009-06-13T11:13:58Z</time>
      </trkpt>
      <trkpt lat="43.63388" lon="6.75057">
        <ele>458</ele>
        <time>2009-06-13T11:13:59Z</time>
      </trkpt>
      <trkpt lat="43.63392" lon="6.75045">
        <ele>458</ele>
        <time>2009-06-13T11:14:00Z</time>
      </trkpt>
      <trkpt lat="43.63399" lon="6.75015">
        <ele>457</ele>
        <time>2009-06-13T11:14:03Z</time>
      </trkpt>
      <trkpt lat="43.63405" lon="6.75005">
        <ele>457</ele>
        <time>2009-06-13T11:14:04Z</time>
      </trkpt>
      <trkpt lat="43.6341" lon="6.74995">
        <ele>457</ele>
        <time>2009-06-13T11:14:05Z</time>
      </trkpt>
      <trkpt lat="43.63426" lon="6.7495">
        <ele>457</ele>
        <time>2009-06-13T11:14:12Z</time>
      </trkpt>
      <trkpt lat="43.63426" lon="6.74941">
        <ele>457</ele>
        <time>2009-06-13T11:14:13Z</time>
      </trkpt>
      <trkpt lat="43.63421" lon="6.74929">
        <ele>458</ele>
        <time>2009-06-13T11:14:17Z</time>
      </trkpt>
      <trkpt lat="43.63409" lon="6.7492">
        <ele>459</ele>
        <time>2009-06-13T11:14:21Z</time>
      </trkpt>
      <trkpt lat="43.63396" lon="6.74914">
        <ele>457</ele>
        <time>2009-06-13T11:14:25Z</time>
      </trkpt>
      <trkpt lat="43.63382" lon="6.74909">
        <ele>456</ele>
        <time>2009-06-13T11:14:29Z</time>
      </trkpt>
      <trkpt lat="43.63377" lon="6.74906">
        <ele>455</ele>
        <time>2009-06-13T11:14:30Z</time>
      </trkpt>
      <trkpt lat="43.6337" lon="6.749">
        <ele>453</ele>
        <time>2009-06-13T11:14:33Z</time>
      </trkpt>
      <trkpt lat="43.63356" lon="6.74897">
        <ele>450</ele>
        <time>2009-06-13T11:14:37Z</time>
      </trkpt>
      <trkpt lat="43.63343" lon="6.74896">
        <ele>449</ele>
        <time>2009-06-13T11:14:41Z</time>
      </trkpt>
      <trkpt lat="43.63332" lon="6.74897">
        <ele>449</ele>
        <time>2009-06-13T11:14:44Z</time>
      </trkpt>
      <trkpt lat="43.63324" lon="6.74899">
        <ele>449</ele>
        <time>2009-06-13T11:14:46Z</time>
      </trkpt>
      <trkpt lat="43.63316" lon="6.74902">
        <ele>450</ele>
        <time>2009-06-13T11:14:48Z</time>
      </trkpt>
      <trkpt lat="43.63309" lon="6.74904">
        <ele>449</ele>
        <time>2009-06-13T11:14:50Z</time>
      </trkpt>
      <trkpt lat="43.63301" lon="6.74907">
        <ele>449</ele>
        <time>2009-06-13T11:14:52Z</time>
      </trkpt>
      <trkpt lat="43.63294" lon="6.74911">
        <ele>449</ele>
        <time>2009-06-13T11:14:54Z</time>
      </trkpt>
      <trkpt lat="43.63282" lon="6.74914">
        <ele>451</ele>
        <time>2009-06-13T11:14:57Z</time>
      </trkpt>
      <trkpt lat="43.63271" lon="6.74916">
        <ele>450</ele>
        <time>2009-06-13T11:15:00Z</time>
      </trkpt>
      <trkpt lat="43.63259" lon="6.74915">
        <ele>451</ele>
        <time>2009-06-13T11:15:03Z</time>
      </trkpt>
      <trkpt lat="43.63244" lon="6.74915">
        <ele>451</ele>
        <time>2009-06-13T11:15:07Z</time>
      </trkpt>
      <trkpt lat="43.63213" lon="6.74923">
        <ele>451</ele>
        <time>2009-06-13T11:15:15Z</time>
      </trkpt>
      <trkpt lat="43.63196" lon="6.74928">
        <ele>451</ele>
        <time>2009-06-13T11:15:19Z</time>
      </trkpt>
      <trkpt lat="43.63191" lon="6.7493">
        <ele>452</ele>
        <time>2009-06-13T11:15:20Z</time>
      </trkpt>
      <trkpt lat="43.63178" lon="6.7493">
        <ele>455</ele>
        <time>2009-06-13T11:15:23Z</time>
      </trkpt>
      <trkpt lat="43.63173" lon="6.7493">
        <ele>458</ele>
        <time>2009-06-13T11:15:24Z</time>
      </trkpt>
      <trkpt lat="43.63162" lon="6.7493">
        <ele>459</ele>
        <time>2009-06-13T11:15:27Z</time>
      </trkpt>
      <trkpt lat="43.6315" lon="6.74932">
        <ele>461</ele>
        <time>2009-06-13T11:15:30Z</time>
      </trkpt>
      <trkpt lat="43.63139" lon="6.74933">
        <ele>459</ele>
        <time>2009-06-13T11:15:33Z</time>
      </trkpt>
      <trkpt lat="43.6313" lon="6.74938">
        <ele>460</ele>
        <time>2009-06-13T11:15:36Z</time>
      </trkpt>
      <trkpt lat="43.63119" lon="6.74941">
        <ele>456</ele>
        <time>2009-06-13T11:15:40Z</time>
      </trkpt>
      <trkpt lat="43.63111" lon="6.74945">
        <ele>456</ele>
        <time>2009-06-13T11:15:43Z</time>
      </trkpt>
      <trkpt lat="43.63099" lon="6.74955">
        <ele>455</ele>
        <time>2009-06-13T11:15:47Z</time>
      </trkpt>
      <trkpt lat="43.63066" lon="6.74983">
        <ele>456</ele>
        <time>2009-06-13T11:15:56Z</time>
      </trkpt>
      <trkpt lat="43.63061" lon="6.74985">
        <ele>456</ele>
        <time>2009-06-13T11:15:57Z</time>
      </trkpt>
      <trkpt lat="43.63045" lon="6.74994">
        <ele>456</ele>
        <time>2009-06-13T11:16:00Z</time>
      </trkpt>
      <trkpt lat="43.6304" lon="6.74997">
        <ele>457</ele>
        <time>2009-06-13T11:16:01Z</time>
      </trkpt>
      <trkpt lat="43.63027" lon="6.75006">
        <ele>458</ele>
        <time>2009-06-13T11:16:04Z</time>
      </trkpt>
      <trkpt lat="43.63021" lon="6.75009">
        <ele>457</ele>
        <time>2009-06-13T11:16:05Z</time>
      </trkpt>
      <trkpt lat="43.6301" lon="6.75015">
        <ele>457</ele>
        <time>2009-06-13T11:16:08Z</time>
      </trkpt>
      <trkpt lat="43.63006" lon="6.75019">
        <ele>456</ele>
        <time>2009-06-13T11:16:09Z</time>
      </trkpt>
      <trkpt lat="43.62994" lon="6.75025">
        <ele>456</ele>
        <time>2009-06-13T11:16:12Z</time>
      </trkpt>
      <trkpt lat="43.62971" lon="6.7502">
        <ele>458</ele>
        <time>2009-06-13T11:16:22Z</time>
      </trkpt>
      <trkpt lat="43.62969" lon="6.75013">
        <ele>460</ele>
        <time>2009-06-13T11:16:23Z</time>
      </trkpt>
      <trkpt lat="43.6296" lon="6.74998">
        <ele>462</ele>
        <time>2009-06-13T11:16:27Z</time>
      </trkpt>
      <trkpt lat="43.62953" lon="6.74989">
        <ele>462</ele>
        <time>2009-06-13T11:16:30Z</time>
      </trkpt>
      <trkpt lat="43.62949" lon="6.74977">
        <ele>463</ele>
        <time>2009-06-13T11:16:31Z</time>
      </trkpt>
      <trkpt lat="43.62942" lon="6.7496">
        <ele>463</ele>
        <time>2009-06-13T11:16:34Z</time>
      </trkpt>
      <trkpt lat="43.62942" lon="6.74949">
        <ele>464</ele>
        <time>2009-06-13T11:16:35Z</time>
      </trkpt>
      <trkpt lat="43.62939" lon="6.74928">
        <ele>464</ele>
        <time>2009-06-13T11:16:38Z</time>
      </trkpt>
      <trkpt lat="43.62942" lon="6.74917">
        <ele>465</ele>
        <time>2009-06-13T11:16:39Z</time>
      </trkpt>
      <trkpt lat="43.62943" lon="6.74894">
        <ele>465</ele>
        <time>2009-06-13T11:16:42Z</time>
      </trkpt>
      <trkpt lat="43.62948" lon="6.74886">
        <ele>466</ele>
        <time>2009-06-13T11:16:43Z</time>
      </trkpt>
      <trkpt lat="43.62938" lon="6.74816">
        <ele>467</ele>
        <time>2009-06-13T11:16:52Z</time>
      </trkpt>
      <trkpt lat="43.62931" lon="6.74808">
        <ele>467</ele>
        <time>2009-06-13T11:16:53Z</time>
      </trkpt>
      <trkpt lat="43.62918" lon="6.74789">
        <ele>467</ele>
        <time>2009-06-13T11:16:56Z</time>
      </trkpt>
      <trkpt lat="43.6291" lon="6.7478">
        <ele>466</ele>
        <time>2009-06-13T11:16:57Z</time>
      </trkpt>
      <trkpt lat="43.62892" lon="6.74765">
        <ele>466</ele>
        <time>2009-06-13T11:17:00Z</time>
      </trkpt>
      <trkpt lat="43.62888" lon="6.74757">
        <ele>467</ele>
        <time>2009-06-13T11:17:01Z</time>
      </trkpt>
      <trkpt lat="43.62869" lon="6.74741">
        <ele>467</ele>
        <time>2009-06-13T11:17:04Z</time>
      </trkpt>
      <trkpt lat="43.62859" lon="6.74734">
        <ele>466</ele>
        <time>2009-06-13T11:17:05Z</time>
      </trkpt>
      <trkpt lat="43.62839" lon="6.74716">
        <ele>466</ele>
        <time>2009-06-13T11:17:08Z</time>
      </trkpt>
      <trkpt lat="43.62836" lon="6.74709">
        <ele>464</ele>
        <time>2009-06-13T11:17:09Z</time>
      </trkpt>
      <trkpt lat="43.62824" lon="6.74662">
        <ele>467</ele>
        <time>2009-06-13T11:17:18Z</time>
      </trkpt>
      <trkpt lat="43.6283" lon="6.74651">
        <ele>469</ele>
        <time>2009-06-13T11:17:19Z</time>
      </trkpt>
      <trkpt lat="43.62837" lon="6.74638">
        <ele>469</ele>
        <time>2009-06-13T11:17:22Z</time>
      </trkpt>
      <trkpt lat="43.62841" lon="6.74614">
        <ele>467</ele>
        <time>2009-06-13T11:17:26Z</time>
      </trkpt>
      <trkpt lat="43.62839" lon="6.74603">
        <ele>467</ele>
        <time>2009-06-13T11:17:30Z</time>
      </trkpt>
      <trkpt lat="43.62833" lon="6.74602">
        <ele>468</ele>
        <time>2009-06-13T11:17:31Z</time>
      </trkpt>
      <trkpt lat="43.62829" lon="6.74594">
        <ele>468</ele>
        <time>2009-06-13T11:17:34Z</time>
      </trkpt>
      <trkpt lat="43.62833" lon="6.74589">
        <ele>470</ele>
        <time>2009-06-13T11:17:51Z</time>
      </trkpt>
      <trkpt lat="43.62836" lon="6.74583">
        <ele>471</ele>
        <time>2009-06-13T11:17:59Z</time>
      </trkpt>
      <trkpt lat="43.6284" lon="6.74586">
        <ele>471</ele>
        <time>2009-06-13T11:18:02Z</time>
      </trkpt>
      <trkpt lat="43.62841" lon="6.74585">
        <ele>471</ele>
        <time>2009-06-13T11:18:03Z</time>
      </trkpt>
      <trkpt lat="43.62843" lon="6.74586">
        <ele>471</ele>
        <time>2009-06-13T11:18:23Z</time>
      </trkpt>
      <trkpt lat="43.62844" lon="6.74591">
        <ele>471</ele>
        <time>2009-06-13T11:18:27Z</time>
      </trkpt>
      <trkpt lat="43.62844" lon="6.74591">
        <ele>471</ele>
        <time>2009-06-13T11:18:27Z</time>
      </trkpt>
      <trkpt lat="43.62847" lon="6.74589">
        <ele>475</ele>
        <time>2009-06-13T11:18:43Z</time>
      </trkpt>
      <trkpt lat="43.62848" lon="6.74588">
        <ele>476</ele>
        <time>2009-06-13T11:18:44Z</time>
      </trkpt>
      <trkpt lat="43.62848" lon="6.74588">
        <ele>476</ele>
        <time>2009-06-13T11:18:45Z</time>
      </trkpt>
      <trkpt lat="43.62844" lon="6.74591">
        <ele>480</ele>
        <time>2009-06-13T11:21:31Z</time>
      </trkpt>
      <trkpt lat="43.62844" lon="6.74592">
        <ele>480</ele>
        <time>2009-06-13T11:21:34Z</time>
      </trkpt>
      <trkpt lat="43.62844" lon="6.74594">
        <ele>482</ele>
        <time>2009-06-13T11:21:38Z</time>
      </trkpt>
      <trkpt lat="43.62845" lon="6.746">
        <ele>484</ele>
        <time>2009-06-13T11:22:24Z</time>
      </trkpt>
      <trkpt lat="43.62868" lon="6.74563">
        <ele>470</ele>
        <time>2009-06-13T11:22:28Z</time>
      </trkpt>
      <trkpt lat="43.62872" lon="6.74554">
        <ele>470</ele>
        <time>2009-06-13T11:22:31Z</time>
      </trkpt>
      <trkpt lat="43.62872" lon="6.74544">
        <ele>470</ele>
        <time>2009-06-13T11:22:36Z</time>
      </trkpt>
      <trkpt lat="43.62873" lon="6.74535">
        <ele>470</ele>
        <time>2009-06-13T11:22:39Z</time>
      </trkpt>
      <trkpt lat="43.62878" lon="6.74528">
        <ele>470</ele>
        <time>2009-06-13T11:22:40Z</time>
      </trkpt>
      <trkpt lat="43.62881" lon="6.74516">
        <ele>470</ele>
        <time>2009-06-13T11:22:43Z</time>
      </trkpt>
      <trkpt lat="43.62884" lon="6.74508">
        <ele>470</ele>
        <time>2009-06-13T11:22:44Z</time>
      </trkpt>
      <trkpt lat="43.62888" lon="6.74469">
        <ele>471</ele>
        <time>2009-06-13T11:22:53Z</time>
      </trkpt>
      <trkpt lat="43.62888" lon="6.74461">
        <ele>470</ele>
        <time>2009-06-13T11:22:54Z</time>
      </trkpt>
      <trkpt lat="43.62888" lon="6.74452">
        <ele>470</ele>
        <time>2009-06-13T11:22:55Z</time>
      </trkpt>
      <trkpt lat="43.62887" lon="6.74439">
        <ele>470</ele>
        <time>2009-06-13T11:22:58Z</time>
      </trkpt>
      <trkpt lat="43.62891" lon="6.74434">
        <ele>470</ele>
        <time>2009-06-13T11:22:59Z</time>
      </trkpt>
      <trkpt lat="43.6289" lon="6.74423">
        <ele>470</ele>
        <time>2009-06-13T11:23:02Z</time>
      </trkpt>
      <trkpt lat="43.62893" lon="6.74415">
        <ele>473</ele>
        <time>2009-06-13T11:23:03Z</time>
      </trkpt>
      <trkpt lat="43.62894" lon="6.74403">
        <ele>473</ele>
        <time>2009-06-13T11:23:06Z</time>
      </trkpt>
      <trkpt lat="43.62899" lon="6.74392">
        <ele>473</ele>
        <time>2009-06-13T11:23:10Z</time>
      </trkpt>
      <trkpt lat="43.62924" lon="6.7434">
        <ele>472</ele>
        <time>2009-06-13T11:23:20Z</time>
      </trkpt>
      <trkpt lat="43.62925" lon="6.74332">
        <ele>473</ele>
        <time>2009-06-13T11:23:21Z</time>
      </trkpt>
      <trkpt lat="43.62926" lon="6.74322">
        <ele>474</ele>
        <time>2009-06-13T11:23:22Z</time>
      </trkpt>
      <trkpt lat="43.62948" lon="6.74289">
        <ele>477</ele>
        <time>2009-06-13T11:23:28Z</time>
      </trkpt>
      <trkpt lat="43.62951" lon="6.74283">
        <ele>478</ele>
        <time>2009-06-13T11:23:29Z</time>
      </trkpt>
      <trkpt lat="43.62957" lon="6.74274">
        <ele>479</ele>
        <time>2009-06-13T11:23:32Z</time>
      </trkpt>
      <trkpt lat="43.62964" lon="6.74265">
        <ele>479</ele>
        <time>2009-06-13T11:23:35Z</time>
      </trkpt>
      <trkpt lat="43.62971" lon="6.74257">
        <ele>479</ele>
        <time>2009-06-13T11:23:38Z</time>
      </trkpt>
      <trkpt lat="43.62979" lon="6.74242">
        <ele>480</ele>
        <time>2009-06-13T11:23:42Z</time>
      </trkpt>
      <trkpt lat="43.62988" lon="6.74227">
        <ele>480</ele>
        <time>2009-06-13T11:23:45Z</time>
      </trkpt>
      <trkpt lat="43.63019" lon="6.74183">
        <ele>478</ele>
        <time>2009-06-13T11:23:54Z</time>
      </trkpt>
      <trkpt lat="43.63026" lon="6.74174">
        <ele>476</ele>
        <time>2009-06-13T11:23:55Z</time>
      </trkpt>
      <trkpt lat="43.63042" lon="6.74154">
        <ele>474</ele>
        <time>2009-06-13T11:23:58Z</time>
      </trkpt>
      <trkpt lat="43.63058" lon="6.74135">
        <ele>473</ele>
        <time>2009-06-13T11:24:01Z</time>
      </trkpt>
      <trkpt lat="43.63074" lon="6.74119">
        <ele>473</ele>
        <time>2009-06-13T11:24:04Z</time>
      </trkpt>
      <trkpt lat="43.6309" lon="6.74105">
        <ele>472</ele>
        <time>2009-06-13T11:24:07Z</time>
      </trkpt>
      <trkpt lat="43.63095" lon="6.74099">
        <ele>471</ele>
        <time>2009-06-13T11:24:08Z</time>
      </trkpt>
      <trkpt lat="43.63112" lon="6.74082">
        <ele>470</ele>
        <time>2009-06-13T11:24:11Z</time>
      </trkpt>
      <trkpt lat="43.63125" lon="6.74062">
        <ele>469</ele>
        <time>2009-06-13T11:24:13Z</time>
      </trkpt>
      <trkpt lat="43.63137" lon="6.74034">
        <ele>467</ele>
        <time>2009-06-13T11:24:16Z</time>
      </trkpt>
      <trkpt lat="43.63151" lon="6.74009">
        <ele>463</ele>
        <time>2009-06-13T11:24:18Z</time>
      </trkpt>
      <trkpt lat="43.63162" lon="6.73992">
        <ele>460</ele>
        <time>2009-06-13T11:24:20Z</time>
      </trkpt>
      <trkpt lat="43.63172" lon="6.73981">
        <ele>458</ele>
        <time>2009-06-13T11:24:22Z</time>
      </trkpt>
      <trkpt lat="43.63187" lon="6.73971">
        <ele>456</ele>
        <time>2009-06-13T11:24:27Z</time>
      </trkpt>
      <trkpt lat="43.63194" lon="6.7397">
        <ele>457</ele>
        <time>2009-06-13T11:24:30Z</time>
      </trkpt>
      <trkpt lat="43.63201" lon="6.73972">
        <ele>457</ele>
        <time>2009-06-13T11:24:33Z</time>
      </trkpt>
      <trkpt lat="43.63208" lon="6.73974">
        <ele>456</ele>
        <time>2009-06-13T11:24:37Z</time>
      </trkpt>
      <trkpt lat="43.63214" lon="6.73973">
        <ele>454</ele>
        <time>2009-06-13T11:24:41Z</time>
      </trkpt>
      <trkpt lat="43.6322" lon="6.73974">
        <ele>456</ele>
        <time>2009-06-13T11:24:45Z</time>
      </trkpt>
      <trkpt lat="43.63235" lon="6.73978">
        <ele>457</ele>
        <time>2009-06-13T11:24:53Z</time>
      </trkpt>
      <trkpt lat="43.6324" lon="6.73981">
        <ele>458</ele>
        <time>2009-06-13T11:24:54Z</time>
      </trkpt>
      <trkpt lat="43.63247" lon="6.73982">
        <ele>458</ele>
        <time>2009-06-13T11:24:57Z</time>
      </trkpt>
      <trkpt lat="43.6326" lon="6.73985">
        <ele>459</ele>
        <time>2009-06-13T11:25:01Z</time>
      </trkpt>
      <trkpt lat="43.63271" lon="6.73988">
        <ele>458</ele>
        <time>2009-06-13T11:25:05Z</time>
      </trkpt>
      <trkpt lat="43.63284" lon="6.73991">
        <ele>456</ele>
        <time>2009-06-13T11:25:08Z</time>
      </trkpt>
      <trkpt lat="43.63291" lon="6.7399">
        <ele>456</ele>
        <time>2009-06-13T11:25:11Z</time>
      </trkpt>
      <trkpt lat="43.63296" lon="6.73989">
        <ele>457</ele>
        <time>2009-06-13T11:25:14Z</time>
      </trkpt>
      <trkpt lat="43.6332" lon="6.73984">
        <ele>458</ele>
        <time>2009-06-13T11:25:22Z</time>
      </trkpt>
      <trkpt lat="43.63337" lon="6.73981">
        <ele>457</ele>
        <time>2009-06-13T11:25:27Z</time>
      </trkpt>
      <trkpt lat="43.63348" lon="6.73981">
        <ele>457</ele>
        <time>2009-06-13T11:25:30Z</time>
      </trkpt>
      <trkpt lat="43.63354" lon="6.73981">
        <ele>455</ele>
        <time>2009-06-13T11:25:33Z</time>
      </trkpt>
      <trkpt lat="43.63362" lon="6.73983">
        <ele>452</ele>
        <time>2009-06-13T11:25:40Z</time>
      </trkpt>
      <trkpt lat="43.63372" lon="6.73987">
        <ele>450</ele>
        <time>2009-06-13T11:25:46Z</time>
      </trkpt>
      <trkpt lat="43.63378" lon="6.73988">
        <ele>447</ele>
        <time>2009-06-13T11:25:49Z</time>
      </trkpt>
      <trkpt lat="43.63407" lon="6.73986">
        <ele>445</ele>
        <time>2009-06-13T11:25:57Z</time>
      </trkpt>
      <trkpt lat="43.63413" lon="6.73988">
        <ele>443</ele>
        <time>2009-06-13T11:25:58Z</time>
      </trkpt>
      <trkpt lat="43.63429" lon="6.73987">
        <ele>441</ele>
        <time>2009-06-13T11:26:01Z</time>
      </trkpt>
      <trkpt lat="43.63434" lon="6.73988">
        <ele>440</ele>
        <time>2009-06-13T11:26:02Z</time>
      </trkpt>
      <trkpt lat="43.63443" lon="6.7399">
        <ele>440</ele>
        <time>2009-06-13T11:26:05Z</time>
      </trkpt>
      <trkpt lat="43.63458" lon="6.7399">
        <ele>438</ele>
        <time>2009-06-13T11:26:09Z</time>
      </trkpt>
      <trkpt lat="43.63471" lon="6.7399">
        <ele>437</ele>
        <time>2009-06-13T11:26:12Z</time>
      </trkpt>
      <trkpt lat="43.63476" lon="6.73992">
        <ele>437</ele>
        <time>2009-06-13T11:26:13Z</time>
      </trkpt>
      <trkpt lat="43.63493" lon="6.74002">
        <ele>435</ele>
        <time>2009-06-13T11:26:21Z</time>
      </trkpt>
      <trkpt lat="43.63498" lon="6.74007">
        <ele>435</ele>
        <time>2009-06-13T11:26:23Z</time>
      </trkpt>
      <trkpt lat="43.63507" lon="6.74014">
        <ele>435</ele>
        <time>2009-06-13T11:26:28Z</time>
      </trkpt>
      <trkpt lat="43.63515" lon="6.74014">
        <ele>435</ele>
        <time>2009-06-13T11:26:32Z</time>
      </trkpt>
      <trkpt lat="43.63521" lon="6.7402">
        <ele>437</ele>
        <time>2009-06-13T11:26:36Z</time>
      </trkpt>
      <trkpt lat="43.63527" lon="6.74023">
        <ele>439</ele>
        <time>2009-06-13T11:26:37Z</time>
      </trkpt>
      <trkpt lat="43.63532" lon="6.74029">
        <ele>439</ele>
        <time>2009-06-13T11:26:40Z</time>
      </trkpt>
      <trkpt lat="43.63537" lon="6.74032">
        <ele>439</ele>
        <time>2009-06-13T11:26:41Z</time>
      </trkpt>
      <trkpt lat="43.63543" lon="6.74037">
        <ele>440</ele>
        <time>2009-06-13T11:26:44Z</time>
      </trkpt>
      <trkpt lat="43.63557" lon="6.7406">
        <ele>440</ele>
        <time>2009-06-13T11:26:53Z</time>
      </trkpt>
      <trkpt lat="43.63562" lon="6.7407">
        <ele>441</ele>
        <time>2009-06-13T11:26:54Z</time>
      </trkpt>
      <trkpt lat="43.63571" lon="6.74082">
        <ele>440</ele>
        <time>2009-06-13T11:26:57Z</time>
      </trkpt>
      <trkpt lat="43.63577" lon="6.7409">
        <ele>439</ele>
        <time>2009-06-13T11:26:58Z</time>
      </trkpt>
      <trkpt lat="43.63583" lon="6.74098">
        <ele>438</ele>
        <time>2009-06-13T11:27:01Z</time>
      </trkpt>
      <trkpt lat="43.63587" lon="6.74103">
        <ele>438</ele>
        <time>2009-06-13T11:27:02Z</time>
      </trkpt>
      <trkpt lat="43.63591" lon="6.74109">
        <ele>438</ele>
        <time>2009-06-13T11:27:05Z</time>
      </trkpt>
      <trkpt lat="43.63594" lon="6.74115">
        <ele>438</ele>
        <time>2009-06-13T11:27:06Z</time>
      </trkpt>
      <trkpt lat="43.63597" lon="6.74121">
        <ele>437</ele>
        <time>2009-06-13T11:27:09Z</time>
      </trkpt>
      <trkpt lat="43.63601" lon="6.74125">
        <ele>437</ele>
        <time>2009-06-13T11:27:11Z</time>
      </trkpt>
      <trkpt lat="43.63614" lon="6.74135">
        <ele>439</ele>
        <time>2009-06-13T11:27:18Z</time>
      </trkpt>
      <trkpt lat="43.6362" lon="6.74142">
        <ele>441</ele>
        <time>2009-06-13T11:27:20Z</time>
      </trkpt>
      <trkpt lat="43.6363" lon="6.74149">
        <ele>442</ele>
        <time>2009-06-13T11:27:24Z</time>
      </trkpt>
      <trkpt lat="43.63638" lon="6.74157">
        <ele>444</ele>
        <time>2009-06-13T11:27:27Z</time>
      </trkpt>
      <trkpt lat="43.63641" lon="6.74166">
        <ele>444</ele>
        <time>2009-06-13T11:27:31Z</time>
      </trkpt>
      <trkpt lat="43.63648" lon="6.74169">
        <ele>444</ele>
        <time>2009-06-13T11:27:33Z</time>
      </trkpt>
      <trkpt lat="43.63654" lon="6.74171">
        <ele>445</ele>
        <time>2009-06-13T11:27:36Z</time>
      </trkpt>
      <trkpt lat="43.63658" lon="6.74177">
        <ele>446</ele>
        <time>2009-06-13T11:27:38Z</time>
      </trkpt>
      <trkpt lat="43.63672" lon="6.74184">
        <ele>447</ele>
        <time>2009-06-13T11:27:47Z</time>
      </trkpt>
      <trkpt lat="43.63679" lon="6.74181">
        <ele>448</ele>
        <time>2009-06-13T11:27:49Z</time>
      </trkpt>
      <trkpt lat="43.63683" lon="6.74175">
        <ele>449</ele>
        <time>2009-06-13T11:27:50Z</time>
      </trkpt>
      <trkpt lat="43.63686" lon="6.74171">
        <ele>449</ele>
        <time>2009-06-13T11:27:53Z</time>
      </trkpt>
      <trkpt lat="43.63691" lon="6.74161">
        <ele>450</ele>
        <time>2009-06-13T11:27:58Z</time>
      </trkpt>
      <trkpt lat="43.63694" lon="6.74167">
        <ele>452</ele>
        <time>2009-06-13T11:28:00Z</time>
      </trkpt>
      <trkpt lat="43.63699" lon="6.74161">
        <ele>454</ele>
        <time>2009-06-13T11:28:09Z</time>
      </trkpt>
      <trkpt lat="43.637" lon="6.74151">
        <ele>455</ele>
        <time>2009-06-13T11:28:14Z</time>
      </trkpt>
      <trkpt lat="43.63704" lon="6.74145">
        <ele>455</ele>
        <time>2009-06-13T11:28:15Z</time>
      </trkpt>
      <trkpt lat="43.63708" lon="6.7414">
        <ele>458</ele>
        <time>2009-06-13T11:28:19Z</time>
      </trkpt>
      <trkpt lat="43.63715" lon="6.74136">
        <ele>458</ele>
        <time>2009-06-13T11:28:23Z</time>
      </trkpt>
      <trkpt lat="43.63716" lon="6.7413">
        <ele>460</ele>
        <time>2009-06-13T11:28:28Z</time>
      </trkpt>
      <trkpt lat="43.63721" lon="6.74119">
        <ele>464</ele>
        <time>2009-06-13T11:28:35Z</time>
      </trkpt>
      <trkpt lat="43.63723" lon="6.74111">
        <ele>466</ele>
        <time>2009-06-13T11:28:40Z</time>
      </trkpt>
      <trkpt lat="43.63727" lon="6.74107">
        <ele>468</ele>
        <time>2009-06-13T11:28:44Z</time>
      </trkpt>
      <trkpt lat="43.63728" lon="6.74097">
        <ele>469</ele>
        <time>2009-06-13T11:28:52Z</time>
      </trkpt>
      <trkpt lat="43.6373" lon="6.7409">
        <ele>471</ele>
        <time>2009-06-13T11:28:56Z</time>
      </trkpt>
      <trkpt lat="43.63736" lon="6.74083">
        <ele>474</ele>
        <time>2009-06-13T11:29:00Z</time>
      </trkpt>
      <trkpt lat="43.63737" lon="6.74073">
        <ele>475</ele>
        <time>2009-06-13T11:29:04Z</time>
      </trkpt>
      <trkpt lat="43.63741" lon="6.74066">
        <ele>477</ele>
        <time>2009-06-13T11:29:08Z</time>
      </trkpt>
      <trkpt lat="43.63743" lon="6.74048">
        <ele>479</ele>
        <time>2009-06-13T11:29:17Z</time>
      </trkpt>
      <trkpt lat="43.63745" lon="6.74035">
        <ele>478</ele>
        <time>2009-06-13T11:29:18Z</time>
      </trkpt>
      <trkpt lat="43.63746" lon="6.74028">
        <ele>478</ele>
        <time>2009-06-13T11:29:20Z</time>
      </trkpt>
      <trkpt lat="43.63748" lon="6.74019">
        <ele>480</ele>
        <time>2009-06-13T11:29:24Z</time>
      </trkpt>
      <trkpt lat="43.63751" lon="6.74011">
        <ele>482</ele>
        <time>2009-06-13T11:29:28Z</time>
      </trkpt>
      <trkpt lat="43.63751" lon="6.74004">
        <ele>483</ele>
        <time>2009-06-13T11:29:31Z</time>
      </trkpt>
      <trkpt lat="43.63757" lon="6.73984">
        <ele>472</ele>
        <time>2009-06-13T11:29:32Z</time>
      </trkpt>
      <trkpt lat="43.63762" lon="6.73974">
        <ele>469</ele>
        <time>2009-06-13T11:29:36Z</time>
      </trkpt>
      <trkpt lat="43.63769" lon="6.73966">
        <ele>468</ele>
        <time>2009-06-13T11:29:42Z</time>
      </trkpt>
      <trkpt lat="43.63772" lon="6.73959">
        <ele>466</ele>
        <time>2009-06-13T11:29:43Z</time>
      </trkpt>
      <trkpt lat="43.63779" lon="6.73951">
        <ele>466</ele>
        <time>2009-06-13T11:29:51Z</time>
      </trkpt>
      <trkpt lat="43.63777" lon="6.73945">
        <ele>467</ele>
        <time>2009-06-13T11:29:56Z</time>
      </trkpt>
      <trkpt lat="43.6378" lon="6.73933">
        <ele>464</ele>
        <time>2009-06-13T11:29:57Z</time>
      </trkpt>
      <trkpt lat="43.63778" lon="6.73928">
        <ele>468</ele>
        <time>2009-06-13T11:30:01Z</time>
      </trkpt>
      <trkpt lat="43.63772" lon="6.73925">
        <ele>469</ele>
        <time>2009-06-13T11:30:08Z</time>
      </trkpt>
      <trkpt lat="43.63765" lon="6.73917">
        <ele>469</ele>
        <time>2009-06-13T11:30:16Z</time>
      </trkpt>
      <trkpt lat="43.63765" lon="6.73908">
        <ele>470</ele>
        <time>2009-06-13T11:30:18Z</time>
      </trkpt>
      <trkpt lat="43.63764" lon="6.73898">
        <ele>470</ele>
        <time>2009-06-13T11:30:21Z</time>
      </trkpt>
      <trkpt lat="43.63758" lon="6.73886">
        <ele>471</ele>
        <time>2009-06-13T11:30:27Z</time>
      </trkpt>
      <trkpt lat="43.63757" lon="6.73878">
        <ele>471</ele>
        <time>2009-06-13T11:30:30Z</time>
      </trkpt>
      <trkpt lat="43.63758" lon="6.73869">
        <ele>473</ele>
        <time>2009-06-13T11:30:32Z</time>
      </trkpt>
      <trkpt lat="43.6376" lon="6.73862">
        <ele>473</ele>
        <time>2009-06-13T11:30:35Z</time>
      </trkpt>
      <trkpt lat="43.63764" lon="6.73858">
        <ele>475</ele>
        <time>2009-06-13T11:30:41Z</time>
      </trkpt>
      <trkpt lat="43.63768" lon="6.73845">
        <ele>475</ele>
        <time>2009-06-13T11:30:50Z</time>
      </trkpt>
      <trkpt lat="43.63766" lon="6.73836">
        <ele>473</ele>
        <time>2009-06-13T11:30:51Z</time>
      </trkpt>
      <trkpt lat="43.63764" lon="6.73827">
        <ele>469</ele>
        <time>2009-06-13T11:30:52Z</time>
      </trkpt>
      <trkpt lat="43.63767" lon="6.73794">
        <ele>459</ele>
        <time>2009-06-13T11:30:55Z</time>
      </trkpt>
      <trkpt lat="43.63769" lon="6.73782">
        <ele>455</ele>
        <time>2009-06-13T11:30:56Z</time>
      </trkpt>
      <trkpt lat="43.63772" lon="6.73773">
        <ele>453</ele>
        <time>2009-06-13T11:30:57Z</time>
      </trkpt>
      <trkpt lat="43.63776" lon="6.73757">
        <ele>450</ele>
        <time>2009-06-13T11:31:00Z</time>
      </trkpt>
      <trkpt lat="43.63775" lon="6.73748">
        <ele>447</ele>
        <time>2009-06-13T11:31:01Z</time>
      </trkpt>
      <trkpt lat="43.63781" lon="6.73733">
        <ele>446</ele>
        <time>2009-06-13T11:31:03Z</time>
      </trkpt>
      <trkpt lat="43.63786" lon="6.73722">
        <ele>443</ele>
        <time>2009-06-13T11:31:04Z</time>
      </trkpt>
      <trkpt lat="43.63793" lon="6.73688">
        <ele>443</ele>
        <time>2009-06-13T11:31:13Z</time>
      </trkpt>
      <trkpt lat="43.63794" lon="6.73676">
        <ele>445</ele>
        <time>2009-06-13T11:31:18Z</time>
      </trkpt>
      <trkpt lat="43.63794" lon="6.73663">
        <ele>447</ele>
        <time>2009-06-13T11:31:22Z</time>
      </trkpt>
      <trkpt lat="43.63801" lon="6.73639">
        <ele>450</ele>
        <time>2009-06-13T11:31:29Z</time>
      </trkpt>
      <trkpt lat="43.63804" lon="6.73634">
        <ele>450</ele>
        <time>2009-06-13T11:31:33Z</time>
      </trkpt>
      <trkpt lat="43.63809" lon="6.73632">
        <ele>448</ele>
        <time>2009-06-13T11:31:37Z</time>
      </trkpt>
      <trkpt lat="43.63814" lon="6.73625">
        <ele>447</ele>
        <time>2009-06-13T11:31:41Z</time>
      </trkpt>
      <trkpt lat="43.6382" lon="6.73618">
        <ele>449</ele>
        <time>2009-06-13T11:31:50Z</time>
      </trkpt>
      <trkpt lat="43.63827" lon="6.73607">
        <ele>447</ele>
        <time>2009-06-13T11:31:52Z</time>
      </trkpt>
      <trkpt lat="43.63833" lon="6.73606">
        <ele>448</ele>
        <time>2009-06-13T11:31:54Z</time>
      </trkpt>
      <trkpt lat="43.63841" lon="6.73597">
        <ele>448</ele>
        <time>2009-06-13T11:31:58Z</time>
      </trkpt>
      <trkpt lat="43.63848" lon="6.73592">
        <ele>448</ele>
        <time>2009-06-13T11:32:02Z</time>
      </trkpt>
      <trkpt lat="43.63853" lon="6.73589">
        <ele>450</ele>
        <time>2009-06-13T11:32:06Z</time>
      </trkpt>
      <trkpt lat="43.63867" lon="6.73584">
        <ele>455</ele>
        <time>2009-06-13T11:32:15Z</time>
      </trkpt>
      <trkpt lat="43.63869" lon="6.73576">
        <ele>454</ele>
        <time>2009-06-13T11:32:16Z</time>
      </trkpt>
      <trkpt lat="43.63873" lon="6.73573">
        <ele>455</ele>
        <time>2009-06-13T11:32:19Z</time>
      </trkpt>
      <trkpt lat="43.63881" lon="6.73569">
        <ele>458</ele>
        <time>2009-06-13T11:32:22Z</time>
      </trkpt>
      <trkpt lat="43.63883" lon="6.73563">
        <ele>456</ele>
        <time>2009-06-13T11:32:23Z</time>
      </trkpt>
      <trkpt lat="43.6389" lon="6.73553">
        <ele>458</ele>
        <time>2009-06-13T11:32:27Z</time>
      </trkpt>
      <trkpt lat="43.63897" lon="6.73545">
        <ele>456</ele>
        <time>2009-06-13T11:32:31Z</time>
      </trkpt>
      <trkpt lat="43.63905" lon="6.73538">
        <ele>458</ele>
        <time>2009-06-13T11:32:35Z</time>
      </trkpt>
      <trkpt lat="43.63914" lon="6.73529">
        <ele>457</ele>
        <time>2009-06-13T11:32:39Z</time>
      </trkpt>
      <trkpt lat="43.63923" lon="6.73524">
        <ele>457</ele>
        <time>2009-06-13T11:32:43Z</time>
      </trkpt>
      <trkpt lat="43.63943" lon="6.73513">
        <ele>457</ele>
        <time>2009-06-13T11:32:52Z</time>
      </trkpt>
      <trkpt lat="43.63952" lon="6.7351">
        <ele>457</ele>
        <time>2009-06-13T11:32:56Z</time>
      </trkpt>
      <trkpt lat="43.63959" lon="6.73506">
        <ele>455</ele>
        <time>2009-06-13T11:33:00Z</time>
      </trkpt>
      <trkpt lat="43.63966" lon="6.73505">
        <ele>455</ele>
        <time>2009-06-13T11:33:04Z</time>
      </trkpt>
      <trkpt lat="43.63974" lon="6.73504">
        <ele>455</ele>
        <time>2009-06-13T11:33:08Z</time>
      </trkpt>
      <trkpt lat="43.63988" lon="6.73495">
        <ele>454</ele>
        <time>2009-06-13T11:33:17Z</time>
      </trkpt>
      <trkpt lat="43.64" lon="6.73488">
        <ele>452</ele>
        <time>2009-06-13T11:33:21Z</time>
      </trkpt>
      <trkpt lat="43.64015" lon="6.73485">
        <ele>455</ele>
        <time>2009-06-13T11:33:29Z</time>
      </trkpt>
      <trkpt lat="43.64021" lon="6.73483">
        <ele>455</ele>
        <time>2009-06-13T11:33:33Z</time>
      </trkpt>
      <trkpt lat="43.64028" lon="6.73481">
        <ele>455</ele>
        <time>2009-06-13T11:33:37Z</time>
      </trkpt>
      <trkpt lat="43.64032" lon="6.7348">
        <ele>456</ele>
        <time>2009-06-13T11:33:41Z</time>
      </trkpt>
      <trkpt lat="43.64048" lon="6.73473">
        <ele>457</ele>
        <time>2009-06-13T11:33:50Z</time>
      </trkpt>
      <trkpt lat="43.64055" lon="6.73469">
        <ele>455</ele>
        <time>2009-06-13T11:33:54Z</time>
      </trkpt>
      <trkpt lat="43.64062" lon="6.73467">
        <ele>456</ele>
        <time>2009-06-13T11:33:58Z</time>
      </trkpt>
      <trkpt lat="43.64068" lon="6.73465">
        <ele>455</ele>
        <time>2009-06-13T11:34:02Z</time>
      </trkpt>
      <trkpt lat="43.64074" lon="6.73464">
        <ele>454</ele>
        <time>2009-06-13T11:34:06Z</time>
      </trkpt>
      <trkpt lat="43.64084" lon="6.73462">
        <ele>456</ele>
        <time>2009-06-13T11:34:18Z</time>
      </trkpt>
      <trkpt lat="43.6409" lon="6.73461">
        <ele>456</ele>
        <time>2009-06-13T11:34:22Z</time>
      </trkpt>
      <trkpt lat="43.64098" lon="6.73457">
        <ele>455</ele>
        <time>2009-06-13T11:34:26Z</time>
      </trkpt>
      <trkpt lat="43.64104" lon="6.73454">
        <ele>455</ele>
        <time>2009-06-13T11:34:30Z</time>
      </trkpt>
      <trkpt lat="43.6411" lon="6.73452">
        <ele>456</ele>
        <time>2009-06-13T11:34:34Z</time>
      </trkpt>
      <trkpt lat="43.64116" lon="6.73453">
        <ele>456</ele>
        <time>2009-06-13T11:34:39Z</time>
      </trkpt>
      <trkpt lat="43.64122" lon="6.73452">
        <ele>455</ele>
        <time>2009-06-13T11:34:46Z</time>
      </trkpt>
      <trkpt lat="43.64126" lon="6.7345">
        <ele>457</ele>
        <time>2009-06-13T11:34:51Z</time>
      </trkpt>
      <trkpt lat="43.64133" lon="6.73446">
        <ele>459</ele>
        <time>2009-06-13T11:35:00Z</time>
      </trkpt>
      <trkpt lat="43.64138" lon="6.73444">
        <ele>458</ele>
        <time>2009-06-13T11:35:07Z</time>
      </trkpt>
      <trkpt lat="43.64143" lon="6.73446">
        <ele>458</ele>
        <time>2009-06-13T11:35:19Z</time>
      </trkpt>
      <trkpt lat="43.64148" lon="6.73451">
        <ele>459</ele>
        <time>2009-06-13T11:35:28Z</time>
      </trkpt>
      <trkpt lat="43.64147" lon="6.73452">
        <ele>461</ele>
        <time>2009-06-13T11:35:40Z</time>
      </trkpt>
      <trkpt lat="43.64148" lon="6.73447">
        <ele>463</ele>
        <time>2009-06-13T11:36:03Z</time>
      </trkpt>
      <trkpt lat="43.64148" lon="6.73446">
        <ele>463</ele>
        <time>2009-06-13T11:36:06Z</time>
      </trkpt>
      <trkpt lat="43.64148" lon="6.73446">
        <ele>463</ele>
        <time>2009-06-13T11:36:06Z</time>
      </trkpt>
      <trkpt lat="43.64149" lon="6.73446">
        <ele>463</ele>
        <time>2009-06-13T11:36:16Z</time>
      </trkpt>
      <trkpt lat="43.64169" lon="6.73435">
        <ele>462</ele>
        <time>2009-06-13T11:36:19Z</time>
      </trkpt>
      <trkpt lat="43.64173" lon="6.73433">
        <ele>464</ele>
        <time>2009-06-13T11:36:24Z</time>
      </trkpt>
      <trkpt lat="43.6418" lon="6.73429">
        <ele>463</ele>
        <time>2009-06-13T11:36:30Z</time>
      </trkpt>
      <trkpt lat="43.64185" lon="6.73424">
        <ele>463</ele>
        <time>2009-06-13T11:36:33Z</time>
      </trkpt>
      <trkpt lat="43.64193" lon="6.73422">
        <ele>462</ele>
        <time>2009-06-13T11:36:39Z</time>
      </trkpt>
      <trkpt lat="43.64197" lon="6.7342">
        <ele>463</ele>
        <time>2009-06-13T11:36:42Z</time>
      </trkpt>
      <trkpt lat="43.64201" lon="6.73416">
        <ele>463</ele>
        <time>2009-06-13T11:36:45Z</time>
      </trkpt>
      <trkpt lat="43.64207" lon="6.73411">
        <ele>463</ele>
        <time>2009-06-13T11:36:50Z</time>
      </trkpt>
      <trkpt lat="43.64217" lon="6.73407">
        <ele>463</ele>
        <time>2009-06-13T11:37:00Z</time>
      </trkpt>
      <trkpt lat="43.64223" lon="6.73406">
        <ele>462</ele>
        <time>2009-06-13T11:37:04Z</time>
      </trkpt>
      <trkpt lat="43.64229" lon="6.73406">
        <ele>463</ele>
        <time>2009-06-13T11:37:08Z</time>
      </trkpt>
      <trkpt lat="43.64224" lon="6.734">
        <ele>463</ele>
        <time>2009-06-13T11:37:16Z</time>
      </trkpt>
      <trkpt lat="43.64212" lon="6.73392">
        <ele>464</ele>
        <time>2009-06-13T11:37:28Z</time>
      </trkpt>
      <trkpt lat="43.64209" lon="6.73385">
        <ele>465</ele>
        <time>2009-06-13T11:37:32Z</time>
      </trkpt>
      <trkpt lat="43.64208" lon="6.73376">
        <ele>465</ele>
        <time>2009-06-13T11:37:35Z</time>
      </trkpt>
      <trkpt lat="43.64207" lon="6.73369">
        <ele>466</ele>
        <time>2009-06-13T11:37:39Z</time>
      </trkpt>
      <trkpt lat="43.64211" lon="6.73362">
        <ele>467</ele>
        <time>2009-06-13T11:37:48Z</time>
      </trkpt>
      <trkpt lat="43.64214" lon="6.73355">
        <ele>470</ele>
        <time>2009-06-13T11:37:52Z</time>
      </trkpt>
      <trkpt lat="43.64217" lon="6.73348">
        <ele>471</ele>
        <time>2009-06-13T11:37:57Z</time>
      </trkpt>
      <trkpt lat="43.64221" lon="6.73341">
        <ele>473</ele>
        <time>2009-06-13T11:38:03Z</time>
      </trkpt>
      <trkpt lat="43.6423" lon="6.73336">
        <ele>471</ele>
        <time>2009-06-13T11:38:11Z</time>
      </trkpt>
      <trkpt lat="43.6423" lon="6.73328">
        <ele>472</ele>
        <time>2009-06-13T11:38:13Z</time>
      </trkpt>
      <trkpt lat="43.6423" lon="6.7332">
        <ele>474</ele>
        <time>2009-06-13T11:38:17Z</time>
      </trkpt>
      <trkpt lat="43.64234" lon="6.73306">
        <ele>477</ele>
        <time>2009-06-13T11:38:28Z</time>
      </trkpt>
      <trkpt lat="43.64241" lon="6.73308">
        <ele>477</ele>
        <time>2009-06-13T11:38:34Z</time>
      </trkpt>
      <trkpt lat="43.64244" lon="6.73302">
        <ele>481</ele>
        <time>2009-06-13T11:38:39Z</time>
      </trkpt>
      <trkpt lat="43.64249" lon="6.73302">
        <ele>481</ele>
        <time>2009-06-13T11:38:48Z</time>
      </trkpt>
      <trkpt lat="43.64252" lon="6.73296">
        <ele>486</ele>
        <time>2009-06-13T11:38:51Z</time>
      </trkpt>
      <trkpt lat="43.64254" lon="6.7329">
        <ele>488</ele>
        <time>2009-06-13T11:38:56Z</time>
      </trkpt>
      <trkpt lat="43.64258" lon="6.73283">
        <ele>490</ele>
        <time>2009-06-13T11:39:00Z</time>
      </trkpt>
      <trkpt lat="43.64262" lon="6.73281">
        <ele>490</ele>
        <time>2009-06-13T11:39:09Z</time>
      </trkpt>
      <trkpt lat="43.64264" lon="6.73274">
        <ele>491</ele>
        <time>2009-06-13T11:39:16Z</time>
      </trkpt>
      <trkpt lat="43.64268" lon="6.73269">
        <ele>493</ele>
        <time>2009-06-13T11:39:21Z</time>
      </trkpt>
      <trkpt lat="43.64268" lon="6.73262">
        <ele>495</ele>
        <time>2009-06-13T11:39:42Z</time>
      </trkpt>
      <trkpt lat="43.64264" lon="6.73254">
        <ele>496</ele>
        <time>2009-06-13T11:39:59Z</time>
      </trkpt>
      <trkpt lat="43.64264" lon="6.73247">
        <ele>496</ele>
        <time>2009-06-13T11:40:07Z</time>
      </trkpt>
      <trkpt lat="43.64262" lon="6.73239">
        <ele>502</ele>
        <time>2009-06-13T11:40:21Z</time>
      </trkpt>
      <trkpt lat="43.64263" lon="6.73226">
        <ele>501</ele>
        <time>2009-06-13T11:40:27Z</time>
      </trkpt>
      <trkpt lat="43.64263" lon="6.73226">
        <ele>501</ele>
        <time>2009-06-13T11:40:27Z</time>
      </trkpt>
      <trkpt lat="43.64265" lon="6.73223">
        <ele>501</ele>
        <time>2009-06-13T11:40:35Z</time>
      </trkpt>
      <trkpt lat="43.6429" lon="6.73197">
        <ele>504</ele>
        <time>2009-06-13T11:40:38Z</time>
      </trkpt>
      <trkpt lat="43.64296" lon="6.73192">
        <ele>504</ele>
        <time>2009-06-13T11:40:42Z</time>
      </trkpt>
      <trkpt lat="43.64312" lon="6.73182">
        <ele>505</ele>
        <time>2009-06-13T11:40:51Z</time>
      </trkpt>
      <trkpt lat="43.64323" lon="6.73183">
        <ele>505</ele>
        <time>2009-06-13T11:40:55Z</time>
      </trkpt>
      <trkpt lat="43.64333" lon="6.73183">
        <ele>504</ele>
        <time>2009-06-13T11:40:58Z</time>
      </trkpt>
      <trkpt lat="43.64346" lon="6.73183">
        <ele>504</ele>
        <time>2009-06-13T11:41:02Z</time>
      </trkpt>
      <trkpt lat="43.64352" lon="6.73184">
        <ele>505</ele>
        <time>2009-06-13T11:41:03Z</time>
      </trkpt>
      <trkpt lat="43.64363" lon="6.73184">
        <ele>504</ele>
        <time>2009-06-13T11:41:07Z</time>
      </trkpt>
      <trkpt lat="43.6437" lon="6.73186">
        <ele>503</ele>
        <time>2009-06-13T11:41:08Z</time>
      </trkpt>
      <trkpt lat="43.64412" lon="6.73204">
        <ele>502</ele>
        <time>2009-06-13T11:41:16Z</time>
      </trkpt>
      <trkpt lat="43.64421" lon="6.73208">
        <ele>501</ele>
        <time>2009-06-13T11:41:17Z</time>
      </trkpt>
      <trkpt lat="43.64442" lon="6.73211">
        <ele>501</ele>
        <time>2009-06-13T11:41:20Z</time>
      </trkpt>
      <trkpt lat="43.6445" lon="6.73209">
        <ele>500</ele>
        <time>2009-06-13T11:41:21Z</time>
      </trkpt>
      <trkpt lat="43.64499" lon="6.73204">
        <ele>497</ele>
        <time>2009-06-13T11:41:28Z</time>
      </trkpt>
      <trkpt lat="43.64515" lon="6.73202">
        <ele>498</ele>
        <time>2009-06-13T11:41:30Z</time>
      </trkpt>
      <trkpt lat="43.6452" lon="6.73202">
        <ele>499</ele>
        <time>2009-06-13T11:41:31Z</time>
      </trkpt>
      <trkpt lat="43.64531" lon="6.732">
        <ele>499</ele>
        <time>2009-06-13T11:41:35Z</time>
      </trkpt>
      <trkpt lat="43.64543" lon="6.73194">
        <ele>500</ele>
        <time>2009-06-13T11:41:39Z</time>
      </trkpt>
      <trkpt lat="43.64549" lon="6.73187">
        <ele>497</ele>
        <time>2009-06-13T11:41:43Z</time>
      </trkpt>
      <trkpt lat="43.64571" lon="6.73184">
        <ele>499</ele>
        <time>2009-06-13T11:41:52Z</time>
      </trkpt>
      <trkpt lat="43.64581" lon="6.73183">
        <ele>499</ele>
        <time>2009-06-13T11:41:56Z</time>
      </trkpt>
      <trkpt lat="43.64591" lon="6.73184">
        <ele>500</ele>
        <time>2009-06-13T11:42:00Z</time>
      </trkpt>
      <trkpt lat="43.64603" lon="6.73187">
        <ele>500</ele>
        <time>2009-06-13T11:42:04Z</time>
      </trkpt>
      <trkpt lat="43.64607" lon="6.73189">
        <ele>500</ele>
        <time>2009-06-13T11:42:05Z</time>
      </trkpt>
      <trkpt lat="43.64615" lon="6.73193">
        <ele>500</ele>
        <time>2009-06-13T11:42:08Z</time>
      </trkpt>
      <trkpt lat="43.6464" lon="6.732">
        <ele>501</ele>
        <time>2009-06-13T11:42:17Z</time>
      </trkpt>
      <trkpt lat="43.64644" lon="6.73201">
        <ele>502</ele>
        <time>2009-06-13T11:42:18Z</time>
      </trkpt>
      <trkpt lat="43.6465" lon="6.73204">
        <ele>502</ele>
        <time>2009-06-13T11:42:19Z</time>
      </trkpt>
      <trkpt lat="43.6466" lon="6.73205">
        <ele>502</ele>
        <time>2009-06-13T11:42:22Z</time>
      </trkpt>
      <trkpt lat="43.64665" lon="6.73207">
        <ele>501</ele>
        <time>2009-06-13T11:42:23Z</time>
      </trkpt>
      <trkpt lat="43.6467" lon="6.73208">
        <ele>501</ele>
        <time>2009-06-13T11:42:24Z</time>
      </trkpt>
      <trkpt lat="43.64683" lon="6.73211">
        <ele>502</ele>
        <time>2009-06-13T11:42:28Z</time>
      </trkpt>
      <trkpt lat="43.6469" lon="6.73211">
        <ele>503</ele>
        <time>2009-06-13T11:42:31Z</time>
      </trkpt>
      <trkpt lat="43.64699" lon="6.73208">
        <ele>503</ele>
        <time>2009-06-13T11:42:35Z</time>
      </trkpt>
      <trkpt lat="43.64707" lon="6.73195">
        <ele>503</ele>
        <time>2009-06-13T11:42:38Z</time>
      </trkpt>
      <trkpt lat="43.64715" lon="6.7318">
        <ele>504</ele>
        <time>2009-06-13T11:42:43Z</time>
      </trkpt>
      <trkpt lat="43.64716" lon="6.73123">
        <ele>505</ele>
        <time>2009-06-13T11:42:52Z</time>
      </trkpt>
      <trkpt lat="43.64717" lon="6.73114">
        <ele>505</ele>
        <time>2009-06-13T11:42:53Z</time>
      </trkpt>
      <trkpt lat="43.64718" lon="6.73102">
        <ele>505</ele>
        <time>2009-06-13T11:42:56Z</time>
      </trkpt>
      <trkpt lat="43.64715" lon="6.73098">
        <ele>502</ele>
        <time>2009-06-13T11:42:57Z</time>
      </trkpt>
      <trkpt lat="43.64709" lon="6.73087">
        <ele>496</ele>
        <time>2009-06-13T11:43:00Z</time>
      </trkpt>
      <trkpt lat="43.64709" lon="6.7308">
        <ele>493</ele>
        <time>2009-06-13T11:43:04Z</time>
      </trkpt>
      <trkpt lat="43.64714" lon="6.73075">
        <ele>492</ele>
        <time>2009-06-13T11:43:05Z</time>
      </trkpt>
      <trkpt lat="43.64717" lon="6.73086">
        <ele>492</ele>
        <time>2009-06-13T11:43:17Z</time>
      </trkpt>
      <trkpt lat="43.64722" lon="6.7309">
        <ele>488</ele>
        <time>2009-06-13T11:43:34Z</time>
      </trkpt>
      <trkpt lat="43.64721" lon="6.7309">
        <ele>488</ele>
        <time>2009-06-13T11:43:38Z</time>
      </trkpt>
      <trkpt lat="43.64717" lon="6.7309">
        <ele>491</ele>
        <time>2009-06-13T11:44:22Z</time>
      </trkpt>
      <trkpt lat="43.64691" lon="6.73071">
        <ele>494</ele>
        <time>2009-06-13T11:44:25Z</time>
      </trkpt>
      <trkpt lat="43.64689" lon="6.73069">
        <ele>494</ele>
        <time>2009-06-13T11:44:33Z</time>
      </trkpt>
      <trkpt lat="43.64688" lon="6.73064">
        <ele>493</ele>
        <time>2009-06-13T11:44:40Z</time>
      </trkpt>
      <trkpt lat="43.64686" lon="6.73063">
        <ele>494</ele>
        <time>2009-06-13T11:44:44Z</time>
      </trkpt>
      <trkpt lat="43.64681" lon="6.73056">
        <ele>496</ele>
        <time>2009-06-13T11:44:51Z</time>
      </trkpt>
      <trkpt lat="43.64677" lon="6.73053">
        <ele>496</ele>
        <time>2009-06-13T11:44:56Z</time>
      </trkpt>
      <trkpt lat="43.64675" lon="6.73035">
        <ele>495</ele>
        <time>2009-06-13T11:45:08Z</time>
      </trkpt>
      <trkpt lat="43.6468" lon="6.73034">
        <ele>494</ele>
        <time>2009-06-13T11:45:09Z</time>
      </trkpt>
      <trkpt lat="43.64685" lon="6.73032">
        <ele>494</ele>
        <time>2009-06-13T11:45:12Z</time>
      </trkpt>
      <trkpt lat="43.64691" lon="6.73027">
        <ele>493</ele>
        <time>2009-06-13T11:45:16Z</time>
      </trkpt>
      <trkpt lat="43.64696" lon="6.73023">
        <ele>493</ele>
        <time>2009-06-13T11:45:20Z</time>
      </trkpt>
      <trkpt lat="43.64692" lon="6.73012">
        <ele>495</ele>
        <time>2009-06-13T11:45:28Z</time>
      </trkpt>
      <trkpt lat="43.64687" lon="6.73002">
        <ele>494</ele>
        <time>2009-06-13T11:45:32Z</time>
      </trkpt>
      <trkpt lat="43.64678" lon="6.7299">
        <ele>496</ele>
        <time>2009-06-13T11:45:35Z</time>
      </trkpt>
      <trkpt lat="43.64673" lon="6.72986">
        <ele>496</ele>
        <time>2009-06-13T11:45:36Z</time>
      </trkpt>
      <trkpt lat="43.64668" lon="6.7298">
        <ele>497</ele>
        <time>2009-06-13T11:45:38Z</time>
      </trkpt>
      <trkpt lat="43.6466" lon="6.72973">
        <ele>498</ele>
        <time>2009-06-13T11:45:42Z</time>
      </trkpt>
      <trkpt lat="43.64637" lon="6.72941">
        <ele>499</ele>
        <time>2009-06-13T11:45:51Z</time>
      </trkpt>
      <trkpt lat="43.64634" lon="6.72928">
        <ele>498</ele>
        <time>2009-06-13T11:45:52Z</time>
      </trkpt>
      <trkpt lat="43.64624" lon="6.72914">
        <ele>498</ele>
        <time>2009-06-13T11:45:55Z</time>
      </trkpt>
      <trkpt lat="43.64621" lon="6.72902">
        <ele>498</ele>
        <time>2009-06-13T11:45:56Z</time>
      </trkpt>
      <trkpt lat="43.64611" lon="6.72889">
        <ele>499</ele>
        <time>2009-06-13T11:45:59Z</time>
      </trkpt>
      <trkpt lat="43.64601" lon="6.72874">
        <ele>499</ele>
        <time>2009-06-13T11:46:03Z</time>
      </trkpt>
      <trkpt lat="43.64596" lon="6.72872">
        <ele>500</ele>
        <time>2009-06-13T11:46:06Z</time>
      </trkpt>
      <trkpt lat="43.646" lon="6.72868">
        <ele>500</ele>
        <time>2009-06-13T11:46:07Z</time>
      </trkpt>
      <trkpt lat="43.64592" lon="6.72862">
        <ele>500</ele>
        <time>2009-06-13T11:46:15Z</time>
      </trkpt>
      <trkpt lat="43.64594" lon="6.72853">
        <ele>498</ele>
        <time>2009-06-13T11:46:28Z</time>
      </trkpt>
      <trkpt lat="43.64589" lon="6.72847">
        <ele>499</ele>
        <time>2009-06-13T11:46:32Z</time>
      </trkpt>
      <trkpt lat="43.64581" lon="6.72839">
        <ele>498</ele>
        <time>2009-06-13T11:46:36Z</time>
      </trkpt>
      <trkpt lat="43.64576" lon="6.72834">
        <ele>499</ele>
        <time>2009-06-13T11:46:41Z</time>
      </trkpt>
      <trkpt lat="43.64576" lon="6.72835">
        <ele>498</ele>
        <time>2009-06-13T11:46:42Z</time>
      </trkpt>
      <trkpt lat="43.64576" lon="6.72835">
        <ele>498</ele>
        <time>2009-06-13T11:46:43Z</time>
      </trkpt>
      <trkpt lat="43.64571" lon="6.72827">
        <ele>498</ele>
        <time>2009-06-13T11:46:51Z</time>
      </trkpt>
      <trkpt lat="43.64572" lon="6.72821">
        <ele>497</ele>
        <time>2009-06-13T11:47:02Z</time>
      </trkpt>
      <trkpt lat="43.64569" lon="6.72817">
        <ele>497</ele>
        <time>2009-06-13T11:47:08Z</time>
      </trkpt>
      <trkpt lat="43.64566" lon="6.72812">
        <ele>497</ele>
        <time>2009-06-13T11:47:15Z</time>
      </trkpt>
      <trkpt lat="43.64566" lon="6.72806">
        <ele>496</ele>
        <time>2009-06-13T11:47:20Z</time>
      </trkpt>
      <trkpt lat="43.6456" lon="6.72796">
        <ele>490</ele>
        <time>2009-06-13T11:47:29Z</time>
      </trkpt>
      <trkpt lat="43.64554" lon="6.7279">
        <ele>489</ele>
        <time>2009-06-13T11:47:38Z</time>
      </trkpt>
      <trkpt lat="43.64554" lon="6.72777">
        <ele>490</ele>
        <time>2009-06-13T11:47:52Z</time>
      </trkpt>
      <trkpt lat="43.64548" lon="6.72772">
        <ele>489</ele>
        <time>2009-06-13T11:47:54Z</time>
      </trkpt>
      <trkpt lat="43.64544" lon="6.72766">
        <ele>487</ele>
        <time>2009-06-13T11:47:58Z</time>
      </trkpt>
      <trkpt lat="43.64539" lon="6.7276">
        <ele>485</ele>
        <time>2009-06-13T11:48:02Z</time>
      </trkpt>
      <trkpt lat="43.64541" lon="6.72754">
        <ele>481</ele>
        <time>2009-06-13T11:48:03Z</time>
      </trkpt>
      <trkpt lat="43.64539" lon="6.72747">
        <ele>480</ele>
        <time>2009-06-13T11:48:07Z</time>
      </trkpt>
      <trkpt lat="43.64536" lon="6.72731">
        <ele>478</ele>
        <time>2009-06-13T11:48:16Z</time>
      </trkpt>
      <trkpt lat="43.64533" lon="6.72724">
        <ele>478</ele>
        <time>2009-06-13T11:48:19Z</time>
      </trkpt>
      <trkpt lat="43.6453" lon="6.72717">
        <ele>478</ele>
        <time>2009-06-13T11:48:23Z</time>
      </trkpt>
      <trkpt lat="43.6451" lon="6.72692">
        <ele>475</ele>
        <time>2009-06-13T11:48:24Z</time>
      </trkpt>
      <trkpt lat="43.64505" lon="6.72671">
        <ele>472</ele>
        <time>2009-06-13T11:48:29Z</time>
      </trkpt>
      <trkpt lat="43.645" lon="6.72662">
        <ele>472</ele>
        <time>2009-06-13T11:48:32Z</time>
      </trkpt>
      <trkpt lat="43.64491" lon="6.72651">
        <ele>471</ele>
        <time>2009-06-13T11:48:37Z</time>
      </trkpt>
      <trkpt lat="43.64498" lon="6.72656">
        <ele>471</ele>
        <time>2009-06-13T11:48:39Z</time>
      </trkpt>
      <trkpt lat="43.64491" lon="6.72645">
        <ele>471</ele>
        <time>2009-06-13T11:48:48Z</time>
      </trkpt>
      <trkpt lat="43.64486" lon="6.72643">
        <ele>470</ele>
        <time>2009-06-13T11:48:52Z</time>
      </trkpt>
      <trkpt lat="43.64482" lon="6.72638">
        <ele>470</ele>
        <time>2009-06-13T11:48:56Z</time>
      </trkpt>
      <trkpt lat="43.64485" lon="6.72632">
        <ele>469</ele>
        <time>2009-06-13T11:48:59Z</time>
      </trkpt>
      <trkpt lat="43.64489" lon="6.72628">
        <ele>466</ele>
        <time>2009-06-13T11:49:05Z</time>
      </trkpt>
      <trkpt lat="43.64478" lon="6.72613">
        <ele>464</ele>
        <time>2009-06-13T11:49:08Z</time>
      </trkpt>
      <trkpt lat="43.6447" lon="6.72589">
        <ele>464</ele>
        <time>2009-06-13T11:49:17Z</time>
      </trkpt>
      <trkpt lat="43.64465" lon="6.72585">
        <ele>464</ele>
        <time>2009-06-13T11:49:20Z</time>
      </trkpt>
      <trkpt lat="43.6446" lon="6.72579">
        <ele>463</ele>
        <time>2009-06-13T11:49:24Z</time>
      </trkpt>
      <trkpt lat="43.64459" lon="6.72564">
        <ele>462</ele>
        <time>2009-06-13T11:49:29Z</time>
      </trkpt>
      <trkpt lat="43.64456" lon="6.72559">
        <ele>462</ele>
        <time>2009-06-13T11:49:32Z</time>
      </trkpt>
      <trkpt lat="43.6445" lon="6.72556">
        <ele>461</ele>
        <time>2009-06-13T11:49:35Z</time>
      </trkpt>
      <trkpt lat="43.64379" lon="6.72493">
        <ele>458</ele>
        <time>2009-06-13T11:49:37Z</time>
      </trkpt>
      <trkpt lat="43.64432" lon="6.72533">
        <ele>463</ele>
        <time>2009-06-13T11:49:38Z</time>
      </trkpt>
      <trkpt lat="43.64415" lon="6.72506">
        <ele>463</ele>
        <time>2009-06-13T11:49:47Z</time>
      </trkpt>
      <trkpt lat="43.64412" lon="6.725">
        <ele>463</ele>
        <time>2009-06-13T11:49:49Z</time>
      </trkpt>
      <trkpt lat="43.64405" lon="6.72498">
        <ele>462</ele>
        <time>2009-06-13T11:49:51Z</time>
      </trkpt>
      <trkpt lat="43.64409" lon="6.7249">
        <ele>460</ele>
        <time>2009-06-13T11:49:53Z</time>
      </trkpt>
      <trkpt lat="43.64413" lon="6.72483">
        <ele>459</ele>
        <time>2009-06-13T11:49:54Z</time>
      </trkpt>
      <trkpt lat="43.64413" lon="6.72466">
        <ele>459</ele>
        <time>2009-06-13T11:49:57Z</time>
      </trkpt>
      <trkpt lat="43.64408" lon="6.72449">
        <ele>459</ele>
        <time>2009-06-13T11:49:58Z</time>
      </trkpt>
      <trkpt lat="43.64404" lon="6.72439">
        <ele>458</ele>
        <time>2009-06-13T11:50:00Z</time>
      </trkpt>
      <trkpt lat="43.644" lon="6.72429">
        <ele>458</ele>
        <time>2009-06-13T11:50:02Z</time>
      </trkpt>
      <trkpt lat="43.64396" lon="6.72424">
        <ele>458</ele>
        <time>2009-06-13T11:50:03Z</time>
      </trkpt>
      <trkpt lat="43.64391" lon="6.72415">
        <ele>458</ele>
        <time>2009-06-13T11:50:05Z</time>
      </trkpt>
      <trkpt lat="43.64455" lon="6.72482">
        <ele>460</ele>
        <time>2009-06-13T11:50:06Z</time>
      </trkpt>
      <trkpt lat="43.6449" lon="6.72513">
        <ele>460</ele>
        <time>2009-06-13T11:50:08Z</time>
      </trkpt>
      <trkpt lat="43.64497" lon="6.72503">
        <ele>461</ele>
        <time>2009-06-13T11:50:17Z</time>
      </trkpt>
      <trkpt lat="43.64499" lon="6.72461">
        <ele>463</ele>
        <time>2009-06-13T11:50:18Z</time>
      </trkpt>
      <trkpt lat="43.64496" lon="6.72457">
        <ele>463</ele>
        <time>2009-06-13T11:50:20Z</time>
      </trkpt>
      <trkpt lat="43.64492" lon="6.72452">
        <ele>463</ele>
        <time>2009-06-13T11:50:22Z</time>
      </trkpt>
      <trkpt lat="43.64488" lon="6.7243">
        <ele>462</ele>
        <time>2009-06-13T11:50:29Z</time>
      </trkpt>
      <trkpt lat="43.64493" lon="6.72424">
        <ele>463</ele>
        <time>2009-06-13T11:50:31Z</time>
      </trkpt>
      <trkpt lat="43.64485" lon="6.72411">
        <ele>464</ele>
        <time>2009-06-13T11:50:34Z</time>
      </trkpt>
      <trkpt lat="43.64481" lon="6.72406">
        <ele>464</ele>
        <time>2009-06-13T11:50:35Z</time>
      </trkpt>
      <trkpt lat="43.64488" lon="6.72387">
        <ele>465</ele>
        <time>2009-06-13T11:50:37Z</time>
      </trkpt>
      <trkpt lat="43.64443" lon="6.72364">
        <ele>465</ele>
        <time>2009-06-13T11:50:47Z</time>
      </trkpt>
      <trkpt lat="43.64426" lon="6.72384">
        <ele>464</ele>
        <time>2009-06-13T11:50:48Z</time>
      </trkpt>
      <trkpt lat="43.64417" lon="6.72386">
        <ele>463</ele>
        <time>2009-06-13T11:50:49Z</time>
      </trkpt>
      <trkpt lat="43.64411" lon="6.72386">
        <ele>463</ele>
        <time>2009-06-13T11:50:51Z</time>
      </trkpt>
      <trkpt lat="43.64404" lon="6.72386">
        <ele>462</ele>
        <time>2009-06-13T11:50:53Z</time>
      </trkpt>
      <trkpt lat="43.64374" lon="6.72347">
        <ele>461</ele>
        <time>2009-06-13T11:51:06Z</time>
      </trkpt>
      <trkpt lat="43.64434" lon="6.72276">
        <ele>468</ele>
        <time>2009-06-13T11:51:07Z</time>
      </trkpt>
      <trkpt lat="43.64465" lon="6.72239">
        <ele>472</ele>
        <time>2009-06-13T11:51:08Z</time>
      </trkpt>
      <trkpt lat="43.64477" lon="6.72228">
        <ele>473</ele>
        <time>2009-06-13T11:51:09Z</time>
      </trkpt>
      <trkpt lat="43.64473" lon="6.72216">
        <ele>473</ele>
        <time>2009-06-13T11:51:10Z</time>
      </trkpt>
      <trkpt lat="43.64476" lon="6.72211">
        <ele>474</ele>
        <time>2009-06-13T11:51:11Z</time>
      </trkpt>
      <trkpt lat="43.64474" lon="6.72203">
        <ele>474</ele>
        <time>2009-06-13T11:51:12Z</time>
      </trkpt>
      <trkpt lat="43.64473" lon="6.72194">
        <ele>473</ele>
        <time>2009-06-13T11:51:13Z</time>
      </trkpt>
      <trkpt lat="43.64486" lon="6.72182">
        <ele>475</ele>
        <time>2009-06-13T11:51:14Z</time>
      </trkpt>
      <trkpt lat="43.64494" lon="6.72166">
        <ele>476</ele>
        <time>2009-06-13T11:51:15Z</time>
      </trkpt>
      <trkpt lat="43.64493" lon="6.72159">
        <ele>476</ele>
        <time>2009-06-13T11:51:16Z</time>
      </trkpt>
      <trkpt lat="43.64491" lon="6.72153">
        <ele>476</ele>
        <time>2009-06-13T11:51:19Z</time>
      </trkpt>
      <trkpt lat="43.64492" lon="6.72108">
        <ele>477</ele>
        <time>2009-06-13T11:51:29Z</time>
      </trkpt>
      <trkpt lat="43.64499" lon="6.72099">
        <ele>478</ele>
        <time>2009-06-13T11:51:30Z</time>
      </trkpt>
      <trkpt lat="43.64499" lon="6.72092">
        <ele>478</ele>
        <time>2009-06-13T11:51:32Z</time>
      </trkpt>
      <trkpt lat="43.64489" lon="6.72092">
        <ele>478</ele>
        <time>2009-06-13T11:51:33Z</time>
      </trkpt>
      <trkpt lat="43.64493" lon="6.72078">
        <ele>478</ele>
        <time>2009-06-13T11:51:36Z</time>
      </trkpt>
      <trkpt lat="43.64499" lon="6.72069">
        <ele>478</ele>
        <time>2009-06-13T11:51:38Z</time>
      </trkpt>
      <trkpt lat="43.64491" lon="6.72055">
        <ele>479</ele>
        <time>2009-06-13T11:51:39Z</time>
      </trkpt>
      <trkpt lat="43.64489" lon="6.7204">
        <ele>480</ele>
        <time>2009-06-13T11:51:47Z</time>
      </trkpt>
      <trkpt lat="43.64494" lon="6.72044">
        <ele>481</ele>
        <time>2009-06-13T11:51:48Z</time>
      </trkpt>
      <trkpt lat="43.64496" lon="6.72037">
        <ele>480</ele>
        <time>2009-06-13T11:51:50Z</time>
      </trkpt>
      <trkpt lat="43.64515" lon="6.72016">
        <ele>483</ele>
        <time>2009-06-13T11:51:56Z</time>
      </trkpt>
      <trkpt lat="43.6452" lon="6.72007">
        <ele>479</ele>
        <time>2009-06-13T11:51:58Z</time>
      </trkpt>
      <trkpt lat="43.64524" lon="6.7198">
        <ele>478</ele>
        <time>2009-06-13T11:52:08Z</time>
      </trkpt>
      <trkpt lat="43.64516" lon="6.71968">
        <ele>477</ele>
        <time>2009-06-13T11:52:09Z</time>
      </trkpt>
      <trkpt lat="43.64507" lon="6.71958">
        <ele>475</ele>
        <time>2009-06-13T11:52:10Z</time>
      </trkpt>
      <trkpt lat="43.64517" lon="6.71936">
        <ele>477</ele>
        <time>2009-06-13T11:52:11Z</time>
      </trkpt>
      <trkpt lat="43.64515" lon="6.7193">
        <ele>476</ele>
        <time>2009-06-13T11:52:13Z</time>
      </trkpt>
      <trkpt lat="43.64513" lon="6.71924">
        <ele>476</ele>
        <time>2009-06-13T11:52:15Z</time>
      </trkpt>
      <trkpt lat="43.64511" lon="6.71917">
        <ele>476</ele>
        <time>2009-06-13T11:52:17Z</time>
      </trkpt>
      <trkpt lat="43.64505" lon="6.71918">
        <ele>476</ele>
        <time>2009-06-13T11:52:18Z</time>
      </trkpt>
      <trkpt lat="43.64501" lon="6.71912">
        <ele>475</ele>
        <time>2009-06-13T11:52:20Z</time>
      </trkpt>
      <trkpt lat="43.64494" lon="6.71907">
        <ele>475</ele>
        <time>2009-06-13T11:52:22Z</time>
      </trkpt>
      <trkpt lat="43.64491" lon="6.71898">
        <ele>474</ele>
        <time>2009-06-13T11:52:24Z</time>
      </trkpt>
      <trkpt lat="43.6446" lon="6.71868">
        <ele>487</ele>
        <time>2009-06-13T11:52:29Z</time>
      </trkpt>
      <trkpt lat="43.64456" lon="6.7187">
        <ele>488</ele>
        <time>2009-06-13T11:52:30Z</time>
      </trkpt>
      <trkpt lat="43.64448" lon="6.71869">
        <ele>490</ele>
        <time>2009-06-13T11:52:32Z</time>
      </trkpt>
      <trkpt lat="43.64441" lon="6.71868">
        <ele>495</ele>
        <time>2009-06-13T11:52:35Z</time>
      </trkpt>
      <trkpt lat="43.64467" lon="6.71828">
        <ele>487</ele>
        <time>2009-06-13T11:52:37Z</time>
      </trkpt>
      <trkpt lat="43.64449" lon="6.71827">
        <ele>489</ele>
        <time>2009-06-13T11:52:46Z</time>
      </trkpt>
      <trkpt lat="43.64452" lon="6.71819">
        <ele>488</ele>
        <time>2009-06-13T11:52:49Z</time>
      </trkpt>
      <trkpt lat="43.64457" lon="6.71815">
        <ele>488</ele>
        <time>2009-06-13T11:52:51Z</time>
      </trkpt>
      <trkpt lat="43.64455" lon="6.71809">
        <ele>489</ele>
        <time>2009-06-13T11:52:57Z</time>
      </trkpt>
      <trkpt lat="43.64447" lon="6.71792">
        <ele>489</ele>
        <time>2009-06-13T11:53:08Z</time>
      </trkpt>
      <trkpt lat="43.64478" lon="6.7177">
        <ele>493</ele>
        <time>2009-06-13T11:53:09Z</time>
      </trkpt>
      <trkpt lat="43.64479" lon="6.71759">
        <ele>496</ele>
        <time>2009-06-13T11:53:12Z</time>
      </trkpt>
      <trkpt lat="43.64474" lon="6.71757">
        <ele>496</ele>
        <time>2009-06-13T11:53:13Z</time>
      </trkpt>
      <trkpt lat="43.64467" lon="6.71751">
        <ele>496</ele>
        <time>2009-06-13T11:53:16Z</time>
      </trkpt>
      <trkpt lat="43.64462" lon="6.71743">
        <ele>497</ele>
        <time>2009-06-13T11:53:18Z</time>
      </trkpt>
      <trkpt lat="43.64457" lon="6.71736">
        <ele>498</ele>
        <time>2009-06-13T11:53:20Z</time>
      </trkpt>
      <trkpt lat="43.64421" lon="6.71683">
        <ele>497</ele>
        <time>2009-06-13T11:53:29Z</time>
      </trkpt>
      <trkpt lat="43.64417" lon="6.71679">
        <ele>497</ele>
        <time>2009-06-13T11:53:30Z</time>
      </trkpt>
      <trkpt lat="43.64412" lon="6.71676">
        <ele>496</ele>
        <time>2009-06-13T11:53:31Z</time>
      </trkpt>
      <trkpt lat="43.64401" lon="6.71667">
        <ele>496</ele>
        <time>2009-06-13T11:53:34Z</time>
      </trkpt>
      <trkpt lat="43.64397" lon="6.71664">
        <ele>496</ele>
        <time>2009-06-13T11:53:35Z</time>
      </trkpt>
      <trkpt lat="43.64391" lon="6.71659">
        <ele>495</ele>
        <time>2009-06-13T11:53:36Z</time>
      </trkpt>
      <trkpt lat="43.6439" lon="6.71651">
        <ele>492</ele>
        <time>2009-06-13T11:53:37Z</time>
      </trkpt>
      <trkpt lat="43.64374" lon="6.71643">
        <ele>492</ele>
        <time>2009-06-13T11:53:41Z</time>
      </trkpt>
      <trkpt lat="43.64368" lon="6.71636">
        <ele>492</ele>
        <time>2009-06-13T11:53:44Z</time>
      </trkpt>
      <trkpt lat="43.64345" lon="6.71609">
        <ele>492</ele>
        <time>2009-06-13T11:53:53Z</time>
      </trkpt>
      <trkpt lat="43.64331" lon="6.71589">
        <ele>496</ele>
        <time>2009-06-13T11:53:54Z</time>
      </trkpt>
      <trkpt lat="43.64325" lon="6.71574">
        <ele>497</ele>
        <time>2009-06-13T11:53:59Z</time>
      </trkpt>
      <trkpt lat="43.64322" lon="6.71568">
        <ele>498</ele>
        <time>2009-06-13T11:54:02Z</time>
      </trkpt>
      <trkpt lat="43.64315" lon="6.71558">
        <ele>498</ele>
        <time>2009-06-13T11:54:05Z</time>
      </trkpt>
      <trkpt lat="43.64312" lon="6.71552">
        <ele>499</ele>
        <time>2009-06-13T11:54:06Z</time>
      </trkpt>
      <trkpt lat="43.64293" lon="6.71531">
        <ele>503</ele>
        <time>2009-06-13T11:54:08Z</time>
      </trkpt>
      <trkpt lat="43.64265" lon="6.71507">
        <ele>504</ele>
        <time>2009-06-13T11:54:15Z</time>
      </trkpt>
      <trkpt lat="43.64255" lon="6.715">
        <ele>506</ele>
        <time>2009-06-13T11:54:17Z</time>
      </trkpt>
      <trkpt lat="43.64242" lon="6.71481">
        <ele>504</ele>
        <time>2009-06-13T11:54:21Z</time>
      </trkpt>
      <trkpt lat="43.64235" lon="6.71474">
        <ele>505</ele>
        <time>2009-06-13T11:54:22Z</time>
      </trkpt>
      <trkpt lat="43.6423" lon="6.71465">
        <ele>506</ele>
        <time>2009-06-13T11:54:23Z</time>
      </trkpt>
      <trkpt lat="43.64219" lon="6.71458">
        <ele>506</ele>
        <time>2009-06-13T11:54:26Z</time>
      </trkpt>
      <trkpt lat="43.64206" lon="6.71455">
        <ele>508</ele>
        <time>2009-06-13T11:54:31Z</time>
      </trkpt>
      <trkpt lat="43.64205" lon="6.71439">
        <ele>504</ele>
        <time>2009-06-13T11:54:32Z</time>
      </trkpt>
      <trkpt lat="43.64193" lon="6.71433">
        <ele>504</ele>
        <time>2009-06-13T11:54:36Z</time>
      </trkpt>
      <trkpt lat="43.64188" lon="6.71426">
        <ele>503</ele>
        <time>2009-06-13T11:54:38Z</time>
      </trkpt>
      <trkpt lat="43.64172" lon="6.71415">
        <ele>503</ele>
        <time>2009-06-13T11:54:44Z</time>
      </trkpt>
      <trkpt lat="43.64157" lon="6.71406">
        <ele>504</ele>
        <time>2009-06-13T11:54:46Z</time>
      </trkpt>
      <trkpt lat="43.64153" lon="6.71403">
        <ele>504</ele>
        <time>2009-06-13T11:54:47Z</time>
      </trkpt>
      <trkpt lat="43.64147" lon="6.71396">
        <ele>502</ele>
        <time>2009-06-13T11:54:49Z</time>
      </trkpt>
      <trkpt lat="43.64142" lon="6.71393">
        <ele>503</ele>
        <time>2009-06-13T11:54:51Z</time>
      </trkpt>
      <trkpt lat="43.6412" lon="6.71367">
        <ele>504</ele>
        <time>2009-06-13T11:54:54Z</time>
      </trkpt>
      <trkpt lat="43.64114" lon="6.71364">
        <ele>505</ele>
        <time>2009-06-13T11:54:56Z</time>
      </trkpt>
      <trkpt lat="43.64103" lon="6.71358">
        <ele>505</ele>
        <time>2009-06-13T11:54:59Z</time>
      </trkpt>
      <trkpt lat="43.64072" lon="6.71335">
        <ele>505</ele>
        <time>2009-06-13T11:55:09Z</time>
      </trkpt>
      <trkpt lat="43.64065" lon="6.71328">
        <ele>506</ele>
        <time>2009-06-13T11:55:11Z</time>
      </trkpt>
      <trkpt lat="43.64051" lon="6.71318">
        <ele>505</ele>
        <time>2009-06-13T11:55:15Z</time>
      </trkpt>
      <trkpt lat="43.64048" lon="6.71312">
        <ele>503</ele>
        <time>2009-06-13T11:55:17Z</time>
      </trkpt>
      <trkpt lat="43.64038" lon="6.71305">
        <ele>504</ele>
        <time>2009-06-13T11:55:20Z</time>
      </trkpt>
      <trkpt lat="43.64027" lon="6.71297">
        <ele>505</ele>
        <time>2009-06-13T11:55:22Z</time>
      </trkpt>
      <trkpt lat="43.6401" lon="6.71286">
        <ele>505</ele>
        <time>2009-06-13T11:55:28Z</time>
      </trkpt>
      <trkpt lat="43.63999" lon="6.7128">
        <ele>505</ele>
        <time>2009-06-13T11:55:31Z</time>
      </trkpt>
      <trkpt lat="43.63988" lon="6.71263">
        <ele>503</ele>
        <time>2009-06-13T11:55:35Z</time>
      </trkpt>
      <trkpt lat="43.63978" lon="6.71252">
        <ele>501</ele>
        <time>2009-06-13T11:55:39Z</time>
      </trkpt>
      <trkpt lat="43.63967" lon="6.71246">
        <ele>501</ele>
        <time>2009-06-13T11:55:43Z</time>
      </trkpt>
      <trkpt lat="43.63929" lon="6.7122">
        <ele>502</ele>
        <time>2009-06-13T11:55:52Z</time>
      </trkpt>
      <trkpt lat="43.63925" lon="6.71217">
        <ele>502</ele>
        <time>2009-06-13T11:55:53Z</time>
      </trkpt>
      <trkpt lat="43.63915" lon="6.7121">
        <ele>504</ele>
        <time>2009-06-13T11:55:55Z</time>
      </trkpt>
      <trkpt lat="43.63902" lon="6.71202">
        <ele>503</ele>
        <time>2009-06-13T11:56:00Z</time>
      </trkpt>
      <trkpt lat="43.63897" lon="6.71199">
        <ele>502</ele>
        <time>2009-06-13T11:56:01Z</time>
      </trkpt>
      <trkpt lat="43.63887" lon="6.71191">
        <ele>501</ele>
        <time>2009-06-13T11:56:04Z</time>
      </trkpt>
      <trkpt lat="43.63883" lon="6.71189">
        <ele>500</ele>
        <time>2009-06-13T11:56:05Z</time>
      </trkpt>
      <trkpt lat="43.63871" lon="6.71181">
        <ele>500</ele>
        <time>2009-06-13T11:56:08Z</time>
      </trkpt>
      <trkpt lat="43.63866" lon="6.71178">
        <ele>499</ele>
        <time>2009-06-13T11:56:09Z</time>
      </trkpt>
      <trkpt lat="43.6384" lon="6.71158">
        <ele>497</ele>
        <time>2009-06-13T11:56:17Z</time>
      </trkpt>
      <trkpt lat="43.63832" lon="6.71154">
        <ele>495</ele>
        <time>2009-06-13T11:56:18Z</time>
      </trkpt>
      <trkpt lat="43.6382" lon="6.71147">
        <ele>495</ele>
        <time>2009-06-13T11:56:21Z</time>
      </trkpt>
      <trkpt lat="43.63816" lon="6.71144">
        <ele>494</ele>
        <time>2009-06-13T11:56:22Z</time>
      </trkpt>
      <trkpt lat="43.63792" lon="6.71124">
        <ele>491</ele>
        <time>2009-06-13T11:56:29Z</time>
      </trkpt>
      <trkpt lat="43.63787" lon="6.71119">
        <ele>491</ele>
        <time>2009-06-13T11:56:30Z</time>
      </trkpt>
      <trkpt lat="43.63775" lon="6.7111">
        <ele>491</ele>
        <time>2009-06-13T11:56:33Z</time>
      </trkpt>
      <trkpt lat="43.6376" lon="6.71097">
        <ele>492</ele>
        <time>2009-06-13T11:56:37Z</time>
      </trkpt>
      <trkpt lat="43.63749" lon="6.7109">
        <ele>493</ele>
        <time>2009-06-13T11:56:41Z</time>
      </trkpt>
      <trkpt lat="43.63722" lon="6.71104">
        <ele>495</ele>
        <time>2009-06-13T11:56:50Z</time>
      </trkpt>
      <trkpt lat="43.63717" lon="6.71112">
        <ele>496</ele>
        <time>2009-06-13T11:56:51Z</time>
      </trkpt>
      <trkpt lat="43.63708" lon="6.71119">
        <ele>496</ele>
        <time>2009-06-13T11:56:54Z</time>
      </trkpt>
      <trkpt lat="43.63704" lon="6.71123">
        <ele>497</ele>
        <time>2009-06-13T11:56:55Z</time>
      </trkpt>
      <trkpt lat="43.63695" lon="6.71135">
        <ele>498</ele>
        <time>2009-06-13T11:56:58Z</time>
      </trkpt>
      <trkpt lat="43.63691" lon="6.7114">
        <ele>499</ele>
        <time>2009-06-13T11:56:59Z</time>
      </trkpt>
      <trkpt lat="43.63677" lon="6.7115">
        <ele>498</ele>
        <time>2009-06-13T11:57:02Z</time>
      </trkpt>
      <trkpt lat="43.63662" lon="6.71164">
        <ele>499</ele>
        <time>2009-06-13T11:57:06Z</time>
      </trkpt>
      <trkpt lat="43.63657" lon="6.71167">
        <ele>500</ele>
        <time>2009-06-13T11:57:07Z</time>
      </trkpt>
      <trkpt lat="43.63621" lon="6.71195">
        <ele>500</ele>
        <time>2009-06-13T11:57:15Z</time>
      </trkpt>
      <trkpt lat="43.63614" lon="6.71199">
        <ele>501</ele>
        <time>2009-06-13T11:57:16Z</time>
      </trkpt>
      <trkpt lat="43.63601" lon="6.71212">
        <ele>502</ele>
        <time>2009-06-13T11:57:19Z</time>
      </trkpt>
      <trkpt lat="43.63597" lon="6.71217">
        <ele>502</ele>
        <time>2009-06-13T11:57:20Z</time>
      </trkpt>
      <trkpt lat="43.63581" lon="6.71228">
        <ele>502</ele>
        <time>2009-06-13T11:57:23Z</time>
      </trkpt>
      <trkpt lat="43.63575" lon="6.71232">
        <ele>501</ele>
        <time>2009-06-13T11:57:24Z</time>
      </trkpt>
      <trkpt lat="43.63551" lon="6.71249">
        <ele>499</ele>
        <time>2009-06-13T11:57:27Z</time>
      </trkpt>
      <trkpt lat="43.63539" lon="6.71261">
        <ele>499</ele>
        <time>2009-06-13T11:57:30Z</time>
      </trkpt>
      <trkpt lat="43.63533" lon="6.71263">
        <ele>500</ele>
        <time>2009-06-13T11:57:31Z</time>
      </trkpt>
      <trkpt lat="43.63518" lon="6.71273">
        <ele>499</ele>
        <time>2009-06-13T11:57:35Z</time>
      </trkpt>
      <trkpt lat="43.63514" lon="6.71275">
        <ele>501</ele>
        <time>2009-06-13T11:57:36Z</time>
      </trkpt>
      <trkpt lat="43.63501" lon="6.71286">
        <ele>501</ele>
        <time>2009-06-13T11:57:39Z</time>
      </trkpt>
      <trkpt lat="43.63497" lon="6.71291">
        <ele>500</ele>
        <time>2009-06-13T11:57:40Z</time>
      </trkpt>
      <trkpt lat="43.63482" lon="6.71301">
        <ele>499</ele>
        <time>2009-06-13T11:57:43Z</time>
      </trkpt>
      <trkpt lat="43.63478" lon="6.71304">
        <ele>498</ele>
        <time>2009-06-13T11:57:44Z</time>
      </trkpt>
      <trkpt lat="43.63439" lon="6.71335">
        <ele>497</ele>
        <time>2009-06-13T11:57:52Z</time>
      </trkpt>
      <trkpt lat="43.63434" lon="6.71339">
        <ele>497</ele>
        <time>2009-06-13T11:57:53Z</time>
      </trkpt>
      <trkpt lat="43.63417" lon="6.71345">
        <ele>499</ele>
        <time>2009-06-13T11:57:56Z</time>
      </trkpt>
      <trkpt lat="43.63413" lon="6.7135">
        <ele>499</ele>
        <time>2009-06-13T11:57:57Z</time>
      </trkpt>
      <trkpt lat="43.63404" lon="6.7136">
        <ele>499</ele>
        <time>2009-06-13T11:57:59Z</time>
      </trkpt>
      <trkpt lat="43.63401" lon="6.7137">
        <ele>499</ele>
        <time>2009-06-13T11:58:03Z</time>
      </trkpt>
      <trkpt lat="43.63407" lon="6.71377">
        <ele>497</ele>
        <time>2009-06-13T11:58:08Z</time>
      </trkpt>
      <trkpt lat="43.63431" lon="6.71392">
        <ele>497</ele>
        <time>2009-06-13T11:58:17Z</time>
      </trkpt>
      <trkpt lat="43.63443" lon="6.71398">
        <ele>496</ele>
        <time>2009-06-13T11:58:21Z</time>
      </trkpt>
      <trkpt lat="43.63466" lon="6.71405">
        <ele>494</ele>
        <time>2009-06-13T11:58:29Z</time>
      </trkpt>
      <trkpt lat="43.63477" lon="6.7141">
        <ele>493</ele>
        <time>2009-06-13T11:58:33Z</time>
      </trkpt>
      <trkpt lat="43.63488" lon="6.71414">
        <ele>493</ele>
        <time>2009-06-13T11:58:37Z</time>
      </trkpt>
      <trkpt lat="43.63493" lon="6.71418">
        <ele>493</ele>
        <time>2009-06-13T11:58:39Z</time>
      </trkpt>
      <trkpt lat="43.63501" lon="6.71423">
        <ele>493</ele>
        <time>2009-06-13T11:58:42Z</time>
      </trkpt>
      <trkpt lat="43.63524" lon="6.71435">
        <ele>493</ele>
        <time>2009-06-13T11:58:52Z</time>
      </trkpt>
      <trkpt lat="43.63532" lon="6.71437">
        <ele>492</ele>
        <time>2009-06-13T11:58:53Z</time>
      </trkpt>
      <trkpt lat="43.63537" lon="6.71441">
        <ele>492</ele>
        <time>2009-06-13T11:58:54Z</time>
      </trkpt>
      <trkpt lat="43.63547" lon="6.71447">
        <ele>492</ele>
        <time>2009-06-13T11:58:57Z</time>
      </trkpt>
      <trkpt lat="43.63553" lon="6.71452">
        <ele>492</ele>
        <time>2009-06-13T11:58:58Z</time>
      </trkpt>
      <trkpt lat="43.63557" lon="6.71456">
        <ele>492</ele>
        <time>2009-06-13T11:58:59Z</time>
      </trkpt>
      <trkpt lat="43.63564" lon="6.7146">
        <ele>492</ele>
        <time>2009-06-13T11:59:02Z</time>
      </trkpt>
      <trkpt lat="43.63568" lon="6.7147">
        <ele>493</ele>
        <time>2009-06-13T11:59:05Z</time>
      </trkpt>
      <trkpt lat="43.63575" lon="6.71489">
        <ele>494</ele>
        <time>2009-06-13T11:59:15Z</time>
      </trkpt>
      <trkpt lat="43.63576" lon="6.71495">
        <ele>494</ele>
        <time>2009-06-13T11:59:18Z</time>
      </trkpt>
      <trkpt lat="43.63574" lon="6.71488">
        <ele>496</ele>
        <time>2009-06-13T11:59:23Z</time>
      </trkpt>
      <trkpt lat="43.63576" lon="6.71482">
        <ele>489</ele>
        <time>2009-06-13T11:59:57Z</time>
      </trkpt>
      <trkpt lat="43.63581" lon="6.71483">
        <ele>488</ele>
        <time>2009-06-13T12:00:08Z</time>
      </trkpt>
      <trkpt lat="43.63627" lon="6.71491">
        <ele>488</ele>
        <time>2009-06-13T12:00:19Z</time>
      </trkpt>
      <trkpt lat="43.63634" lon="6.71494">
        <ele>489</ele>
        <time>2009-06-13T12:00:22Z</time>
      </trkpt>
      <trkpt lat="43.63639" lon="6.71502">
        <ele>489</ele>
        <time>2009-06-13T12:00:24Z</time>
      </trkpt>
      <trkpt lat="43.63658" lon="6.71521">
        <ele>490</ele>
        <time>2009-06-13T12:00:29Z</time>
      </trkpt>
      <trkpt lat="43.63668" lon="6.71528">
        <ele>489</ele>
        <time>2009-06-13T12:00:32Z</time>
      </trkpt>
      <trkpt lat="43.63675" lon="6.71532">
        <ele>491</ele>
        <time>2009-06-13T12:00:34Z</time>
      </trkpt>
      <trkpt lat="43.63682" lon="6.71539">
        <ele>491</ele>
        <time>2009-06-13T12:00:37Z</time>
      </trkpt>
      <trkpt lat="43.63691" lon="6.71551">
        <ele>492</ele>
        <time>2009-06-13T12:00:41Z</time>
      </trkpt>
      <trkpt lat="43.63709" lon="6.7158">
        <ele>492</ele>
        <time>2009-06-13T12:00:50Z</time>
      </trkpt>
      <trkpt lat="43.63715" lon="6.71584">
        <ele>492</ele>
        <time>2009-06-13T12:00:51Z</time>
      </trkpt>
      <trkpt lat="43.63717" lon="6.7159">
        <ele>493</ele>
        <time>2009-06-13T12:00:52Z</time>
      </trkpt>
      <trkpt lat="43.63721" lon="6.71596">
        <ele>492</ele>
        <time>2009-06-13T12:00:55Z</time>
      </trkpt>
      <trkpt lat="43.63728" lon="6.71598">
        <ele>492</ele>
        <time>2009-06-13T12:00:57Z</time>
      </trkpt>
      <trkpt lat="43.63737" lon="6.71606">
        <ele>493</ele>
        <time>2009-06-13T12:01:00Z</time>
      </trkpt>
      <trkpt lat="43.63746" lon="6.71615">
        <ele>494</ele>
        <time>2009-06-13T12:01:04Z</time>
      </trkpt>
      <trkpt lat="43.63768" lon="6.71632">
        <ele>496</ele>
        <time>2009-06-13T12:01:13Z</time>
      </trkpt>
      <trkpt lat="43.63778" lon="6.71636">
        <ele>496</ele>
        <time>2009-06-13T12:01:17Z</time>
      </trkpt>
      <trkpt lat="43.63782" lon="6.7164">
        <ele>496</ele>
        <time>2009-06-13T12:01:18Z</time>
      </trkpt>
      <trkpt lat="43.63789" lon="6.71644">
        <ele>496</ele>
        <time>2009-06-13T12:01:21Z</time>
      </trkpt>
      <trkpt lat="43.63813" lon="6.71674">
        <ele>499</ele>
        <time>2009-06-13T12:01:29Z</time>
      </trkpt>
      <trkpt lat="43.63818" lon="6.71697">
        <ele>498</ele>
        <time>2009-06-13T12:01:33Z</time>
      </trkpt>
      <trkpt lat="43.6382" lon="6.71703">
        <ele>497</ele>
        <time>2009-06-13T12:01:34Z</time>
      </trkpt>
      <trkpt lat="43.63828" lon="6.71722">
        <ele>497</ele>
        <time>2009-06-13T12:01:37Z</time>
      </trkpt>
      <trkpt lat="43.63832" lon="6.71732">
        <ele>497</ele>
        <time>2009-06-13T12:01:41Z</time>
      </trkpt>
      <trkpt lat="43.63851" lon="6.71759">
        <ele>497</ele>
        <time>2009-06-13T12:01:50Z</time>
      </trkpt>
      <trkpt lat="43.63856" lon="6.71765">
        <ele>495</ele>
        <time>2009-06-13T12:01:52Z</time>
      </trkpt>
      <trkpt lat="43.63863" lon="6.71776">
        <ele>495</ele>
        <time>2009-06-13T12:01:55Z</time>
      </trkpt>
      <trkpt lat="43.63866" lon="6.71781">
        <ele>496</ele>
        <time>2009-06-13T12:01:56Z</time>
      </trkpt>
      <trkpt lat="43.63873" lon="6.71793">
        <ele>496</ele>
        <time>2009-06-13T12:02:00Z</time>
      </trkpt>
      <trkpt lat="43.63874" lon="6.71799">
        <ele>495</ele>
        <time>2009-06-13T12:02:02Z</time>
      </trkpt>
      <trkpt lat="43.63878" lon="6.71808">
        <ele>493</ele>
        <time>2009-06-13T12:02:05Z</time>
      </trkpt>
      <trkpt lat="43.63886" lon="6.71825">
        <ele>493</ele>
        <time>2009-06-13T12:02:14Z</time>
      </trkpt>
      <trkpt lat="43.6389" lon="6.71829">
        <ele>493</ele>
        <time>2009-06-13T12:02:15Z</time>
      </trkpt>
      <trkpt lat="43.63898" lon="6.71838">
        <ele>492</ele>
        <time>2009-06-13T12:02:19Z</time>
      </trkpt>
      <trkpt lat="43.63902" lon="6.71843">
        <ele>491</ele>
        <time>2009-06-13T12:02:21Z</time>
      </trkpt>
      <trkpt lat="43.63908" lon="6.71853">
        <ele>494</ele>
        <time>2009-06-13T12:02:24Z</time>
      </trkpt>
      <trkpt lat="43.63918" lon="6.71869">
        <ele>494</ele>
        <time>2009-06-13T12:02:29Z</time>
      </trkpt>
      <trkpt lat="43.63925" lon="6.71879">
        <ele>494</ele>
        <time>2009-06-13T12:02:32Z</time>
      </trkpt>
      <trkpt lat="43.63929" lon="6.71889">
        <ele>494</ele>
        <time>2009-06-13T12:02:36Z</time>
      </trkpt>
      <trkpt lat="43.63934" lon="6.71898">
        <ele>494</ele>
        <time>2009-06-13T12:02:41Z</time>
      </trkpt>
      <trkpt lat="43.63935" lon="6.71939">
        <ele>495</ele>
        <time>2009-06-13T12:02:50Z</time>
      </trkpt>
      <trkpt lat="43.63935" lon="6.71954">
        <ele>495</ele>
        <time>2009-06-13T12:02:51Z</time>
      </trkpt>
      <trkpt lat="43.63934" lon="6.71966">
        <ele>495</ele>
        <time>2009-06-13T12:02:52Z</time>
      </trkpt>
      <trkpt lat="43.63935" lon="6.71977">
        <ele>494</ele>
        <time>2009-06-13T12:02:53Z</time>
      </trkpt>
      <trkpt lat="43.63936" lon="6.71999">
        <ele>494</ele>
        <time>2009-06-13T12:02:56Z</time>
      </trkpt>
      <trkpt lat="43.63936" lon="6.72009">
        <ele>495</ele>
        <time>2009-06-13T12:02:58Z</time>
      </trkpt>
      <trkpt lat="43.63939" lon="6.72022">
        <ele>495</ele>
        <time>2009-06-13T12:03:00Z</time>
      </trkpt>
      <trkpt lat="43.63941" lon="6.7203">
        <ele>495</ele>
        <time>2009-06-13T12:03:02Z</time>
      </trkpt>
      <trkpt lat="43.63961" lon="6.72048">
        <ele>494</ele>
        <time>2009-06-13T12:03:11Z</time>
      </trkpt>
      <trkpt lat="43.63967" lon="6.72051">
        <ele>494</ele>
        <time>2009-06-13T12:03:12Z</time>
      </trkpt>
      <trkpt lat="43.63975" lon="6.7205">
        <ele>494</ele>
        <time>2009-06-13T12:03:13Z</time>
      </trkpt>
      <trkpt lat="43.63991" lon="6.72053">
        <ele>494</ele>
        <time>2009-06-13T12:03:17Z</time>
      </trkpt>
      <trkpt lat="43.63997" lon="6.72052">
        <ele>493</ele>
        <time>2009-06-13T12:03:19Z</time>
      </trkpt>
      <trkpt lat="43.6401" lon="6.72054">
        <ele>493</ele>
        <time>2009-06-13T12:03:23Z</time>
      </trkpt>
      <trkpt lat="43.64032" lon="6.72061">
        <ele>492</ele>
        <time>2009-06-13T12:03:29Z</time>
      </trkpt>
      <trkpt lat="43.64041" lon="6.72064">
        <ele>492</ele>
        <time>2009-06-13T12:03:32Z</time>
      </trkpt>
      <trkpt lat="43.64049" lon="6.72068">
        <ele>491</ele>
        <time>2009-06-13T12:03:34Z</time>
      </trkpt>
      <trkpt lat="43.64053" lon="6.72071">
        <ele>492</ele>
        <time>2009-06-13T12:03:35Z</time>
      </trkpt>
      <trkpt lat="43.64064" lon="6.72076">
        <ele>492</ele>
        <time>2009-06-13T12:03:38Z</time>
      </trkpt>
      <trkpt lat="43.64071" lon="6.72079">
        <ele>491</ele>
        <time>2009-06-13T12:03:39Z</time>
      </trkpt>
      <trkpt lat="43.64077" lon="6.72081">
        <ele>491</ele>
        <time>2009-06-13T12:03:40Z</time>
      </trkpt>
      <trkpt lat="43.64105" lon="6.72088">
        <ele>490</ele>
        <time>2009-06-13T12:03:48Z</time>
      </trkpt>
      <trkpt lat="43.6411" lon="6.72089">
        <ele>489</ele>
        <time>2009-06-13T12:03:49Z</time>
      </trkpt>
      <trkpt lat="43.64116" lon="6.7209">
        <ele>488</ele>
        <time>2009-06-13T12:03:50Z</time>
      </trkpt>
      <trkpt lat="43.64126" lon="6.72094">
        <ele>487</ele>
        <time>2009-06-13T12:03:53Z</time>
      </trkpt>
      <trkpt lat="43.64136" lon="6.72094">
        <ele>484</ele>
        <time>2009-06-13T12:03:58Z</time>
      </trkpt>
      <trkpt lat="43.6414" lon="6.72098">
        <ele>483</ele>
        <time>2009-06-13T12:04:00Z</time>
      </trkpt>
      <trkpt lat="43.64145" lon="6.721">
        <ele>483</ele>
        <time>2009-06-13T12:04:03Z</time>
      </trkpt>
      <trkpt lat="43.64151" lon="6.72104">
        <ele>484</ele>
        <time>2009-06-13T12:04:05Z</time>
      </trkpt>
      <trkpt lat="43.64165" lon="6.72108">
        <ele>483</ele>
        <time>2009-06-13T12:04:13Z</time>
      </trkpt>
      <trkpt lat="43.64173" lon="6.7211">
        <ele>483</ele>
        <time>2009-06-13T12:04:19Z</time>
      </trkpt>
      <trkpt lat="43.6418" lon="6.72111">
        <ele>483</ele>
        <time>2009-06-13T12:04:20Z</time>
      </trkpt>
      <trkpt lat="43.64184" lon="6.72099">
        <ele>484</ele>
        <time>2009-06-13T12:04:22Z</time>
      </trkpt>
      <trkpt lat="43.64188" lon="6.72093">
        <ele>485</ele>
        <time>2009-06-13T12:04:23Z</time>
      </trkpt>
      <trkpt lat="43.64191" lon="6.72081">
        <ele>488</ele>
        <time>2009-06-13T12:04:28Z</time>
      </trkpt>
      <trkpt lat="43.64193" lon="6.72073">
        <ele>488</ele>
        <time>2009-06-13T12:04:30Z</time>
      </trkpt>
      <trkpt lat="43.64194" lon="6.72064">
        <ele>488</ele>
        <time>2009-06-13T12:04:35Z</time>
      </trkpt>
      <trkpt lat="43.64191" lon="6.72059">
        <ele>491</ele>
        <time>2009-06-13T12:04:40Z</time>
      </trkpt>
      <trkpt lat="43.64191" lon="6.72051">
        <ele>492</ele>
        <time>2009-06-13T12:04:45Z</time>
      </trkpt>
      <trkpt lat="43.64187" lon="6.72042">
        <ele>495</ele>
        <time>2009-06-13T12:04:54Z</time>
      </trkpt>
      <trkpt lat="43.64186" lon="6.72037">
        <ele>496</ele>
        <time>2009-06-13T12:04:56Z</time>
      </trkpt>
      <trkpt lat="43.64182" lon="6.72029">
        <ele>498</ele>
        <time>2009-06-13T12:05:01Z</time>
      </trkpt>
      <trkpt lat="43.64179" lon="6.72023">
        <ele>499</ele>
        <time>2009-06-13T12:05:05Z</time>
      </trkpt>
      <trkpt lat="43.64172" lon="6.72015">
        <ele>501</ele>
        <time>2009-06-13T12:05:09Z</time>
      </trkpt>
      <trkpt lat="43.64169" lon="6.7201">
        <ele>502</ele>
        <time>2009-06-13T12:05:10Z</time>
      </trkpt>
      <trkpt lat="43.64143" lon="6.71961">
        <ele>503</ele>
        <time>2009-06-13T12:05:19Z</time>
      </trkpt>
      <trkpt lat="43.64137" lon="6.7195">
        <ele>503</ele>
        <time>2009-06-13T12:05:20Z</time>
      </trkpt>
      <trkpt lat="43.64131" lon="6.71943">
        <ele>502</ele>
        <time>2009-06-13T12:05:21Z</time>
      </trkpt>
      <trkpt lat="43.6412" lon="6.71921">
        <ele>502</ele>
        <time>2009-06-13T12:05:24Z</time>
      </trkpt>
      <trkpt lat="43.64107" lon="6.719">
        <ele>503</ele>
        <time>2009-06-13T12:05:29Z</time>
      </trkpt>
      <trkpt lat="43.64104" lon="6.71894">
        <ele>503</ele>
        <time>2009-06-13T12:05:30Z</time>
      </trkpt>
      <trkpt lat="43.64099" lon="6.71889">
        <ele>503</ele>
        <time>2009-06-13T12:05:31Z</time>
      </trkpt>
      <trkpt lat="43.64091" lon="6.71875">
        <ele>503</ele>
        <time>2009-06-13T12:05:34Z</time>
      </trkpt>
      <trkpt lat="43.64081" lon="6.71861">
        <ele>505</ele>
        <time>2009-06-13T12:05:39Z</time>
      </trkpt>
      <trkpt lat="43.64079" lon="6.71855">
        <ele>505</ele>
        <time>2009-06-13T12:05:40Z</time>
      </trkpt>
      <trkpt lat="43.64061" lon="6.71823">
        <ele>506</ele>
        <time>2009-06-13T12:05:49Z</time>
      </trkpt>
      <trkpt lat="43.64057" lon="6.71811">
        <ele>507</ele>
        <time>2009-06-13T12:05:55Z</time>
      </trkpt>
      <trkpt lat="43.64051" lon="6.71803">
        <ele>507</ele>
        <time>2009-06-13T12:05:58Z</time>
      </trkpt>
      <trkpt lat="43.64047" lon="6.71797">
        <ele>508</ele>
        <time>2009-06-13T12:06:01Z</time>
      </trkpt>
      <trkpt lat="43.64043" lon="6.71791">
        <ele>508</ele>
        <time>2009-06-13T12:06:03Z</time>
      </trkpt>
      <trkpt lat="43.64031" lon="6.71775">
        <ele>508</ele>
        <time>2009-06-13T12:06:13Z</time>
      </trkpt>
      <trkpt lat="43.64028" lon="6.71767">
        <ele>510</ele>
        <time>2009-06-13T12:06:18Z</time>
      </trkpt>
      <trkpt lat="43.64026" lon="6.71759">
        <ele>512</ele>
        <time>2009-06-13T12:06:22Z</time>
      </trkpt>
      <trkpt lat="43.64026" lon="6.71752">
        <ele>512</ele>
        <time>2009-06-13T12:06:23Z</time>
      </trkpt>
      <trkpt lat="43.64015" lon="6.71725">
        <ele>512</ele>
        <time>2009-06-13T12:06:27Z</time>
      </trkpt>
      <trkpt lat="43.6401" lon="6.71708">
        <ele>511</ele>
        <time>2009-06-13T12:06:30Z</time>
      </trkpt>
      <trkpt lat="43.63999" lon="6.71693">
        <ele>513</ele>
        <time>2009-06-13T12:06:31Z</time>
      </trkpt>
      <trkpt lat="43.63991" lon="6.71671">
        <ele>513</ele>
        <time>2009-06-13T12:06:34Z</time>
      </trkpt>
      <trkpt lat="43.63986" lon="6.71666">
        <ele>514</ele>
        <time>2009-06-13T12:06:35Z</time>
      </trkpt>
      <trkpt lat="43.63979" lon="6.71652">
        <ele>514</ele>
        <time>2009-06-13T12:06:38Z</time>
      </trkpt>
      <trkpt lat="43.63993" lon="6.71655">
        <ele>514</ele>
        <time>2009-06-13T12:06:39Z</time>
      </trkpt>
      <trkpt lat="43.63996" lon="6.71647">
        <ele>514</ele>
        <time>2009-06-13T12:06:43Z</time>
      </trkpt>
      <trkpt lat="43.64001" lon="6.71642">
        <ele>515</ele>
        <time>2009-06-13T12:06:44Z</time>
      </trkpt>
      <trkpt lat="43.64007" lon="6.71639">
        <ele>515</ele>
        <time>2009-06-13T12:06:45Z</time>
      </trkpt>
      <trkpt lat="43.64032" lon="6.71625">
        <ele>515</ele>
        <time>2009-06-13T12:06:54Z</time>
      </trkpt>
      <trkpt lat="43.64041" lon="6.71625">
        <ele>515</ele>
        <time>2009-06-13T12:06:55Z</time>
      </trkpt>
      <trkpt lat="43.64046" lon="6.71625">
        <ele>515</ele>
        <time>2009-06-13T12:06:56Z</time>
      </trkpt>
      <trkpt lat="43.64051" lon="6.71625">
        <ele>515</ele>
        <time>2009-06-13T12:06:57Z</time>
      </trkpt>
      <trkpt lat="43.64061" lon="6.71622">
        <ele>516</ele>
        <time>2009-06-13T12:07:00Z</time>
      </trkpt>
      <trkpt lat="43.6407" lon="6.71625">
        <ele>515</ele>
        <time>2009-06-13T12:07:02Z</time>
      </trkpt>
      <trkpt lat="43.64081" lon="6.71625">
        <ele>515</ele>
        <time>2009-06-13T12:07:05Z</time>
      </trkpt>
      <trkpt lat="43.6408" lon="6.71617">
        <ele>516</ele>
        <time>2009-06-13T12:07:07Z</time>
      </trkpt>
      <trkpt lat="43.64096" lon="6.71604">
        <ele>515</ele>
        <time>2009-06-13T12:07:16Z</time>
      </trkpt>
      <trkpt lat="43.64098" lon="6.71596">
        <ele>515</ele>
        <time>2009-06-13T12:07:21Z</time>
      </trkpt>
      <trkpt lat="43.64102" lon="6.71591">
        <ele>515</ele>
        <time>2009-06-13T12:07:23Z</time>
      </trkpt>
      <trkpt lat="43.6411" lon="6.71585">
        <ele>514</ele>
        <time>2009-06-13T12:07:27Z</time>
      </trkpt>
      <trkpt lat="43.64111" lon="6.71574">
        <ele>513</ele>
        <time>2009-06-13T12:07:34Z</time>
      </trkpt>
      <trkpt lat="43.64113" lon="6.71567">
        <ele>513</ele>
        <time>2009-06-13T12:07:38Z</time>
      </trkpt>
      <trkpt lat="43.64119" lon="6.71564">
        <ele>512</ele>
        <time>2009-06-13T12:07:39Z</time>
      </trkpt>
      <trkpt lat="43.64126" lon="6.71553">
        <ele>510</ele>
        <time>2009-06-13T12:07:43Z</time>
      </trkpt>
      <trkpt lat="43.64135" lon="6.71539">
        <ele>505</ele>
        <time>2009-06-13T12:07:53Z</time>
      </trkpt>
      <trkpt lat="43.64142" lon="6.71539">
        <ele>501</ele>
        <time>2009-06-13T12:07:58Z</time>
      </trkpt>
      <trkpt lat="43.6415" lon="6.71541">
        <ele>502</ele>
        <time>2009-06-13T12:08:02Z</time>
      </trkpt>
      <trkpt lat="43.64155" lon="6.71543">
        <ele>499</ele>
        <time>2009-06-13T12:08:06Z</time>
      </trkpt>
      <trkpt lat="43.64161" lon="6.71541">
        <ele>496</ele>
        <time>2009-06-13T12:08:11Z</time>
      </trkpt>
      <trkpt lat="43.64169" lon="6.71538">
        <ele>496</ele>
        <time>2009-06-13T12:08:19Z</time>
      </trkpt>
      <trkpt lat="43.64168" lon="6.71529">
        <ele>495</ele>
        <time>2009-06-13T12:08:24Z</time>
      </trkpt>
      <trkpt lat="43.64174" lon="6.71526">
        <ele>494</ele>
        <time>2009-06-13T12:08:29Z</time>
      </trkpt>
      <trkpt lat="43.64177" lon="6.71533">
        <ele>494</ele>
        <time>2009-06-13T12:08:37Z</time>
      </trkpt>
      <trkpt lat="43.64177" lon="6.71541">
        <ele>494</ele>
        <time>2009-06-13T12:08:41Z</time>
      </trkpt>
      <trkpt lat="43.64183" lon="6.71545">
        <ele>492</ele>
        <time>2009-06-13T12:08:52Z</time>
      </trkpt>
      <trkpt lat="43.64192" lon="6.71541">
        <ele>492</ele>
        <time>2009-06-13T12:08:57Z</time>
      </trkpt>
      <trkpt lat="43.642" lon="6.71541">
        <ele>491</ele>
        <time>2009-06-13T12:09:01Z</time>
      </trkpt>
      <trkpt lat="43.64208" lon="6.71543">
        <ele>491</ele>
        <time>2009-06-13T12:09:05Z</time>
      </trkpt>
      <trkpt lat="43.64224" lon="6.71546">
        <ele>491</ele>
        <time>2009-06-13T12:09:15Z</time>
      </trkpt>
      <trkpt lat="43.64229" lon="6.71549">
        <ele>491</ele>
        <time>2009-06-13T12:09:17Z</time>
      </trkpt>
      <trkpt lat="43.64235" lon="6.71548">
        <ele>491</ele>
        <time>2009-06-13T12:09:22Z</time>
      </trkpt>
      <trkpt lat="43.64246" lon="6.71549">
        <ele>490</ele>
        <time>2009-06-13T12:09:29Z</time>
      </trkpt>
      <trkpt lat="43.64251" lon="6.7155">
        <ele>490</ele>
        <time>2009-06-13T12:09:33Z</time>
      </trkpt>
      <trkpt lat="43.64257" lon="6.71551">
        <ele>492</ele>
        <time>2009-06-13T12:09:37Z</time>
      </trkpt>
      <trkpt lat="43.64261" lon="6.71553">
        <ele>494</ele>
        <time>2009-06-13T12:09:41Z</time>
      </trkpt>
      <trkpt lat="43.64275" lon="6.7155">
        <ele>496</ele>
        <time>2009-06-13T12:09:51Z</time>
      </trkpt>
      <trkpt lat="43.64278" lon="6.71545">
        <ele>487</ele>
        <time>2009-06-13T12:10:07Z</time>
      </trkpt>
      <trkpt lat="43.64282" lon="6.7154">
        <ele>486</ele>
        <time>2009-06-13T12:10:17Z</time>
      </trkpt>
      <trkpt lat="43.64289" lon="6.7154">
        <ele>484</ele>
        <time>2009-06-13T12:10:22Z</time>
      </trkpt>
      <trkpt lat="43.64296" lon="6.71543">
        <ele>483</ele>
        <time>2009-06-13T12:10:29Z</time>
      </trkpt>
      <trkpt lat="43.64301" lon="6.71539">
        <ele>483</ele>
        <time>2009-06-13T12:10:37Z</time>
      </trkpt>
      <trkpt lat="43.64307" lon="6.71539">
        <ele>483</ele>
        <time>2009-06-13T12:10:44Z</time>
      </trkpt>
      <trkpt lat="43.6432" lon="6.71536">
        <ele>480</ele>
        <time>2009-06-13T12:10:53Z</time>
      </trkpt>
      <trkpt lat="43.64325" lon="6.71541">
        <ele>482</ele>
        <time>2009-06-13T12:10:58Z</time>
      </trkpt>
      <trkpt lat="43.64328" lon="6.71537">
        <ele>481</ele>
        <time>2009-06-13T12:11:03Z</time>
      </trkpt>
      <trkpt lat="43.64332" lon="6.71532">
        <ele>481</ele>
        <time>2009-06-13T12:11:07Z</time>
      </trkpt>
      <trkpt lat="43.64345" lon="6.71514">
        <ele>480</ele>
        <time>2009-06-13T12:11:16Z</time>
      </trkpt>
      <trkpt lat="43.64344" lon="6.71507">
        <ele>479</ele>
        <time>2009-06-13T12:11:21Z</time>
      </trkpt>
      <trkpt lat="43.64343" lon="6.71495">
        <ele>480</ele>
        <time>2009-06-13T12:11:27Z</time>
      </trkpt>
      <trkpt lat="43.64343" lon="6.71489">
        <ele>480</ele>
        <time>2009-06-13T12:11:30Z</time>
      </trkpt>
      <trkpt lat="43.64342" lon="6.71482">
        <ele>480</ele>
        <time>2009-06-13T12:11:32Z</time>
      </trkpt>
      <trkpt lat="43.64342" lon="6.71474">
        <ele>481</ele>
        <time>2009-06-13T12:11:35Z</time>
      </trkpt>
      <trkpt lat="43.64345" lon="6.71464">
        <ele>481</ele>
        <time>2009-06-13T12:11:39Z</time>
      </trkpt>
      <trkpt lat="43.64348" lon="6.71458">
        <ele>482</ele>
        <time>2009-06-13T12:11:41Z</time>
      </trkpt>
      <trkpt lat="43.64354" lon="6.71441">
        <ele>481</ele>
        <time>2009-06-13T12:11:49Z</time>
      </trkpt>
      <trkpt lat="43.64359" lon="6.7144">
        <ele>482</ele>
        <time>2009-06-13T12:11:51Z</time>
      </trkpt>
      <trkpt lat="43.64374" lon="6.71427">
        <ele>482</ele>
        <time>2009-06-13T12:11:55Z</time>
      </trkpt>
      <trkpt lat="43.64386" lon="6.71414">
        <ele>482</ele>
        <time>2009-06-13T12:11:56Z</time>
      </trkpt>
      <trkpt lat="43.64392" lon="6.71409">
        <ele>481</ele>
        <time>2009-06-13T12:11:57Z</time>
      </trkpt>
      <trkpt lat="43.64399" lon="6.71401">
        <ele>482</ele>
        <time>2009-06-13T12:12:00Z</time>
      </trkpt>
      <trkpt lat="43.64403" lon="6.71396">
        <ele>482</ele>
        <time>2009-06-13T12:12:01Z</time>
      </trkpt>
      <trkpt lat="43.64408" lon="6.71392">
        <ele>482</ele>
        <time>2009-06-13T12:12:02Z</time>
      </trkpt>
      <trkpt lat="43.64428" lon="6.71377">
        <ele>482</ele>
        <time>2009-06-13T12:12:10Z</time>
      </trkpt>
      <trkpt lat="43.64434" lon="6.71376">
        <ele>481</ele>
        <time>2009-06-13T12:12:11Z</time>
      </trkpt>
      <trkpt lat="43.64442" lon="6.71374">
        <ele>481</ele>
        <time>2009-06-13T12:12:15Z</time>
      </trkpt>
      <trkpt lat="43.6445" lon="6.71367">
        <ele>481</ele>
        <time>2009-06-13T12:12:20Z</time>
      </trkpt>
      <trkpt lat="43.64454" lon="6.71363">
        <ele>482</ele>
        <time>2009-06-13T12:12:22Z</time>
      </trkpt>
      <trkpt lat="43.64466" lon="6.71352">
        <ele>481</ele>
        <time>2009-06-13T12:12:27Z</time>
      </trkpt>
      <trkpt lat="43.6447" lon="6.71347">
        <ele>481</ele>
        <time>2009-06-13T12:12:30Z</time>
      </trkpt>
      <trkpt lat="43.64473" lon="6.71341">
        <ele>482</ele>
        <time>2009-06-13T12:12:32Z</time>
      </trkpt>
      <trkpt lat="43.64478" lon="6.71335">
        <ele>483</ele>
        <time>2009-06-13T12:12:35Z</time>
      </trkpt>
      <trkpt lat="43.64484" lon="6.71328">
        <ele>482</ele>
        <time>2009-06-13T12:12:36Z</time>
      </trkpt>
      <trkpt lat="43.64492" lon="6.7132">
        <ele>483</ele>
        <time>2009-06-13T12:12:40Z</time>
      </trkpt>
      <trkpt lat="43.64508" lon="6.71306">
        <ele>483</ele>
        <time>2009-06-13T12:12:51Z</time>
      </trkpt>
      <trkpt lat="43.64511" lon="6.713">
        <ele>484</ele>
        <time>2009-06-13T12:12:53Z</time>
      </trkpt>
      <trkpt lat="43.64515" lon="6.7129">
        <ele>485</ele>
        <time>2009-06-13T12:12:57Z</time>
      </trkpt>
      <trkpt lat="43.64519" lon="6.71285">
        <ele>485</ele>
        <time>2009-06-13T12:12:58Z</time>
      </trkpt>
      <trkpt lat="43.64521" lon="6.71279">
        <ele>485</ele>
        <time>2009-06-13T12:12:59Z</time>
      </trkpt>
      <trkpt lat="43.64531" lon="6.71268">
        <ele>486</ele>
        <time>2009-06-13T12:13:02Z</time>
      </trkpt>
      <trkpt lat="43.64538" lon="6.71265">
        <ele>488</ele>
        <time>2009-06-13T12:13:04Z</time>
      </trkpt>
      <trkpt lat="43.64548" lon="6.71254">
        <ele>488</ele>
        <time>2009-06-13T12:13:13Z</time>
      </trkpt>
      <trkpt lat="43.64554" lon="6.71246">
        <ele>489</ele>
        <time>2009-06-13T12:13:18Z</time>
      </trkpt>
      <trkpt lat="43.64559" lon="6.71238">
        <ele>491</ele>
        <time>2009-06-13T12:13:21Z</time>
      </trkpt>
      <trkpt lat="43.64564" lon="6.7123">
        <ele>492</ele>
        <time>2009-06-13T12:13:26Z</time>
      </trkpt>
      <trkpt lat="43.64566" lon="6.71224">
        <ele>492</ele>
        <time>2009-06-13T12:13:31Z</time>
      </trkpt>
      <trkpt lat="43.64567" lon="6.71216">
        <ele>492</ele>
        <time>2009-06-13T12:13:35Z</time>
      </trkpt>
      <trkpt lat="43.64568" lon="6.71208">
        <ele>494</ele>
        <time>2009-06-13T12:13:39Z</time>
      </trkpt>
      <trkpt lat="43.64567" lon="6.71202">
        <ele>495</ele>
        <time>2009-06-13T12:13:42Z</time>
      </trkpt>
      <trkpt lat="43.64568" lon="6.71187">
        <ele>496</ele>
        <time>2009-06-13T12:13:51Z</time>
      </trkpt>
      <trkpt lat="43.64567" lon="6.71179">
        <ele>496</ele>
        <time>2009-06-13T12:13:53Z</time>
      </trkpt>
      <trkpt lat="43.64567" lon="6.71172">
        <ele>496</ele>
        <time>2009-06-13T12:13:56Z</time>
      </trkpt>
      <trkpt lat="43.6457" lon="6.71168">
        <ele>497</ele>
        <time>2009-06-13T12:13:58Z</time>
      </trkpt>
      <trkpt lat="43.64572" lon="6.71161">
        <ele>497</ele>
        <time>2009-06-13T12:14:01Z</time>
      </trkpt>
      <trkpt lat="43.64577" lon="6.71155">
        <ele>496</ele>
        <time>2009-06-13T12:14:03Z</time>
      </trkpt>
      <trkpt lat="43.64585" lon="6.71148">
        <ele>495</ele>
        <time>2009-06-13T12:14:06Z</time>
      </trkpt>
      <trkpt lat="43.64603" lon="6.71134">
        <ele>495</ele>
        <time>2009-06-13T12:14:14Z</time>
      </trkpt>
      <trkpt lat="43.6461" lon="6.71129">
        <ele>494</ele>
        <time>2009-06-13T12:14:15Z</time>
      </trkpt>
      <trkpt lat="43.64614" lon="6.71136">
        <ele>496</ele>
        <time>2009-06-13T12:14:28Z</time>
      </trkpt>
      <trkpt lat="43.6462" lon="6.71179">
        <ele>496</ele>
        <time>2009-06-13T12:14:34Z</time>
      </trkpt>
      <trkpt lat="43.64622" lon="6.71186">
        <ele>496</ele>
        <time>2009-06-13T12:14:35Z</time>
      </trkpt>
      <trkpt lat="43.64622" lon="6.71203">
        <ele>496</ele>
        <time>2009-06-13T12:14:38Z</time>
      </trkpt>
      <trkpt lat="43.64622" lon="6.71209">
        <ele>496</ele>
        <time>2009-06-13T12:14:39Z</time>
      </trkpt>
      <trkpt lat="43.64619" lon="6.71216">
        <ele>496</ele>
        <time>2009-06-13T12:14:40Z</time>
      </trkpt>
      <trkpt lat="43.64613" lon="6.71253">
        <ele>496</ele>
        <time>2009-06-13T12:14:48Z</time>
      </trkpt>
      <trkpt lat="43.64607" lon="6.71254">
        <ele>496</ele>
        <time>2009-06-13T12:14:49Z</time>
      </trkpt>
      <trkpt lat="43.64602" lon="6.71255">
        <ele>496</ele>
        <time>2009-06-13T12:14:50Z</time>
      </trkpt>
      <trkpt lat="43.64596" lon="6.71258">
        <ele>496</ele>
        <time>2009-06-13T12:14:51Z</time>
      </trkpt>
      <trkpt lat="43.64582" lon="6.71264">
        <ele>496</ele>
        <time>2009-06-13T12:14:54Z</time>
      </trkpt>
      <trkpt lat="43.64575" lon="6.71265">
        <ele>497</ele>
        <time>2009-06-13T12:14:55Z</time>
      </trkpt>
      <trkpt lat="43.64568" lon="6.7127">
        <ele>497</ele>
        <time>2009-06-13T12:14:56Z</time>
      </trkpt>
      <trkpt lat="43.64564" lon="6.71274">
        <ele>497</ele>
        <time>2009-06-13T12:14:57Z</time>
      </trkpt>
      <trkpt lat="43.6455" lon="6.71286">
        <ele>497</ele>
        <time>2009-06-13T12:14:59Z</time>
      </trkpt>
      <trkpt lat="43.64549" lon="6.71295">
        <ele>496</ele>
        <time>2009-06-13T12:15:00Z</time>
      </trkpt>
      <trkpt lat="43.64547" lon="6.71304">
        <ele>496</ele>
        <time>2009-06-13T12:15:01Z</time>
      </trkpt>
      <trkpt lat="43.64523" lon="6.71348">
        <ele>496</ele>
        <time>2009-06-13T12:15:10Z</time>
      </trkpt>
      <trkpt lat="43.64523" lon="6.7136">
        <ele>496</ele>
        <time>2009-06-13T12:15:11Z</time>
      </trkpt>
      <trkpt lat="43.64523" lon="6.71371">
        <ele>497</ele>
        <time>2009-06-13T12:15:13Z</time>
      </trkpt>
      <trkpt lat="43.64517" lon="6.71389">
        <ele>497</ele>
        <time>2009-06-13T12:15:16Z</time>
      </trkpt>
      <trkpt lat="43.6451" lon="6.71398">
        <ele>497</ele>
        <time>2009-06-13T12:15:18Z</time>
      </trkpt>
      <trkpt lat="43.64499" lon="6.71412">
        <ele>497</ele>
        <time>2009-06-13T12:15:21Z</time>
      </trkpt>
      <trkpt lat="43.64493" lon="6.71415">
        <ele>496</ele>
        <time>2009-06-13T12:15:22Z</time>
      </trkpt>
      <trkpt lat="43.64489" lon="6.71421">
        <ele>496</ele>
        <time>2009-06-13T12:15:23Z</time>
      </trkpt>
      <trkpt lat="43.64482" lon="6.71433">
        <ele>496</ele>
        <time>2009-06-13T12:15:29Z</time>
      </trkpt>
      <trkpt lat="43.64477" lon="6.71437">
        <ele>496</ele>
        <time>2009-06-13T12:15:32Z</time>
      </trkpt>
      <trkpt lat="43.64475" lon="6.71438">
        <ele>495</ele>
        <time>2009-06-13T12:15:38Z</time>
      </trkpt>
      <trkpt lat="43.64474" lon="6.71443">
        <ele>496</ele>
        <time>2009-06-13T12:15:44Z</time>
      </trkpt>
      <trkpt lat="43.64474" lon="6.71445">
        <ele>495</ele>
        <time>2009-06-13T12:15:52Z</time>
      </trkpt>
      <trkpt lat="43.64473" lon="6.71451">
        <ele>494</ele>
        <time>2009-06-13T12:15:55Z</time>
      </trkpt>
      <trkpt lat="43.64477" lon="6.71451">
        <ele>495</ele>
        <time>2009-06-13T12:16:03Z</time>
      </trkpt>
      <trkpt lat="43.64473" lon="6.71449">
        <ele>497</ele>
        <time>2009-06-13T12:16:22Z</time>
      </trkpt>
      <trkpt lat="43.64475" lon="6.71444">
        <ele>497</ele>
        <time>2009-06-13T12:16:28Z</time>
      </trkpt>
      <trkpt lat="43.64475" lon="6.71444">
        <ele>497</ele>
        <time>2009-06-13T12:16:28Z</time>
      </trkpt>
      <trkpt lat="43.64473" lon="6.71438">
        <ele>505</ele>
        <time>2009-06-13T12:17:54Z</time>
      </trkpt>
      <trkpt lat="43.64473" lon="6.71438">
        <ele>503</ele>
        <time>2009-06-13T12:17:55Z</time>
      </trkpt>
      <trkpt lat="43.64473" lon="6.71438">
        <ele>503</ele>
        <time>2009-06-13T12:17:55Z</time>
      </trkpt>
      <trkpt lat="43.64474" lon="6.71439">
        <ele>505</ele>
        <time>2009-06-13T12:18:10Z</time>
      </trkpt>
      <trkpt lat="43.64487" lon="6.71469">
        <ele>502</ele>
        <time>2009-06-13T12:18:11Z</time>
      </trkpt>
      <trkpt lat="43.64495" lon="6.71493">
        <ele>502</ele>
        <time>2009-06-13T12:18:20Z</time>
      </trkpt>
      <trkpt lat="43.64501" lon="6.71502">
        <ele>502</ele>
        <time>2009-06-13T12:18:22Z</time>
      </trkpt>
      <trkpt lat="43.64509" lon="6.71522">
        <ele>503</ele>
        <time>2009-06-13T12:18:29Z</time>
      </trkpt>
      <trkpt lat="43.64516" lon="6.71532">
        <ele>503</ele>
        <time>2009-06-13T12:18:33Z</time>
      </trkpt>
      <trkpt lat="43.64522" lon="6.71544">
        <ele>503</ele>
        <time>2009-06-13T12:18:37Z</time>
      </trkpt>
      <trkpt lat="43.64529" lon="6.71553">
        <ele>504</ele>
        <time>2009-06-13T12:18:41Z</time>
      </trkpt>
      <trkpt lat="43.64536" lon="6.71573">
        <ele>505</ele>
        <time>2009-06-13T12:18:50Z</time>
      </trkpt>
      <trkpt lat="43.64544" lon="6.71582">
        <ele>504</ele>
        <time>2009-06-13T12:18:54Z</time>
      </trkpt>
      <trkpt lat="43.64552" lon="6.71591">
        <ele>506</ele>
        <time>2009-06-13T12:18:58Z</time>
      </trkpt>
      <trkpt lat="43.64562" lon="6.71601">
        <ele>507</ele>
        <time>2009-06-13T12:19:02Z</time>
      </trkpt>
      <trkpt lat="43.6457" lon="6.71611">
        <ele>505</ele>
        <time>2009-06-13T12:19:05Z</time>
      </trkpt>
      <trkpt lat="43.6459" lon="6.71616">
        <ele>504</ele>
        <time>2009-06-13T12:19:14Z</time>
      </trkpt>
      <trkpt lat="43.64595" lon="6.71614">
        <ele>503</ele>
        <time>2009-06-13T12:19:15Z</time>
      </trkpt>
      <trkpt lat="43.64606" lon="6.71611">
        <ele>503</ele>
        <time>2009-06-13T12:19:18Z</time>
      </trkpt>
      <trkpt lat="43.64615" lon="6.7161">
        <ele>502</ele>
        <time>2009-06-13T12:19:23Z</time>
      </trkpt>
      <trkpt lat="43.64625" lon="6.71606">
        <ele>502</ele>
        <time>2009-06-13T12:19:28Z</time>
      </trkpt>
      <trkpt lat="43.6463" lon="6.71609">
        <ele>501</ele>
        <time>2009-06-13T12:19:30Z</time>
      </trkpt>
      <trkpt lat="43.64635" lon="6.71612">
        <ele>501</ele>
        <time>2009-06-13T12:19:34Z</time>
      </trkpt>
      <trkpt lat="43.64642" lon="6.71614">
        <ele>502</ele>
        <time>2009-06-13T12:19:39Z</time>
      </trkpt>
      <trkpt lat="43.64648" lon="6.71616">
        <ele>502</ele>
        <time>2009-06-13T12:19:42Z</time>
      </trkpt>
      <trkpt lat="43.64655" lon="6.71633">
        <ele>502</ele>
        <time>2009-06-13T12:19:51Z</time>
      </trkpt>
      <trkpt lat="43.64658" lon="6.71634">
        <ele>502</ele>
        <time>2009-06-13T12:19:57Z</time>
      </trkpt>
      <trkpt lat="43.64662" lon="6.71636">
        <ele>503</ele>
        <time>2009-06-13T12:20:07Z</time>
      </trkpt>
      <trkpt lat="43.64664" lon="6.71636">
        <ele>502</ele>
        <time>2009-06-13T12:20:15Z</time>
      </trkpt>
      <trkpt lat="43.64665" lon="6.71637">
        <ele>503</ele>
        <time>2009-06-13T12:20:23Z</time>
      </trkpt>
      <trkpt lat="43.64666" lon="6.71642">
        <ele>502</ele>
        <time>2009-06-13T12:21:00Z</time>
      </trkpt>
      <trkpt lat="43.64667" lon="6.71643">
        <ele>502</ele>
        <time>2009-06-13T12:21:01Z</time>
      </trkpt>
      <trkpt lat="43.64668" lon="6.71644">
        <ele>502</ele>
        <time>2009-06-13T12:21:02Z</time>
      </trkpt>
      <trkpt lat="43.64669" lon="6.71649">
        <ele>502</ele>
        <time>2009-06-13T12:21:22Z</time>
      </trkpt>
      <trkpt lat="43.64669" lon="6.7165">
        <ele>502</ele>
        <time>2009-06-13T12:21:23Z</time>
      </trkpt>
      <trkpt lat="43.64671" lon="6.71657">
        <ele>503</ele>
        <time>2009-06-13T12:21:37Z</time>
      </trkpt>
      <trkpt lat="43.64679" lon="6.71681">
        <ele>497</ele>
        <time>2009-06-13T12:21:38Z</time>
      </trkpt>
      <trkpt lat="43.6468" lon="6.71687">
        <ele>496</ele>
        <time>2009-06-13T12:21:41Z</time>
      </trkpt>
      <trkpt lat="43.64683" lon="6.71701">
        <ele>495</ele>
        <time>2009-06-13T12:21:50Z</time>
      </trkpt>
      <trkpt lat="43.64681" lon="6.71714">
        <ele>494</ele>
        <time>2009-06-13T12:21:54Z</time>
      </trkpt>
      <trkpt lat="43.64686" lon="6.71721">
        <ele>495</ele>
        <time>2009-06-13T12:21:58Z</time>
      </trkpt>
      <trkpt lat="43.64693" lon="6.71728">
        <ele>495</ele>
        <time>2009-06-13T12:22:02Z</time>
      </trkpt>
      <trkpt lat="43.64698" lon="6.71738">
        <ele>495</ele>
        <time>2009-06-13T12:22:06Z</time>
      </trkpt>
      <trkpt lat="43.64713" lon="6.71766">
        <ele>495</ele>
        <time>2009-06-13T12:22:15Z</time>
      </trkpt>
      <trkpt lat="43.64719" lon="6.71773">
        <ele>497</ele>
        <time>2009-06-13T12:22:19Z</time>
      </trkpt>
      <trkpt lat="43.64721" lon="6.71779">
        <ele>498</ele>
        <time>2009-06-13T12:22:20Z</time>
      </trkpt>
      <trkpt lat="43.64725" lon="6.71789">
        <ele>499</ele>
        <time>2009-06-13T12:22:23Z</time>
      </trkpt>
      <trkpt lat="43.64729" lon="6.71816">
        <ele>499</ele>
        <time>2009-06-13T12:22:28Z</time>
      </trkpt>
      <trkpt lat="43.64731" lon="6.7183">
        <ele>498</ele>
        <time>2009-06-13T12:22:31Z</time>
      </trkpt>
      <trkpt lat="43.64736" lon="6.71847">
        <ele>498</ele>
        <time>2009-06-13T12:22:35Z</time>
      </trkpt>
      <trkpt lat="43.64738" lon="6.71854">
        <ele>498</ele>
        <time>2009-06-13T12:22:36Z</time>
      </trkpt>
      <trkpt lat="43.64743" lon="6.71868">
        <ele>497</ele>
        <time>2009-06-13T12:22:39Z</time>
      </trkpt>
      <trkpt lat="43.64754" lon="6.71885">
        <ele>498</ele>
        <time>2009-06-13T12:22:43Z</time>
      </trkpt>
      <trkpt lat="43.64757" lon="6.71894">
        <ele>498</ele>
        <time>2009-06-13T12:22:44Z</time>
      </trkpt>
      <trkpt lat="43.64759" lon="6.71931">
        <ele>498</ele>
        <time>2009-06-13T12:22:52Z</time>
      </trkpt>
      <trkpt lat="43.64761" lon="6.71949">
        <ele>497</ele>
        <time>2009-06-13T12:22:56Z</time>
      </trkpt>
      <trkpt lat="43.64757" lon="6.71963">
        <ele>496</ele>
        <time>2009-06-13T12:22:57Z</time>
      </trkpt>
      <trkpt lat="43.64754" lon="6.7198">
        <ele>494</ele>
        <time>2009-06-13T12:23:00Z</time>
      </trkpt>
      <trkpt lat="43.64757" lon="6.71999">
        <ele>494</ele>
        <time>2009-06-13T12:23:04Z</time>
      </trkpt>
      <trkpt lat="43.64757" lon="6.72019">
        <ele>493</ele>
        <time>2009-06-13T12:23:08Z</time>
      </trkpt>
      <trkpt lat="43.64758" lon="6.72026">
        <ele>494</ele>
        <time>2009-06-13T12:23:09Z</time>
      </trkpt>
      <trkpt lat="43.6476" lon="6.72063">
        <ele>493</ele>
        <time>2009-06-13T12:23:17Z</time>
      </trkpt>
      <trkpt lat="43.64762" lon="6.72073">
        <ele>492</ele>
        <time>2009-06-13T12:23:18Z</time>
      </trkpt>
      <trkpt lat="43.64765" lon="6.72081">
        <ele>492</ele>
        <time>2009-06-13T12:23:19Z</time>
      </trkpt>
      <trkpt lat="43.64788" lon="6.72126">
        <ele>497</ele>
        <time>2009-06-13T12:23:28Z</time>
      </trkpt>
      <trkpt lat="43.64799" lon="6.72136">
        <ele>505</ele>
        <time>2009-06-13T12:23:30Z</time>
      </trkpt>
      <trkpt lat="43.64807" lon="6.72139">
        <ele>506</ele>
        <time>2009-06-13T12:23:31Z</time>
      </trkpt>
      <trkpt lat="43.64813" lon="6.72141">
        <ele>505</ele>
        <time>2009-06-13T12:23:32Z</time>
      </trkpt>
      <trkpt lat="43.64823" lon="6.72143">
        <ele>505</ele>
        <time>2009-06-13T12:23:35Z</time>
      </trkpt>
      <trkpt lat="43.64835" lon="6.72149">
        <ele>503</ele>
        <time>2009-06-13T12:23:39Z</time>
      </trkpt>
      <trkpt lat="43.64841" lon="6.72151">
        <ele>503</ele>
        <time>2009-06-13T12:23:40Z</time>
      </trkpt>
      <trkpt lat="43.64853" lon="6.72161">
        <ele>502</ele>
        <time>2009-06-13T12:23:43Z</time>
      </trkpt>
      <trkpt lat="43.64857" lon="6.72168">
        <ele>501</ele>
        <time>2009-06-13T12:23:44Z</time>
      </trkpt>
      <trkpt lat="43.64876" lon="6.72196">
        <ele>501</ele>
        <time>2009-06-13T12:23:52Z</time>
      </trkpt>
      <trkpt lat="43.64871" lon="6.72203">
        <ele>500</ele>
        <time>2009-06-13T12:23:53Z</time>
      </trkpt>
      <trkpt lat="43.64876" lon="6.72211">
        <ele>500</ele>
        <time>2009-06-13T12:23:56Z</time>
      </trkpt>
      <trkpt lat="43.64881" lon="6.7222">
        <ele>500</ele>
        <time>2009-06-13T12:24:00Z</time>
      </trkpt>
      <trkpt lat="43.64884" lon="6.72231">
        <ele>500</ele>
        <time>2009-06-13T12:24:01Z</time>
      </trkpt>
      <trkpt lat="43.64888" lon="6.72238">
        <ele>500</ele>
        <time>2009-06-13T12:24:04Z</time>
      </trkpt>
      <trkpt lat="43.64892" lon="6.72243">
        <ele>503</ele>
        <time>2009-06-13T12:24:05Z</time>
      </trkpt>
      <trkpt lat="43.64896" lon="6.7225">
        <ele>504</ele>
        <time>2009-06-13T12:24:08Z</time>
      </trkpt>
      <trkpt lat="43.64902" lon="6.72258">
        <ele>503</ele>
        <time>2009-06-13T12:24:09Z</time>
      </trkpt>
      <trkpt lat="43.6492" lon="6.72298">
        <ele>502</ele>
        <time>2009-06-13T12:24:18Z</time>
      </trkpt>
      <trkpt lat="43.64924" lon="6.72306">
        <ele>501</ele>
        <time>2009-06-13T12:24:19Z</time>
      </trkpt>
      <trkpt lat="43.64927" lon="6.72313">
        <ele>500</ele>
        <time>2009-06-13T12:24:20Z</time>
      </trkpt>
      <trkpt lat="43.64931" lon="6.72327">
        <ele>501</ele>
        <time>2009-06-13T12:24:22Z</time>
      </trkpt>
      <trkpt lat="43.64934" lon="6.72334">
        <ele>500</ele>
        <time>2009-06-13T12:24:23Z</time>
      </trkpt>
      <trkpt lat="43.64937" lon="6.72349">
        <ele>500</ele>
        <time>2009-06-13T12:24:27Z</time>
      </trkpt>
      <trkpt lat="43.64943" lon="6.72366">
        <ele>499</ele>
        <time>2009-06-13T12:24:31Z</time>
      </trkpt>
      <trkpt lat="43.64949" lon="6.72369">
        <ele>499</ele>
        <time>2009-06-13T12:24:32Z</time>
      </trkpt>
      <trkpt lat="43.64955" lon="6.7238">
        <ele>499</ele>
        <time>2009-06-13T12:24:35Z</time>
      </trkpt>
      <trkpt lat="43.64961" lon="6.72386">
        <ele>499</ele>
        <time>2009-06-13T12:24:38Z</time>
      </trkpt>
      <trkpt lat="43.64962" lon="6.72402">
        <ele>499</ele>
        <time>2009-06-13T12:24:39Z</time>
      </trkpt>
      <trkpt lat="43.64965" lon="6.72413">
        <ele>499</ele>
        <time>2009-06-13T12:24:42Z</time>
      </trkpt>
      <trkpt lat="43.64966" lon="6.72427">
        <ele>500</ele>
        <time>2009-06-13T12:24:43Z</time>
      </trkpt>
      <trkpt lat="43.6497" lon="6.72442">
        <ele>500</ele>
        <time>2009-06-13T12:24:46Z</time>
      </trkpt>
      <trkpt lat="43.64972" lon="6.72454">
        <ele>502</ele>
        <time>2009-06-13T12:24:47Z</time>
      </trkpt>
      <trkpt lat="43.6498" lon="6.72472">
        <ele>507</ele>
        <time>2009-06-13T12:24:49Z</time>
      </trkpt>
      <trkpt lat="43.64983" lon="6.72486">
        <ele>510</ele>
        <time>2009-06-13T12:24:51Z</time>
      </trkpt>
      <trkpt lat="43.64986" lon="6.72499">
        <ele>512</ele>
        <time>2009-06-13T12:24:53Z</time>
      </trkpt>
      <trkpt lat="43.64988" lon="6.72512">
        <ele>513</ele>
        <time>2009-06-13T12:24:55Z</time>
      </trkpt>
      <trkpt lat="43.64989" lon="6.72526">
        <ele>513</ele>
        <time>2009-06-13T12:24:57Z</time>
      </trkpt>
      <trkpt lat="43.64989" lon="6.72544">
        <ele>513</ele>
        <time>2009-06-13T12:25:00Z</time>
      </trkpt>
      <trkpt lat="43.6499" lon="6.7256">
        <ele>513</ele>
        <time>2009-06-13T12:25:03Z</time>
      </trkpt>
      <trkpt lat="43.64986" lon="6.72566">
        <ele>514</ele>
        <time>2009-06-13T12:25:04Z</time>
      </trkpt>
      <trkpt lat="43.64977" lon="6.72622">
        <ele>512</ele>
        <time>2009-06-13T12:25:13Z</time>
      </trkpt>
      <trkpt lat="43.64973" lon="6.72645">
        <ele>513</ele>
        <time>2009-06-13T12:25:17Z</time>
      </trkpt>
      <trkpt lat="43.64971" lon="6.72652">
        <ele>513</ele>
        <time>2009-06-13T12:25:18Z</time>
      </trkpt>
      <trkpt lat="43.64967" lon="6.7267">
        <ele>513</ele>
        <time>2009-06-13T12:25:21Z</time>
      </trkpt>
      <trkpt lat="43.64968" lon="6.72679">
        <ele>513</ele>
        <time>2009-06-13T12:25:22Z</time>
      </trkpt>
      <trkpt lat="43.64963" lon="6.72723">
        <ele>513</ele>
        <time>2009-06-13T12:25:29Z</time>
      </trkpt>
      <trkpt lat="43.64962" lon="6.72731">
        <ele>513</ele>
        <time>2009-06-13T12:25:30Z</time>
      </trkpt>
      <trkpt lat="43.64959" lon="6.72748">
        <ele>513</ele>
        <time>2009-06-13T12:25:33Z</time>
      </trkpt>
      <trkpt lat="43.64964" lon="6.72756">
        <ele>513</ele>
        <time>2009-06-13T12:25:34Z</time>
      </trkpt>
      <trkpt lat="43.64964" lon="6.72774">
        <ele>513</ele>
        <time>2009-06-13T12:25:37Z</time>
      </trkpt>
      <trkpt lat="43.64967" lon="6.72783">
        <ele>515</ele>
        <time>2009-06-13T12:25:38Z</time>
      </trkpt>
      <trkpt lat="43.64968" lon="6.72802">
        <ele>515</ele>
        <time>2009-06-13T12:25:41Z</time>
      </trkpt>
      <trkpt lat="43.64981" lon="6.72848">
        <ele>516</ele>
        <time>2009-06-13T12:25:51Z</time>
      </trkpt>
      <trkpt lat="43.64987" lon="6.72852">
        <ele>516</ele>
        <time>2009-06-13T12:25:52Z</time>
      </trkpt>
      <trkpt lat="43.64992" lon="6.72864">
        <ele>516</ele>
        <time>2009-06-13T12:25:55Z</time>
      </trkpt>
      <trkpt lat="43.65002" lon="6.72873">
        <ele>514</ele>
        <time>2009-06-13T12:25:59Z</time>
      </trkpt>
      <trkpt lat="43.6501" lon="6.72885">
        <ele>513</ele>
        <time>2009-06-13T12:26:03Z</time>
      </trkpt>
      <trkpt lat="43.65016" lon="6.72898">
        <ele>513</ele>
        <time>2009-06-13T12:26:07Z</time>
      </trkpt>
      <trkpt lat="43.65022" lon="6.72924">
        <ele>512</ele>
        <time>2009-06-13T12:26:16Z</time>
      </trkpt>
      <trkpt lat="43.65024" lon="6.72936">
        <ele>511</ele>
        <time>2009-06-13T12:26:20Z</time>
      </trkpt>
      <trkpt lat="43.65026" lon="6.72943">
        <ele>510</ele>
        <time>2009-06-13T12:26:24Z</time>
      </trkpt>
      <trkpt lat="43.65028" lon="6.72952">
        <ele>508</ele>
        <time>2009-06-13T12:26:28Z</time>
      </trkpt>
      <trkpt lat="43.65029" lon="6.72961">
        <ele>508</ele>
        <time>2009-06-13T12:26:31Z</time>
      </trkpt>
      <trkpt lat="43.6503" lon="6.72973">
        <ele>507</ele>
        <time>2009-06-13T12:26:39Z</time>
      </trkpt>
      <trkpt lat="43.65031" lon="6.7298">
        <ele>506</ele>
        <time>2009-06-13T12:26:42Z</time>
      </trkpt>
      <trkpt lat="43.65034" lon="6.72997">
        <ele>505</ele>
        <time>2009-06-13T12:26:50Z</time>
      </trkpt>
      <trkpt lat="43.65037" lon="6.73004">
        <ele>505</ele>
        <time>2009-06-13T12:26:54Z</time>
      </trkpt>
      <trkpt lat="43.65036" lon="6.73011">
        <ele>504</ele>
        <time>2009-06-13T12:26:59Z</time>
      </trkpt>
      <trkpt lat="43.65037" lon="6.7302">
        <ele>503</ele>
        <time>2009-06-13T12:27:03Z</time>
      </trkpt>
      <trkpt lat="43.65038" lon="6.73033">
        <ele>505</ele>
        <time>2009-06-13T12:27:17Z</time>
      </trkpt>
      <trkpt lat="43.65037" lon="6.73032">
        <ele>515</ele>
        <time>2009-06-13T12:27:29Z</time>
      </trkpt>
      <trkpt lat="43.65039" lon="6.73037">
        <ele>515</ele>
        <time>2009-06-13T12:27:42Z</time>
      </trkpt>
      <trkpt lat="43.65039" lon="6.73038">
        <ele>515</ele>
        <time>2009-06-13T12:27:50Z</time>
      </trkpt>
      <trkpt lat="43.65041" lon="6.73044">
        <ele>516</ele>
        <time>2009-06-13T12:27:55Z</time>
      </trkpt>
      <trkpt lat="43.65042" lon="6.73051">
        <ele>514</ele>
        <time>2009-06-13T12:28:02Z</time>
      </trkpt>
      <trkpt lat="43.65039" lon="6.73097">
        <ele>516</ele>
        <time>2009-06-13T12:28:19Z</time>
      </trkpt>
      <trkpt lat="43.65041" lon="6.73103">
        <ele>516</ele>
        <time>2009-06-13T12:28:20Z</time>
      </trkpt>
      <trkpt lat="43.65044" lon="6.7311">
        <ele>517</ele>
        <time>2009-06-13T12:28:23Z</time>
      </trkpt>
      <trkpt lat="43.65045" lon="6.73117">
        <ele>517</ele>
        <time>2009-06-13T12:28:34Z</time>
      </trkpt>
      <trkpt lat="43.65045" lon="6.73121">
        <ele>519</ele>
        <time>2009-06-13T12:28:41Z</time>
      </trkpt>
      <trkpt lat="43.65043" lon="6.73124">
        <ele>519</ele>
        <time>2009-06-13T12:29:01Z</time>
      </trkpt>
      <trkpt lat="43.65046" lon="6.73129">
        <ele>517</ele>
        <time>2009-06-13T12:29:04Z</time>
      </trkpt>
      <trkpt lat="43.65045" lon="6.7313">
        <ele>517</ele>
        <time>2009-06-13T12:29:09Z</time>
      </trkpt>
      <trkpt lat="43.65045" lon="6.73133">
        <ele>517</ele>
        <time>2009-06-13T12:29:21Z</time>
      </trkpt>
      <trkpt lat="43.65047" lon="6.73136">
        <ele>516</ele>
        <time>2009-06-13T12:29:22Z</time>
      </trkpt>
      <trkpt lat="43.65048" lon="6.73167">
        <ele>516</ele>
        <time>2009-06-13T12:29:30Z</time>
      </trkpt>
      <trkpt lat="43.65049" lon="6.73173">
        <ele>517</ele>
        <time>2009-06-13T12:29:33Z</time>
      </trkpt>
      <trkpt lat="43.65053" lon="6.73184">
        <ele>518</ele>
        <time>2009-06-13T12:29:37Z</time>
      </trkpt>
      <trkpt lat="43.65053" lon="6.73196">
        <ele>516</ele>
        <time>2009-06-13T12:29:42Z</time>
      </trkpt>
      <trkpt lat="43.65053" lon="6.73215">
        <ele>515</ele>
        <time>2009-06-13T12:29:50Z</time>
      </trkpt>
      <trkpt lat="43.65051" lon="6.73223">
        <ele>514</ele>
        <time>2009-06-13T12:29:54Z</time>
      </trkpt>
      <trkpt lat="43.65053" lon="6.73229">
        <ele>513</ele>
        <time>2009-06-13T12:29:55Z</time>
      </trkpt>
      <trkpt lat="43.65056" lon="6.73232">
        <ele>512</ele>
        <time>2009-06-13T12:30:02Z</time>
      </trkpt>
      <trkpt lat="43.65054" lon="6.73237">
        <ele>511</ele>
        <time>2009-06-13T12:30:15Z</time>
      </trkpt>
      <trkpt lat="43.6505" lon="6.73237">
        <ele>511</ele>
        <time>2009-06-13T12:30:16Z</time>
      </trkpt>
      <trkpt lat="43.65036" lon="6.73237">
        <ele>511</ele>
        <time>2009-06-13T12:30:20Z</time>
      </trkpt>
      <trkpt lat="43.65029" lon="6.73237">
        <ele>511</ele>
        <time>2009-06-13T12:30:21Z</time>
      </trkpt>
      <trkpt lat="43.65013" lon="6.73234">
        <ele>511</ele>
        <time>2009-06-13T12:30:24Z</time>
      </trkpt>
      <trkpt lat="43.6498" lon="6.73243">
        <ele>510</ele>
        <time>2009-06-13T12:30:28Z</time>
      </trkpt>
      <trkpt lat="43.6496" lon="6.73247">
        <ele>510</ele>
        <time>2009-06-13T12:30:31Z</time>
      </trkpt>
      <trkpt lat="43.6495" lon="6.73251">
        <ele>511</ele>
        <time>2009-06-13T12:30:32Z</time>
      </trkpt>
      <trkpt lat="43.64928" lon="6.73258">
        <ele>510</ele>
        <time>2009-06-13T12:30:35Z</time>
      </trkpt>
      <trkpt lat="43.64908" lon="6.73267">
        <ele>510</ele>
        <time>2009-06-13T12:30:39Z</time>
      </trkpt>
      <trkpt lat="43.64895" lon="6.73275">
        <ele>510</ele>
        <time>2009-06-13T12:30:43Z</time>
      </trkpt>
      <trkpt lat="43.64866" lon="6.73287">
        <ele>510</ele>
        <time>2009-06-13T12:30:52Z</time>
      </trkpt>
      <trkpt lat="43.64861" lon="6.73289">
        <ele>509</ele>
        <time>2009-06-13T12:30:53Z</time>
      </trkpt>
      <trkpt lat="43.64856" lon="6.7329">
        <ele>508</ele>
        <time>2009-06-13T12:30:54Z</time>
      </trkpt>
      <trkpt lat="43.64849" lon="6.73294">
        <ele>508</ele>
        <time>2009-06-13T12:30:57Z</time>
      </trkpt>
      <trkpt lat="43.6484" lon="6.73296">
        <ele>509</ele>
        <time>2009-06-13T12:30:59Z</time>
      </trkpt>
      <trkpt lat="43.64833" lon="6.73298">
        <ele>509</ele>
        <time>2009-06-13T12:31:02Z</time>
      </trkpt>
      <trkpt lat="43.6483" lon="6.73302">
        <ele>509</ele>
        <time>2009-06-13T12:31:06Z</time>
      </trkpt>
      <trkpt lat="43.6482" lon="6.73304">
        <ele>508</ele>
        <time>2009-06-13T12:31:16Z</time>
      </trkpt>
      <trkpt lat="43.6481" lon="6.73304">
        <ele>508</ele>
        <time>2009-06-13T12:31:18Z</time>
      </trkpt>
      <trkpt lat="43.64803" lon="6.73306">
        <ele>508</ele>
        <time>2009-06-13T12:31:21Z</time>
      </trkpt>
      <trkpt lat="43.64783" lon="6.73312">
        <ele>510</ele>
        <time>2009-06-13T12:31:28Z</time>
      </trkpt>
      <trkpt lat="43.64774" lon="6.73311">
        <ele>515</ele>
        <time>2009-06-13T12:31:29Z</time>
      </trkpt>
      <trkpt lat="43.64761" lon="6.73314">
        <ele>517</ele>
        <time>2009-06-13T12:31:32Z</time>
      </trkpt>
      <trkpt lat="43.64756" lon="6.73316">
        <ele>519</ele>
        <time>2009-06-13T12:31:33Z</time>
      </trkpt>
      <trkpt lat="43.64743" lon="6.73319">
        <ele>520</ele>
        <time>2009-06-13T12:31:36Z</time>
      </trkpt>
      <trkpt lat="43.64738" lon="6.73319">
        <ele>523</ele>
        <time>2009-06-13T12:31:37Z</time>
      </trkpt>
      <trkpt lat="43.6473" lon="6.73321">
        <ele>525</ele>
        <time>2009-06-13T12:31:40Z</time>
      </trkpt>
      <trkpt lat="43.64708" lon="6.73326">
        <ele>527</ele>
        <time>2009-06-13T12:31:48Z</time>
      </trkpt>
      <trkpt lat="43.64701" lon="6.73333">
        <ele>529</ele>
        <time>2009-06-13T12:31:53Z</time>
      </trkpt>
      <trkpt lat="43.64693" lon="6.73335">
        <ele>531</ele>
        <time>2009-06-13T12:31:55Z</time>
      </trkpt>
      <trkpt lat="43.64684" lon="6.73338">
        <ele>532</ele>
        <time>2009-06-13T12:31:58Z</time>
      </trkpt>
      <trkpt lat="43.64673" lon="6.73343">
        <ele>534</ele>
        <time>2009-06-13T12:32:02Z</time>
      </trkpt>
      <trkpt lat="43.64665" lon="6.73344">
        <ele>535</ele>
        <time>2009-06-13T12:32:04Z</time>
      </trkpt>
      <trkpt lat="43.64636" lon="6.73347">
        <ele>536</ele>
        <time>2009-06-13T12:32:12Z</time>
      </trkpt>
      <trkpt lat="43.64631" lon="6.73349">
        <ele>536</ele>
        <time>2009-06-13T12:32:13Z</time>
      </trkpt>
      <trkpt lat="43.6462" lon="6.73349">
        <ele>536</ele>
        <time>2009-06-13T12:32:14Z</time>
      </trkpt>
      <trkpt lat="43.64606" lon="6.73352">
        <ele>536</ele>
        <time>2009-06-13T12:32:17Z</time>
      </trkpt>
      <trkpt lat="43.64593" lon="6.73354">
        <ele>535</ele>
        <time>2009-06-13T12:32:18Z</time>
      </trkpt>
      <trkpt lat="43.64577" lon="6.73356">
        <ele>535</ele>
        <time>2009-06-13T12:32:21Z</time>
      </trkpt>
      <trkpt lat="43.64565" lon="6.73355">
        <ele>535</ele>
        <time>2009-06-13T12:32:22Z</time>
      </trkpt>
      <trkpt lat="43.64518" lon="6.73354">
        <ele>534</ele>
        <time>2009-06-13T12:32:29Z</time>
      </trkpt>
      <trkpt lat="43.64509" lon="6.73353">
        <ele>534</ele>
        <time>2009-06-13T12:32:30Z</time>
      </trkpt>
      <trkpt lat="43.64494" lon="6.73355">
        <ele>534</ele>
        <time>2009-06-13T12:32:33Z</time>
      </trkpt>
      <trkpt lat="43.64483" lon="6.73359">
        <ele>534</ele>
        <time>2009-06-13T12:32:37Z</time>
      </trkpt>
      <trkpt lat="43.6447" lon="6.73363">
        <ele>535</ele>
        <time>2009-06-13T12:32:41Z</time>
      </trkpt>
      <trkpt lat="43.64466" lon="6.73365">
        <ele>535</ele>
        <time>2009-06-13T12:32:42Z</time>
      </trkpt>
      <trkpt lat="43.64441" lon="6.7338">
        <ele>533</ele>
        <time>2009-06-13T12:32:50Z</time>
      </trkpt>
      <trkpt lat="43.6443" lon="6.73386">
        <ele>532</ele>
        <time>2009-06-13T12:32:53Z</time>
      </trkpt>
      <trkpt lat="43.64419" lon="6.73392">
        <ele>532</ele>
        <time>2009-06-13T12:32:57Z</time>
      </trkpt>
      <trkpt lat="43.6441" lon="6.73398">
        <ele>532</ele>
        <time>2009-06-13T12:33:01Z</time>
      </trkpt>
      <trkpt lat="43.64398" lon="6.73402">
        <ele>532</ele>
        <time>2009-06-13T12:33:05Z</time>
      </trkpt>
      <trkpt lat="43.64366" lon="6.73407">
        <ele>533</ele>
        <time>2009-06-13T12:33:15Z</time>
      </trkpt>
      <trkpt lat="43.64361" lon="6.73408">
        <ele>532</ele>
        <time>2009-06-13T12:33:16Z</time>
      </trkpt>
      <trkpt lat="43.64347" lon="6.7341">
        <ele>532</ele>
        <time>2009-06-13T12:33:19Z</time>
      </trkpt>
      <trkpt lat="43.6433" lon="6.73413">
        <ele>532</ele>
        <time>2009-06-13T12:33:23Z</time>
      </trkpt>
      <trkpt lat="43.64312" lon="6.73415">
        <ele>531</ele>
        <time>2009-06-13T12:33:28Z</time>
      </trkpt>
      <trkpt lat="43.64302" lon="6.73416">
        <ele>531</ele>
        <time>2009-06-13T12:33:31Z</time>
      </trkpt>
      <trkpt lat="43.64289" lon="6.73414">
        <ele>531</ele>
        <time>2009-06-13T12:33:35Z</time>
      </trkpt>
      <trkpt lat="43.64276" lon="6.73411">
        <ele>530</ele>
        <time>2009-06-13T12:33:39Z</time>
      </trkpt>
      <trkpt lat="43.64272" lon="6.73412">
        <ele>530</ele>
        <time>2009-06-13T12:33:40Z</time>
      </trkpt>
      <trkpt lat="43.64263" lon="6.73414">
        <ele>530</ele>
        <time>2009-06-13T12:33:43Z</time>
      </trkpt>
      <trkpt lat="43.64258" lon="6.73418">
        <ele>529</ele>
        <time>2009-06-13T12:33:44Z</time>
      </trkpt>
      <trkpt lat="43.6421" lon="6.73438">
        <ele>528</ele>
        <time>2009-06-13T12:33:53Z</time>
      </trkpt>
      <trkpt lat="43.64202" lon="6.7344">
        <ele>528</ele>
        <time>2009-06-13T12:33:54Z</time>
      </trkpt>
      <trkpt lat="43.64194" lon="6.73445">
        <ele>527</ele>
        <time>2009-06-13T12:33:55Z</time>
      </trkpt>
      <trkpt lat="43.64179" lon="6.7345">
        <ele>527</ele>
        <time>2009-06-13T12:33:58Z</time>
      </trkpt>
      <trkpt lat="43.64172" lon="6.73451">
        <ele>526</ele>
        <time>2009-06-13T12:33:59Z</time>
      </trkpt>
      <trkpt lat="43.64166" lon="6.73453">
        <ele>525</ele>
        <time>2009-06-13T12:34:00Z</time>
      </trkpt>
      <trkpt lat="43.64152" lon="6.73457">
        <ele>525</ele>
        <time>2009-06-13T12:34:03Z</time>
      </trkpt>
      <trkpt lat="43.64145" lon="6.73461">
        <ele>525</ele>
        <time>2009-06-13T12:34:04Z</time>
      </trkpt>
      <trkpt lat="43.64139" lon="6.73464">
        <ele>525</ele>
        <time>2009-06-13T12:34:05Z</time>
      </trkpt>
      <trkpt lat="43.64125" lon="6.7347">
        <ele>525</ele>
        <time>2009-06-13T12:34:08Z</time>
      </trkpt>
      <trkpt lat="43.64117" lon="6.73472">
        <ele>524</ele>
        <time>2009-06-13T12:34:09Z</time>
      </trkpt>
      <trkpt lat="43.64054" lon="6.73497">
        <ele>524</ele>
        <time>2009-06-13T12:34:18Z</time>
      </trkpt>
      <trkpt lat="43.6404" lon="6.73499">
        <ele>524</ele>
        <time>2009-06-13T12:34:19Z</time>
      </trkpt>
      <trkpt lat="43.64031" lon="6.73504">
        <ele>524</ele>
        <time>2009-06-13T12:34:20Z</time>
      </trkpt>
      <trkpt lat="43.64006" lon="6.73512">
        <ele>523</ele>
        <time>2009-06-13T12:34:23Z</time>
      </trkpt>
      <trkpt lat="43.6396" lon="6.73533">
        <ele>523</ele>
        <time>2009-06-13T12:34:29Z</time>
      </trkpt>
      <trkpt lat="43.63954" lon="6.73537">
        <ele>523</ele>
        <time>2009-06-13T12:34:30Z</time>
      </trkpt>
      <trkpt lat="43.63934" lon="6.73549">
        <ele>523</ele>
        <time>2009-06-13T12:34:33Z</time>
      </trkpt>
      <trkpt lat="43.6393" lon="6.73555">
        <ele>523</ele>
        <time>2009-06-13T12:34:34Z</time>
      </trkpt>
      <trkpt lat="43.63913" lon="6.73569">
        <ele>523</ele>
        <time>2009-06-13T12:34:37Z</time>
      </trkpt>
      <trkpt lat="43.63908" lon="6.73574">
        <ele>522</ele>
        <time>2009-06-13T12:34:38Z</time>
      </trkpt>
      <trkpt lat="43.63893" lon="6.73589">
        <ele>523</ele>
        <time>2009-06-13T12:34:41Z</time>
      </trkpt>
      <trkpt lat="43.63887" lon="6.73587">
        <ele>521</ele>
        <time>2009-06-13T12:34:42Z</time>
      </trkpt>
      <trkpt lat="43.6386" lon="6.73611">
        <ele>519</ele>
        <time>2009-06-13T12:34:51Z</time>
      </trkpt>
      <trkpt lat="43.63856" lon="6.73623">
        <ele>518</ele>
        <time>2009-06-13T12:34:56Z</time>
      </trkpt>
      <trkpt lat="43.63851" lon="6.73628">
        <ele>517</ele>
        <time>2009-06-13T12:35:01Z</time>
      </trkpt>
      <trkpt lat="43.63849" lon="6.73637">
        <ele>517</ele>
        <time>2009-06-13T12:35:03Z</time>
      </trkpt>
      <trkpt lat="43.63847" lon="6.73646">
        <ele>517</ele>
        <time>2009-06-13T12:35:06Z</time>
      </trkpt>
      <trkpt lat="43.63849" lon="6.73662">
        <ele>517</ele>
        <time>2009-06-13T12:35:07Z</time>
      </trkpt>
      <trkpt lat="43.63847" lon="6.73671">
        <ele>516</ele>
        <time>2009-06-13T12:35:08Z</time>
      </trkpt>
      <trkpt lat="43.63831" lon="6.7371">
        <ele>506</ele>
        <time>2009-06-13T12:35:16Z</time>
      </trkpt>
      <trkpt lat="43.63826" lon="6.73712">
        <ele>502</ele>
        <time>2009-06-13T12:35:17Z</time>
      </trkpt>
      <trkpt lat="43.63816" lon="6.73731">
        <ele>502</ele>
        <time>2009-06-13T12:35:21Z</time>
      </trkpt>
      <trkpt lat="43.63811" lon="6.73755">
        <ele>499</ele>
        <time>2009-06-13T12:35:29Z</time>
      </trkpt>
      <trkpt lat="43.63809" lon="6.73767">
        <ele>496</ele>
        <time>2009-06-13T12:35:33Z</time>
      </trkpt>
      <trkpt lat="43.63806" lon="6.73777">
        <ele>496</ele>
        <time>2009-06-13T12:35:37Z</time>
      </trkpt>
      <trkpt lat="43.63805" lon="6.73785">
        <ele>495</ele>
        <time>2009-06-13T12:35:38Z</time>
      </trkpt>
      <trkpt lat="43.63803" lon="6.73795">
        <ele>495</ele>
        <time>2009-06-13T12:35:41Z</time>
      </trkpt>
      <trkpt lat="43.63797" lon="6.73806">
        <ele>492</ele>
        <time>2009-06-13T12:35:42Z</time>
      </trkpt>
      <trkpt lat="43.6379" lon="6.73849">
        <ele>491</ele>
        <time>2009-06-13T12:35:51Z</time>
      </trkpt>
      <trkpt lat="43.63789" lon="6.73857">
        <ele>490</ele>
        <time>2009-06-13T12:35:53Z</time>
      </trkpt>
      <trkpt lat="43.63787" lon="6.73867">
        <ele>490</ele>
        <time>2009-06-13T12:35:55Z</time>
      </trkpt>
      <trkpt lat="43.63793" lon="6.73874">
        <ele>488</ele>
        <time>2009-06-13T12:35:56Z</time>
      </trkpt>
      <trkpt lat="43.63794" lon="6.7388">
        <ele>487</ele>
        <time>2009-06-13T12:35:57Z</time>
      </trkpt>
      <trkpt lat="43.63794" lon="6.73888">
        <ele>487</ele>
        <time>2009-06-13T12:36:00Z</time>
      </trkpt>
      <trkpt lat="43.63799" lon="6.73887">
        <ele>484</ele>
        <time>2009-06-13T12:36:06Z</time>
      </trkpt>
      <trkpt lat="43.63809" lon="6.73898">
        <ele>484</ele>
        <time>2009-06-13T12:36:15Z</time>
      </trkpt>
      <trkpt lat="43.6382" lon="6.739">
        <ele>483</ele>
        <time>2009-06-13T12:36:17Z</time>
      </trkpt>
      <trkpt lat="43.63825" lon="6.73903">
        <ele>482</ele>
        <time>2009-06-13T12:36:20Z</time>
      </trkpt>
      <trkpt lat="43.63832" lon="6.73901">
        <ele>481</ele>
        <time>2009-06-13T12:36:29Z</time>
      </trkpt>
      <trkpt lat="43.63829" lon="6.73907">
        <ele>480</ele>
        <time>2009-06-13T12:36:34Z</time>
      </trkpt>
      <trkpt lat="43.63825" lon="6.73912">
        <ele>479</ele>
        <time>2009-06-13T12:36:35Z</time>
      </trkpt>
      <trkpt lat="43.63818" lon="6.73924">
        <ele>478</ele>
        <time>2009-06-13T12:36:38Z</time>
      </trkpt>
      <trkpt lat="43.63812" lon="6.73932">
        <ele>477</ele>
        <time>2009-06-13T12:36:39Z</time>
      </trkpt>
      <trkpt lat="43.638" lon="6.73969">
        <ele>475</ele>
        <time>2009-06-13T12:36:49Z</time>
      </trkpt>
      <trkpt lat="43.63803" lon="6.73975">
        <ele>473</ele>
        <time>2009-06-13T12:36:51Z</time>
      </trkpt>
      <trkpt lat="43.63802" lon="6.73983">
        <ele>473</ele>
        <time>2009-06-13T12:36:54Z</time>
      </trkpt>
      <trkpt lat="43.63798" lon="6.73998">
        <ele>472</ele>
        <time>2009-06-13T12:36:56Z</time>
      </trkpt>
      <trkpt lat="43.63795" lon="6.7401">
        <ele>472</ele>
        <time>2009-06-13T12:36:59Z</time>
      </trkpt>
      <trkpt lat="43.63789" lon="6.7402">
        <ele>471</ele>
        <time>2009-06-13T12:37:01Z</time>
      </trkpt>
      <trkpt lat="43.63786" lon="6.74029">
        <ele>471</ele>
        <time>2009-06-13T12:37:04Z</time>
      </trkpt>
      <trkpt lat="43.63785" lon="6.74036">
        <ele>471</ele>
        <time>2009-06-13T12:37:05Z</time>
      </trkpt>
      <trkpt lat="43.63783" lon="6.74042">
        <ele>471</ele>
        <time>2009-06-13T12:37:06Z</time>
      </trkpt>
      <trkpt lat="43.63761" lon="6.7409">
        <ele>469</ele>
        <time>2009-06-13T12:37:15Z</time>
      </trkpt>
      <trkpt lat="43.63753" lon="6.74098">
        <ele>468</ele>
        <time>2009-06-13T12:37:17Z</time>
      </trkpt>
      <trkpt lat="43.63747" lon="6.74108">
        <ele>468</ele>
        <time>2009-06-13T12:37:20Z</time>
      </trkpt>
      <trkpt lat="43.63749" lon="6.74117">
        <ele>465</ele>
        <time>2009-06-13T12:37:22Z</time>
      </trkpt>
      <trkpt lat="43.63746" lon="6.7414">
        <ele>463</ele>
        <time>2009-06-13T12:37:29Z</time>
      </trkpt>
      <trkpt lat="43.63744" lon="6.74145">
        <ele>463</ele>
        <time>2009-06-13T12:37:30Z</time>
      </trkpt>
      <trkpt lat="43.63741" lon="6.74155">
        <ele>463</ele>
        <time>2009-06-13T12:37:33Z</time>
      </trkpt>
      <trkpt lat="43.6374" lon="6.74161">
        <ele>462</ele>
        <time>2009-06-13T12:37:34Z</time>
      </trkpt>
      <trkpt lat="43.63736" lon="6.74174">
        <ele>462</ele>
        <time>2009-06-13T12:37:37Z</time>
      </trkpt>
      <trkpt lat="43.63734" lon="6.7418">
        <ele>462</ele>
        <time>2009-06-13T12:37:38Z</time>
      </trkpt>
      <trkpt lat="43.63734" lon="6.74187">
        <ele>462</ele>
        <time>2009-06-13T12:37:40Z</time>
      </trkpt>
      <trkpt lat="43.63737" lon="6.74213">
        <ele>460</ele>
        <time>2009-06-13T12:37:49Z</time>
      </trkpt>
      <trkpt lat="43.63737" lon="6.74224">
        <ele>459</ele>
        <time>2009-06-13T12:37:51Z</time>
      </trkpt>
      <trkpt lat="43.63742" lon="6.74223">
        <ele>458</ele>
        <time>2009-06-13T12:37:52Z</time>
      </trkpt>
      <trkpt lat="43.63746" lon="6.74229">
        <ele>456</ele>
        <time>2009-06-13T12:37:56Z</time>
      </trkpt>
      <trkpt lat="43.63746" lon="6.74236">
        <ele>454</ele>
        <time>2009-06-13T12:37:58Z</time>
      </trkpt>
      <trkpt lat="43.63744" lon="6.74247">
        <ele>453</ele>
        <time>2009-06-13T12:38:02Z</time>
      </trkpt>
      <trkpt lat="43.63739" lon="6.74256">
        <ele>452</ele>
        <time>2009-06-13T12:38:03Z</time>
      </trkpt>
      <trkpt lat="43.63733" lon="6.74278">
        <ele>452</ele>
        <time>2009-06-13T12:38:13Z</time>
      </trkpt>
      <trkpt lat="43.63727" lon="6.74282">
        <ele>451</ele>
        <time>2009-06-13T12:38:14Z</time>
      </trkpt>
      <trkpt lat="43.63726" lon="6.74289">
        <ele>451</ele>
        <time>2009-06-13T12:38:19Z</time>
      </trkpt>
      <trkpt lat="43.63722" lon="6.74293">
        <ele>450</ele>
        <time>2009-06-13T12:38:20Z</time>
      </trkpt>
      <trkpt lat="43.6372" lon="6.74301">
        <ele>451</ele>
        <time>2009-06-13T12:38:22Z</time>
      </trkpt>
      <trkpt lat="43.63706" lon="6.74316">
        <ele>451</ele>
        <time>2009-06-13T12:38:30Z</time>
      </trkpt>
      <trkpt lat="43.63702" lon="6.74326">
        <ele>451</ele>
        <time>2009-06-13T12:38:33Z</time>
      </trkpt>
      <trkpt lat="43.63698" lon="6.74334">
        <ele>450</ele>
        <time>2009-06-13T12:38:35Z</time>
      </trkpt>
      <trkpt lat="43.63693" lon="6.74347">
        <ele>450</ele>
        <time>2009-06-13T12:38:38Z</time>
      </trkpt>
      <trkpt lat="43.63692" lon="6.74353">
        <ele>449</ele>
        <time>2009-06-13T12:38:40Z</time>
      </trkpt>
      <trkpt lat="43.6369" lon="6.74374">
        <ele>449</ele>
        <time>2009-06-13T12:38:48Z</time>
      </trkpt>
      <trkpt lat="43.6369" lon="6.74387">
        <ele>448</ele>
        <time>2009-06-13T12:38:53Z</time>
      </trkpt>
      <trkpt lat="43.63691" lon="6.74403">
        <ele>447</ele>
        <time>2009-06-13T12:38:57Z</time>
      </trkpt>
      <trkpt lat="43.63689" lon="6.74411">
        <ele>447</ele>
        <time>2009-06-13T12:38:59Z</time>
      </trkpt>
      <trkpt lat="43.63687" lon="6.74423">
        <ele>446</ele>
        <time>2009-06-13T12:39:02Z</time>
      </trkpt>
      <trkpt lat="43.6369" lon="6.7443">
        <ele>441</ele>
        <time>2009-06-13T12:39:04Z</time>
      </trkpt>
      <trkpt lat="43.63691" lon="6.7446">
        <ele>440</ele>
        <time>2009-06-13T12:39:12Z</time>
      </trkpt>
      <trkpt lat="43.6369" lon="6.7447">
        <ele>441</ele>
        <time>2009-06-13T12:39:14Z</time>
      </trkpt>
      <trkpt lat="43.63689" lon="6.74479">
        <ele>441</ele>
        <time>2009-06-13T12:39:17Z</time>
      </trkpt>
      <trkpt lat="43.63688" lon="6.74486">
        <ele>441</ele>
        <time>2009-06-13T12:39:22Z</time>
      </trkpt>
      <trkpt lat="43.63686" lon="6.74495">
        <ele>443</ele>
        <time>2009-06-13T12:39:27Z</time>
      </trkpt>
      <trkpt lat="43.63685" lon="6.74504">
        <ele>445</ele>
        <time>2009-06-13T12:39:31Z</time>
      </trkpt>
      <trkpt lat="43.63684" lon="6.74512">
        <ele>445</ele>
        <time>2009-06-13T12:39:35Z</time>
      </trkpt>
      <trkpt lat="43.63682" lon="6.74521">
        <ele>445</ele>
        <time>2009-06-13T12:39:38Z</time>
      </trkpt>
      <trkpt lat="43.63683" lon="6.74537">
        <ele>444</ele>
        <time>2009-06-13T12:39:42Z</time>
      </trkpt>
      <trkpt lat="43.63683" lon="6.74566">
        <ele>443</ele>
        <time>2009-06-13T12:39:51Z</time>
      </trkpt>
      <trkpt lat="43.63684" lon="6.7458">
        <ele>441</ele>
        <time>2009-06-13T12:39:55Z</time>
      </trkpt>
      <trkpt lat="43.6369" lon="6.74602">
        <ele>440</ele>
        <time>2009-06-13T12:39:59Z</time>
      </trkpt>
      <trkpt lat="43.6369" lon="6.7461">
        <ele>439</ele>
        <time>2009-06-13T12:40:00Z</time>
      </trkpt>
      <trkpt lat="43.63693" lon="6.74623">
        <ele>439</ele>
        <time>2009-06-13T12:40:03Z</time>
      </trkpt>
      <trkpt lat="43.63691" lon="6.74637">
        <ele>438</ele>
        <time>2009-06-13T12:40:07Z</time>
      </trkpt>
      <trkpt lat="43.63682" lon="6.74652">
        <ele>437</ele>
        <time>2009-06-13T12:40:16Z</time>
      </trkpt>
      <trkpt lat="43.63678" lon="6.74657">
        <ele>438</ele>
        <time>2009-06-13T12:40:17Z</time>
      </trkpt>
      <trkpt lat="43.63674" lon="6.74667">
        <ele>439</ele>
        <time>2009-06-13T12:40:21Z</time>
      </trkpt>
      <trkpt lat="43.63671" lon="6.74675">
        <ele>439</ele>
        <time>2009-06-13T12:40:23Z</time>
      </trkpt>
      <trkpt lat="43.63668" lon="6.74693">
        <ele>438</ele>
        <time>2009-06-13T12:40:28Z</time>
      </trkpt>
      <trkpt lat="43.63668" lon="6.74703">
        <ele>438</ele>
        <time>2009-06-13T12:40:31Z</time>
      </trkpt>
      <trkpt lat="43.63665" lon="6.74713">
        <ele>440</ele>
        <time>2009-06-13T12:40:33Z</time>
      </trkpt>
      <trkpt lat="43.63664" lon="6.74723">
        <ele>439</ele>
        <time>2009-06-13T12:40:36Z</time>
      </trkpt>
      <trkpt lat="43.63661" lon="6.74731">
        <ele>437</ele>
        <time>2009-06-13T12:40:38Z</time>
      </trkpt>
      <trkpt lat="43.6365" lon="6.74752">
        <ele>438</ele>
        <time>2009-06-13T12:40:47Z</time>
      </trkpt>
      <trkpt lat="43.63645" lon="6.74754">
        <ele>438</ele>
        <time>2009-06-13T12:40:48Z</time>
      </trkpt>
      <trkpt lat="43.63641" lon="6.74757">
        <ele>437</ele>
        <time>2009-06-13T12:40:49Z</time>
      </trkpt>
      <trkpt lat="43.63632" lon="6.74766">
        <ele>437</ele>
        <time>2009-06-13T12:40:53Z</time>
      </trkpt>
      <trkpt lat="43.63626" lon="6.74775">
        <ele>437</ele>
        <time>2009-06-13T12:40:55Z</time>
      </trkpt>
      <trkpt lat="43.63624" lon="6.74785">
        <ele>437</ele>
        <time>2009-06-13T12:40:58Z</time>
      </trkpt>
      <trkpt lat="43.6362" lon="6.74793">
        <ele>436</ele>
        <time>2009-06-13T12:40:59Z</time>
      </trkpt>
      <trkpt lat="43.63602" lon="6.74807">
        <ele>435</ele>
        <time>2009-06-13T12:41:08Z</time>
      </trkpt>
      <trkpt lat="43.63597" lon="6.74804">
        <ele>435</ele>
        <time>2009-06-13T12:41:09Z</time>
      </trkpt>
      <trkpt lat="43.63586" lon="6.748">
        <ele>434</ele>
        <time>2009-06-13T12:41:13Z</time>
      </trkpt>
      <trkpt lat="43.63579" lon="6.74794">
        <ele>433</ele>
        <time>2009-06-13T12:41:15Z</time>
      </trkpt>
      <trkpt lat="43.6357" lon="6.74784">
        <ele>433</ele>
        <time>2009-06-13T12:41:19Z</time>
      </trkpt>
      <trkpt lat="43.63562" lon="6.74777">
        <ele>433</ele>
        <time>2009-06-13T12:41:21Z</time>
      </trkpt>
      <trkpt lat="43.63547" lon="6.74767">
        <ele>435</ele>
        <time>2009-06-13T12:41:29Z</time>
      </trkpt>
      <trkpt lat="43.63545" lon="6.74762">
        <ele>435</ele>
        <time>2009-06-13T12:41:32Z</time>
      </trkpt>
      <trkpt lat="43.63543" lon="6.74756">
        <ele>434</ele>
        <time>2009-06-13T12:41:37Z</time>
      </trkpt>
      <trkpt lat="43.63538" lon="6.74749">
        <ele>433</ele>
        <time>2009-06-13T12:41:42Z</time>
      </trkpt>
      <trkpt lat="43.63529" lon="6.74732">
        <ele>433</ele>
        <time>2009-06-13T12:41:51Z</time>
      </trkpt>
      <trkpt lat="43.63524" lon="6.74726">
        <ele>434</ele>
        <time>2009-06-13T12:41:53Z</time>
      </trkpt>
      <trkpt lat="43.63523" lon="6.7472">
        <ele>434</ele>
        <time>2009-06-13T12:41:56Z</time>
      </trkpt>
      <trkpt lat="43.63519" lon="6.74713">
        <ele>435</ele>
        <time>2009-06-13T12:42:01Z</time>
      </trkpt>
      <trkpt lat="43.63513" lon="6.74709">
        <ele>434</ele>
        <time>2009-06-13T12:42:03Z</time>
      </trkpt>
      <trkpt lat="43.63505" lon="6.74708">
        <ele>434</ele>
        <time>2009-06-13T12:42:07Z</time>
      </trkpt>
      <trkpt lat="43.63496" lon="6.74694">
        <ele>436</ele>
        <time>2009-06-13T12:42:15Z</time>
      </trkpt>
      <trkpt lat="43.63494" lon="6.74686">
        <ele>435</ele>
        <time>2009-06-13T12:42:17Z</time>
      </trkpt>
      <trkpt lat="43.63493" lon="6.74676">
        <ele>436</ele>
        <time>2009-06-13T12:42:20Z</time>
      </trkpt>
      <trkpt lat="43.6349" lon="6.74662">
        <ele>434</ele>
        <time>2009-06-13T12:42:24Z</time>
      </trkpt>
      <trkpt lat="43.63485" lon="6.74644">
        <ele>431</ele>
        <time>2009-06-13T12:42:28Z</time>
      </trkpt>
      <trkpt lat="43.63484" lon="6.74638">
        <ele>430</ele>
        <time>2009-06-13T12:42:31Z</time>
      </trkpt>
      <trkpt lat="43.63486" lon="6.74626">
        <ele>433</ele>
        <time>2009-06-13T12:42:35Z</time>
      </trkpt>
      <trkpt lat="43.63483" lon="6.74614">
        <ele>438</ele>
        <time>2009-06-13T12:42:39Z</time>
      </trkpt>
      <trkpt lat="43.63476" lon="6.74603">
        <ele>442</ele>
        <time>2009-06-13T12:42:43Z</time>
      </trkpt>
      <trkpt lat="43.63461" lon="6.74588">
        <ele>445</ele>
        <time>2009-06-13T12:42:51Z</time>
      </trkpt>
      <trkpt lat="43.63457" lon="6.74583">
        <ele>446</ele>
        <time>2009-06-13T12:42:52Z</time>
      </trkpt>
      <trkpt lat="43.63452" lon="6.74576">
        <ele>447</ele>
        <time>2009-06-13T12:42:55Z</time>
      </trkpt>
      <trkpt lat="43.63443" lon="6.74565">
        <ele>448</ele>
        <time>2009-06-13T12:42:59Z</time>
      </trkpt>
      <trkpt lat="43.63436" lon="6.74557">
        <ele>449</ele>
        <time>2009-06-13T12:43:03Z</time>
      </trkpt>
      <trkpt lat="43.6343" lon="6.74553">
        <ele>448</ele>
        <time>2009-06-13T12:43:06Z</time>
      </trkpt>
      <trkpt lat="43.63425" lon="6.74556">
        <ele>450</ele>
        <time>2009-06-13T12:43:08Z</time>
      </trkpt>
      <trkpt lat="43.63417" lon="6.74562">
        <ele>450</ele>
        <time>2009-06-13T12:43:11Z</time>
      </trkpt>
      <trkpt lat="43.63393" lon="6.74565">
        <ele>453</ele>
        <time>2009-06-13T12:43:20Z</time>
      </trkpt>
      <trkpt lat="43.63388" lon="6.74563">
        <ele>454</ele>
        <time>2009-06-13T12:43:21Z</time>
      </trkpt>
      <trkpt lat="43.63376" lon="6.74564">
        <ele>456</ele>
        <time>2009-06-13T12:43:24Z</time>
      </trkpt>
      <trkpt lat="43.63363" lon="6.74566">
        <ele>457</ele>
        <time>2009-06-13T12:43:28Z</time>
      </trkpt>
      <trkpt lat="43.63351" lon="6.74567">
        <ele>459</ele>
        <time>2009-06-13T12:43:31Z</time>
      </trkpt>
      <trkpt lat="43.63346" lon="6.74566">
        <ele>460</ele>
        <time>2009-06-13T12:43:32Z</time>
      </trkpt>
      <trkpt lat="43.63336" lon="6.74568">
        <ele>460</ele>
        <time>2009-06-13T12:43:35Z</time>
      </trkpt>
      <trkpt lat="43.63325" lon="6.74568">
        <ele>460</ele>
        <time>2009-06-13T12:43:38Z</time>
      </trkpt>
      <trkpt lat="43.63311" lon="6.74567">
        <ele>460</ele>
        <time>2009-06-13T12:43:42Z</time>
      </trkpt>
      <trkpt lat="43.63285" lon="6.74573">
        <ele>461</ele>
        <time>2009-06-13T12:43:51Z</time>
      </trkpt>
      <trkpt lat="43.6328" lon="6.74579">
        <ele>461</ele>
        <time>2009-06-13T12:43:54Z</time>
      </trkpt>
      <trkpt lat="43.63272" lon="6.74585">
        <ele>461</ele>
        <time>2009-06-13T12:43:58Z</time>
      </trkpt>
      <trkpt lat="43.63267" lon="6.74593">
        <ele>461</ele>
        <time>2009-06-13T12:44:02Z</time>
      </trkpt>
      <trkpt lat="43.63262" lon="6.74599">
        <ele>462</ele>
        <time>2009-06-13T12:44:06Z</time>
      </trkpt>
      <trkpt lat="43.63251" lon="6.74611">
        <ele>464</ele>
        <time>2009-06-13T12:44:15Z</time>
      </trkpt>
      <trkpt lat="43.63247" lon="6.74615">
        <ele>464</ele>
        <time>2009-06-13T12:44:19Z</time>
      </trkpt>
      <trkpt lat="43.63239" lon="6.74618">
        <ele>464</ele>
        <time>2009-06-13T12:44:20Z</time>
      </trkpt>
      <trkpt lat="43.63233" lon="6.74621">
        <ele>464</ele>
        <time>2009-06-13T12:44:23Z</time>
      </trkpt>
      <trkpt lat="43.63222" lon="6.74625">
        <ele>464</ele>
        <time>2009-06-13T12:44:27Z</time>
      </trkpt>
      <trkpt lat="43.63214" lon="6.74628">
        <ele>465</ele>
        <time>2009-06-13T12:44:30Z</time>
      </trkpt>
      <trkpt lat="43.63205" lon="6.74629">
        <ele>465</ele>
        <time>2009-06-13T12:44:33Z</time>
      </trkpt>
      <trkpt lat="43.63196" lon="6.7463">
        <ele>464</ele>
        <time>2009-06-13T12:44:36Z</time>
      </trkpt>
      <trkpt lat="43.63181" lon="6.74632">
        <ele>463</ele>
        <time>2009-06-13T12:44:40Z</time>
      </trkpt>
      <trkpt lat="43.63176" lon="6.74634">
        <ele>463</ele>
        <time>2009-06-13T12:44:41Z</time>
      </trkpt>
      <trkpt lat="43.63167" lon="6.74637">
        <ele>463</ele>
        <time>2009-06-13T12:44:44Z</time>
      </trkpt>
      <trkpt lat="43.63152" lon="6.74647">
        <ele>463</ele>
        <time>2009-06-13T12:44:48Z</time>
      </trkpt>
      <trkpt lat="43.63119" lon="6.74687">
        <ele>462</ele>
        <time>2009-06-13T12:44:56Z</time>
      </trkpt>
      <trkpt lat="43.63111" lon="6.74698">
        <ele>463</ele>
        <time>2009-06-13T12:44:57Z</time>
      </trkpt>
      <trkpt lat="43.6309" lon="6.74728">
        <ele>466</ele>
        <time>2009-06-13T12:45:00Z</time>
      </trkpt>
      <trkpt lat="43.63081" lon="6.74738">
        <ele>467</ele>
        <time>2009-06-13T12:45:01Z</time>
      </trkpt>
      <trkpt lat="43.63063" lon="6.74761">
        <ele>467</ele>
        <time>2009-06-13T12:45:04Z</time>
      </trkpt>
      <trkpt lat="43.63058" lon="6.74768">
        <ele>468</ele>
        <time>2009-06-13T12:45:05Z</time>
      </trkpt>
      <trkpt lat="43.63045" lon="6.74786">
        <ele>467</ele>
        <time>2009-06-13T12:45:08Z</time>
      </trkpt>
      <trkpt lat="43.63038" lon="6.74792">
        <ele>467</ele>
        <time>2009-06-13T12:45:09Z</time>
      </trkpt>
      <trkpt lat="43.63029" lon="6.74807">
        <ele>467</ele>
        <time>2009-06-13T12:45:12Z</time>
      </trkpt>
      <trkpt lat="43.6302" lon="6.74818">
        <ele>469</ele>
        <time>2009-06-13T12:45:15Z</time>
      </trkpt>
      <trkpt lat="43.62988" lon="6.74827">
        <ele>470</ele>
        <time>2009-06-13T12:45:23Z</time>
      </trkpt>
      <trkpt lat="43.62983" lon="6.74823">
        <ele>469</ele>
        <time>2009-06-13T12:45:24Z</time>
      </trkpt>
      <trkpt lat="43.62966" lon="6.7481">
        <ele>470</ele>
        <time>2009-06-13T12:45:28Z</time>
      </trkpt>
      <trkpt lat="43.62954" lon="6.74799">
        <ele>471</ele>
        <time>2009-06-13T12:45:31Z</time>
      </trkpt>
      <trkpt lat="43.62938" lon="6.74788">
        <ele>471</ele>
        <time>2009-06-13T12:45:34Z</time>
      </trkpt>
      <trkpt lat="43.6292" lon="6.74774">
        <ele>471</ele>
        <time>2009-06-13T12:45:37Z</time>
      </trkpt>
      <trkpt lat="43.62912" lon="6.74768">
        <ele>471</ele>
        <time>2009-06-13T12:45:38Z</time>
      </trkpt>
      <trkpt lat="43.62893" lon="6.74751">
        <ele>470</ele>
        <time>2009-06-13T12:45:41Z</time>
      </trkpt>
      <trkpt lat="43.62877" lon="6.74734">
        <ele>470</ele>
        <time>2009-06-13T12:45:44Z</time>
      </trkpt>
      <trkpt lat="43.62862" lon="6.74719">
        <ele>470</ele>
        <time>2009-06-13T12:45:47Z</time>
      </trkpt>
      <trkpt lat="43.62859" lon="6.74715">
        <ele>471</ele>
        <time>2009-06-13T12:45:48Z</time>
      </trkpt>
      <trkpt lat="43.62847" lon="6.74686">
        <ele>471</ele>
        <time>2009-06-13T12:45:56Z</time>
      </trkpt>
      <trkpt lat="43.62851" lon="6.7468">
        <ele>471</ele>
        <time>2009-06-13T12:45:57Z</time>
      </trkpt>
      <trkpt lat="43.62856" lon="6.74671">
        <ele>470</ele>
        <time>2009-06-13T12:46:00Z</time>
      </trkpt>
      <trkpt lat="43.62861" lon="6.74664">
        <ele>470</ele>
        <time>2009-06-13T12:46:01Z</time>
      </trkpt>
      <trkpt lat="43.62866" lon="6.74654">
        <ele>471</ele>
        <time>2009-06-13T12:46:04Z</time>
      </trkpt>
      <trkpt lat="43.62873" lon="6.74641">
        <ele>472</ele>
        <time>2009-06-13T12:46:08Z</time>
      </trkpt>
      <trkpt lat="43.62872" lon="6.74628">
        <ele>476</ele>
        <time>2009-06-13T12:46:12Z</time>
      </trkpt>
      <trkpt lat="43.62867" lon="6.74607">
        <ele>480</ele>
        <time>2009-06-13T12:46:21Z</time>
      </trkpt>
      <trkpt lat="43.62858" lon="6.74595">
        <ele>481</ele>
        <time>2009-06-13T12:46:29Z</time>
      </trkpt>
    </trkseg>
  </trk>
</gpx>